<?xml version="1.0" encoding="UTF-8" standalone="no" ?>
<gpx xmlns="http://www.topografix.com/GPX/1/1" xmlns:xsi="http://www.w3.org/2001/XMLSchema-instance" xsi:schemaLocation="http://www.topografix.com/GPX/1/1 http://www.topografix.com/GPX/1/1/gpx.xsd" version="1.1" creator="VisuGPX - https://www.visugpx.com">
  <metadata>
    <name>Saint léon</name>
    <desc><![CDATA[Sortie de Fondoubine à Saint Léon]]></desc>
  </metadata>
  <trk>
    <name><![CDATA[ACTIVE LOG120833]]></name>
    <trkseg>
      <trkpt lat="44.9662" lon="1.00666">
        <ele>133.566</ele>
        <time>2014-11-28T11:08:31Z</time>
      </trkpt>
      <trkpt lat="44.96618" lon="1.00667">
        <ele>135.403</ele>
        <time>2014-11-28T11:09:23Z</time>
      </trkpt>
      <trkpt lat="44.9662" lon="1.00669">
        <ele>134.736</ele>
        <time>2014-11-28T11:09:27Z</time>
      </trkpt>
      <trkpt lat="44.96619" lon="1.00682">
        <ele>135.36</ele>
        <time>2014-11-28T11:09:37Z</time>
      </trkpt>
      <trkpt lat="44.96612" lon="1.00681">
        <ele>137.599</ele>
        <time>2014-11-28T11:09:53Z</time>
      </trkpt>
      <trkpt lat="44.96611" lon="1.00686">
        <ele>138.631</ele>
        <time>2014-11-28T11:10:05Z</time>
      </trkpt>
      <trkpt lat="44.96623" lon="1.00708">
        <ele>138.921</ele>
        <time>2014-11-28T11:10:15Z</time>
      </trkpt>
      <trkpt lat="44.96646" lon="1.00736">
        <ele>137.908</ele>
        <time>2014-11-28T11:10:22Z</time>
      </trkpt>
      <trkpt lat="44.96655" lon="1.00798">
        <ele>135.402</ele>
        <time>2014-11-28T11:10:29Z</time>
      </trkpt>
      <trkpt lat="44.96659" lon="1.00847">
        <ele>139.16</ele>
        <time>2014-11-28T11:10:42Z</time>
      </trkpt>
      <trkpt lat="44.9667" lon="1.00868">
        <ele>140.955</ele>
        <time>2014-11-28T11:10:48Z</time>
      </trkpt>
      <trkpt lat="44.96687" lon="1.00892">
        <ele>144.023</ele>
        <time>2014-11-28T11:10:56Z</time>
      </trkpt>
      <trkpt lat="44.96717" lon="1.0093">
        <ele>147.363</ele>
        <time>2014-11-28T11:11:09Z</time>
      </trkpt>
      <trkpt lat="44.9672" lon="1.00967">
        <ele>149.618</ele>
        <time>2014-11-28T11:11:18Z</time>
      </trkpt>
      <trkpt lat="44.9671" lon="1.01016">
        <ele>152.806</ele>
        <time>2014-11-28T11:11:31Z</time>
      </trkpt>
      <trkpt lat="44.96704" lon="1.01074">
        <ele>155.973</ele>
        <time>2014-11-28T11:11:47Z</time>
      </trkpt>
      <trkpt lat="44.96706" lon="1.01142">
        <ele>159.045</ele>
        <time>2014-11-28T11:12:05Z</time>
      </trkpt>
      <trkpt lat="44.96732" lon="1.01165">
        <ele>161.171</ele>
        <time>2014-11-28T11:12:17Z</time>
      </trkpt>
      <trkpt lat="44.96747" lon="1.01169">
        <ele>161.835</ele>
        <time>2014-11-28T11:12:23Z</time>
      </trkpt>
      <trkpt lat="44.96762" lon="1.0117">
        <ele>163.723</ele>
        <time>2014-11-28T11:12:29Z</time>
      </trkpt>
      <trkpt lat="44.96774" lon="1.01168">
        <ele>164.729</ele>
        <time>2014-11-28T11:12:34Z</time>
      </trkpt>
      <trkpt lat="44.96805" lon="1.01161">
        <ele>167.062</ele>
        <time>2014-11-28T11:12:45Z</time>
      </trkpt>
      <trkpt lat="44.96834" lon="1.01155">
        <ele>168.758</ele>
        <time>2014-11-28T11:12:56Z</time>
      </trkpt>
      <trkpt lat="44.96866" lon="1.0115">
        <ele>170.872</ele>
        <time>2014-11-28T11:13:08Z</time>
      </trkpt>
      <trkpt lat="44.96896" lon="1.01152">
        <ele>171.301</ele>
        <time>2014-11-28T11:13:16Z</time>
      </trkpt>
      <trkpt lat="44.96942" lon="1.01164">
        <ele>172.692</ele>
        <time>2014-11-28T11:13:28Z</time>
      </trkpt>
      <trkpt lat="44.96991" lon="1.01176">
        <ele>175.721</ele>
        <time>2014-11-28T11:13:43Z</time>
      </trkpt>
      <trkpt lat="44.97044" lon="1.01166">
        <ele>179.071</ele>
        <time>2014-11-28T11:14:01Z</time>
      </trkpt>
      <trkpt lat="44.97081" lon="1.01159">
        <ele>182.058</ele>
        <time>2014-11-28T11:14:14Z</time>
      </trkpt>
      <trkpt lat="44.97103" lon="1.01154">
        <ele>185.095</ele>
        <time>2014-11-28T11:14:22Z</time>
      </trkpt>
      <trkpt lat="44.97111" lon="1.01152">
        <ele>186.357</ele>
        <time>2014-11-28T11:14:25Z</time>
      </trkpt>
      <trkpt lat="44.97166" lon="1.01149">
        <ele>189.032</ele>
        <time>2014-11-28T11:14:44Z</time>
      </trkpt>
      <trkpt lat="44.9722" lon="1.01167">
        <ele>189.587</ele>
        <time>2014-11-28T11:15:00Z</time>
      </trkpt>
      <trkpt lat="44.97311" lon="1.01153">
        <ele>190.043</ele>
        <time>2014-11-28T11:15:18Z</time>
      </trkpt>
      <trkpt lat="44.9737" lon="1.01133">
        <ele>191.909</ele>
        <time>2014-11-28T11:15:33Z</time>
      </trkpt>
      <trkpt lat="44.97409" lon="1.01101">
        <ele>195.386</ele>
        <time>2014-11-28T11:15:45Z</time>
      </trkpt>
      <trkpt lat="44.97471" lon="1.01052">
        <ele>197.941</ele>
        <time>2014-11-28T11:16:05Z</time>
      </trkpt>
      <trkpt lat="44.97496" lon="1.01034">
        <ele>197.963</ele>
        <time>2014-11-28T11:16:12Z</time>
      </trkpt>
      <trkpt lat="44.97534" lon="1.01025">
        <ele>196.557</ele>
        <time>2014-11-28T11:16:20Z</time>
      </trkpt>
      <trkpt lat="44.97591" lon="1.01039">
        <ele>199.205</ele>
        <time>2014-11-28T11:16:31Z</time>
      </trkpt>
      <trkpt lat="44.97624" lon="1.01041">
        <ele>198.028</ele>
        <time>2014-11-28T11:16:37Z</time>
      </trkpt>
      <trkpt lat="44.97698" lon="1.01038">
        <ele>196.051</ele>
        <time>2014-11-28T11:16:49Z</time>
      </trkpt>
      <trkpt lat="44.97718" lon="1.01036">
        <ele>193.955</ele>
        <time>2014-11-28T11:16:52Z</time>
      </trkpt>
      <trkpt lat="44.97742" lon="1.01063">
        <ele>195.11</ele>
        <time>2014-11-28T11:16:57Z</time>
      </trkpt>
      <trkpt lat="44.97786" lon="1.01114">
        <ele>193.969</ele>
        <time>2014-11-28T11:17:05Z</time>
      </trkpt>
      <trkpt lat="44.97838" lon="1.01187">
        <ele>193.9</ele>
        <time>2014-11-28T11:17:18Z</time>
      </trkpt>
      <trkpt lat="44.97853" lon="1.01202">
        <ele>193.41</ele>
        <time>2014-11-28T11:17:22Z</time>
      </trkpt>
      <trkpt lat="44.97868" lon="1.01212">
        <ele>193.884</ele>
        <time>2014-11-28T11:17:26Z</time>
      </trkpt>
      <trkpt lat="44.97928" lon="1.01246">
        <ele>194.985</ele>
        <time>2014-11-28T11:17:39Z</time>
      </trkpt>
      <trkpt lat="44.9796" lon="1.01262">
        <ele>192.506</ele>
        <time>2014-11-28T11:17:45Z</time>
      </trkpt>
      <trkpt lat="44.97987" lon="1.01268">
        <ele>192.994</ele>
        <time>2014-11-28T11:17:49Z</time>
      </trkpt>
      <trkpt lat="44.98014" lon="1.01289">
        <ele>190.612</ele>
        <time>2014-11-28T11:17:53Z</time>
      </trkpt>
      <trkpt lat="44.98019" lon="1.01294">
        <ele>190.613</ele>
        <time>2014-11-28T11:17:54Z</time>
      </trkpt>
      <trkpt lat="44.98034" lon="1.01309">
        <ele>189.057</ele>
        <time>2014-11-28T11:17:57Z</time>
      </trkpt>
      <trkpt lat="44.98099" lon="1.01331">
        <ele>187.946</ele>
        <time>2014-11-28T11:18:10Z</time>
      </trkpt>
      <trkpt lat="44.98119" lon="1.01326">
        <ele>187.57</ele>
        <time>2014-11-28T11:18:13Z</time>
      </trkpt>
      <trkpt lat="44.98141" lon="1.01327">
        <ele>187.395</ele>
        <time>2014-11-28T11:18:16Z</time>
      </trkpt>
      <trkpt lat="44.98187" lon="1.01308">
        <ele>183.765</ele>
        <time>2014-11-28T11:18:22Z</time>
      </trkpt>
      <trkpt lat="44.98213" lon="1.01298">
        <ele>186.329</ele>
        <time>2014-11-28T11:18:26Z</time>
      </trkpt>
      <trkpt lat="44.98225" lon="1.01294">
        <ele>184.179</ele>
        <time>2014-11-28T11:18:28Z</time>
      </trkpt>
      <trkpt lat="44.98242" lon="1.01288">
        <ele>183.792</ele>
        <time>2014-11-28T11:18:31Z</time>
      </trkpt>
      <trkpt lat="44.9826" lon="1.01283">
        <ele>183.663</ele>
        <time>2014-11-28T11:18:34Z</time>
      </trkpt>
      <trkpt lat="44.98281" lon="1.01286">
        <ele>182.304</ele>
        <time>2014-11-28T11:18:37Z</time>
      </trkpt>
      <trkpt lat="44.983" lon="1.01302">
        <ele>182.455</ele>
        <time>2014-11-28T11:18:40Z</time>
      </trkpt>
      <trkpt lat="44.98321" lon="1.01326">
        <ele>182.171</ele>
        <time>2014-11-28T11:18:44Z</time>
      </trkpt>
      <trkpt lat="44.98337" lon="1.01331">
        <ele>182.836</ele>
        <time>2014-11-28T11:18:48Z</time>
      </trkpt>
      <trkpt lat="44.98402" lon="1.01329">
        <ele>184.31</ele>
        <time>2014-11-28T11:19:04Z</time>
      </trkpt>
      <trkpt lat="44.98417" lon="1.01329">
        <ele>183.328</ele>
        <time>2014-11-28T11:19:07Z</time>
      </trkpt>
      <trkpt lat="44.98436" lon="1.01312">
        <ele>181.78</ele>
        <time>2014-11-28T11:19:11Z</time>
      </trkpt>
      <trkpt lat="44.98443" lon="1.01302">
        <ele>180.966</ele>
        <time>2014-11-28T11:19:13Z</time>
      </trkpt>
      <trkpt lat="44.98447" lon="1.01288">
        <ele>180.058</ele>
        <time>2014-11-28T11:19:15Z</time>
      </trkpt>
      <trkpt lat="44.98454" lon="1.0125">
        <ele>181.14</ele>
        <time>2014-11-28T11:19:24Z</time>
      </trkpt>
      <trkpt lat="44.98463" lon="1.01227">
        <ele>183.431</ele>
        <time>2014-11-28T11:19:31Z</time>
      </trkpt>
      <trkpt lat="44.98485" lon="1.01196">
        <ele>183.639</ele>
        <time>2014-11-28T11:19:40Z</time>
      </trkpt>
      <trkpt lat="44.98525" lon="1.01189">
        <ele>183.137</ele>
        <time>2014-11-28T11:19:50Z</time>
      </trkpt>
      <trkpt lat="44.98533" lon="1.01188">
        <ele>183.571</ele>
        <time>2014-11-28T11:19:54Z</time>
      </trkpt>
      <trkpt lat="44.98539" lon="1.01187">
        <ele>184.587</ele>
        <time>2014-11-28T11:19:57Z</time>
      </trkpt>
      <trkpt lat="44.98544" lon="1.01186">
        <ele>185.375</ele>
        <time>2014-11-28T11:19:59Z</time>
      </trkpt>
      <trkpt lat="44.98558" lon="1.01179">
        <ele>188.386</ele>
        <time>2014-11-28T11:20:07Z</time>
      </trkpt>
      <trkpt lat="44.98565" lon="1.01174">
        <ele>189.968</ele>
        <time>2014-11-28T11:20:13Z</time>
      </trkpt>
      <trkpt lat="44.98572" lon="1.01169">
        <ele>190.557</ele>
        <time>2014-11-28T11:20:16Z</time>
      </trkpt>
      <trkpt lat="44.98583" lon="1.01161">
        <ele>190.651</ele>
        <time>2014-11-28T11:20:21Z</time>
      </trkpt>
      <trkpt lat="44.9859" lon="1.01156">
        <ele>190.934</ele>
        <time>2014-11-28T11:20:25Z</time>
      </trkpt>
      <trkpt lat="44.98618" lon="1.01121">
        <ele>191.045</ele>
        <time>2014-11-28T11:20:36Z</time>
      </trkpt>
      <trkpt lat="44.98629" lon="1.01106">
        <ele>190.765</ele>
        <time>2014-11-28T11:20:39Z</time>
      </trkpt>
      <trkpt lat="44.98653" lon="1.01073">
        <ele>188.629</ele>
        <time>2014-11-28T11:20:44Z</time>
      </trkpt>
      <trkpt lat="44.98696" lon="1.01051">
        <ele>186.582</ele>
        <time>2014-11-28T11:20:51Z</time>
      </trkpt>
      <trkpt lat="44.9872" lon="1.01051">
        <ele>187.618</ele>
        <time>2014-11-28T11:20:59Z</time>
      </trkpt>
      <trkpt lat="44.98732" lon="1.0105">
        <ele>188.885</ele>
        <time>2014-11-28T11:21:03Z</time>
      </trkpt>
      <trkpt lat="44.98749" lon="1.0105">
        <ele>189.752</ele>
        <time>2014-11-28T11:21:09Z</time>
      </trkpt>
      <trkpt lat="44.98758" lon="1.0105">
        <ele>190.541</ele>
        <time>2014-11-28T11:21:12Z</time>
      </trkpt>
      <trkpt lat="44.98784" lon="1.0106">
        <ele>190.822</ele>
        <time>2014-11-28T11:21:18Z</time>
      </trkpt>
      <trkpt lat="44.98812" lon="1.01086">
        <ele>189.532</ele>
        <time>2014-11-28T11:21:25Z</time>
      </trkpt>
      <trkpt lat="44.98844" lon="1.01117">
        <ele>189.62</ele>
        <time>2014-11-28T11:21:35Z</time>
      </trkpt>
      <trkpt lat="44.98871" lon="1.01142">
        <ele>189.418</ele>
        <time>2014-11-28T11:21:41Z</time>
      </trkpt>
      <trkpt lat="44.9888" lon="1.01151">
        <ele>190.303</ele>
        <time>2014-11-28T11:21:43Z</time>
      </trkpt>
      <trkpt lat="44.98908" lon="1.01197">
        <ele>193.475</ele>
        <time>2014-11-28T11:21:53Z</time>
      </trkpt>
      <trkpt lat="44.98931" lon="1.01262">
        <ele>196.781</ele>
        <time>2014-11-28T11:22:09Z</time>
      </trkpt>
      <trkpt lat="44.98934" lon="1.0127">
        <ele>197.503</ele>
        <time>2014-11-28T11:22:11Z</time>
      </trkpt>
      <trkpt lat="44.9894" lon="1.01287">
        <ele>199.444</ele>
        <time>2014-11-28T11:22:15Z</time>
      </trkpt>
      <trkpt lat="44.98958" lon="1.01341">
        <ele>201.052</ele>
        <time>2014-11-28T11:22:27Z</time>
      </trkpt>
      <trkpt lat="44.98998" lon="1.01411">
        <ele>204.097</ele>
        <time>2014-11-28T11:22:46Z</time>
      </trkpt>
      <trkpt lat="44.99039" lon="1.01497">
        <ele>202.876</ele>
        <time>2014-11-28T11:23:01Z</time>
      </trkpt>
      <trkpt lat="44.9906" lon="1.01533">
        <ele>201.426</ele>
        <time>2014-11-28T11:23:06Z</time>
      </trkpt>
      <trkpt lat="44.99072" lon="1.01551">
        <ele>200.657</ele>
        <time>2014-11-28T11:23:09Z</time>
      </trkpt>
      <trkpt lat="44.99082" lon="1.016">
        <ele>200.568</ele>
        <time>2014-11-28T11:23:18Z</time>
      </trkpt>
      <trkpt lat="44.99084" lon="1.01631">
        <ele>204.016</ele>
        <time>2014-11-28T11:23:28Z</time>
      </trkpt>
      <trkpt lat="44.99082" lon="1.01668">
        <ele>206.073</ele>
        <time>2014-11-28T11:23:39Z</time>
      </trkpt>
      <trkpt lat="44.9908" lon="1.01722">
        <ele>208.897</ele>
        <time>2014-11-28T11:23:55Z</time>
      </trkpt>
      <trkpt lat="44.9908" lon="1.01735">
        <ele>210.021</ele>
        <time>2014-11-28T11:23:59Z</time>
      </trkpt>
      <trkpt lat="44.9908" lon="1.01745">
        <ele>211.081</ele>
        <time>2014-11-28T11:24:03Z</time>
      </trkpt>
      <trkpt lat="44.99079" lon="1.01762">
        <ele>211.548</ele>
        <time>2014-11-28T11:24:08Z</time>
      </trkpt>
      <trkpt lat="44.99078" lon="1.01774">
        <ele>212.473</ele>
        <time>2014-11-28T11:24:12Z</time>
      </trkpt>
      <trkpt lat="44.99077" lon="1.01807">
        <ele>213.804</ele>
        <time>2014-11-28T11:24:22Z</time>
      </trkpt>
      <trkpt lat="44.99075" lon="1.01848">
        <ele>214.851</ele>
        <time>2014-11-28T11:24:33Z</time>
      </trkpt>
      <trkpt lat="44.99079" lon="1.01889">
        <ele>216.093</ele>
        <time>2014-11-28T11:24:44Z</time>
      </trkpt>
      <trkpt lat="44.99082" lon="1.01919">
        <ele>217.054</ele>
        <time>2014-11-28T11:24:51Z</time>
      </trkpt>
      <trkpt lat="44.99081" lon="1.01945">
        <ele>218.237</ele>
        <time>2014-11-28T11:24:57Z</time>
      </trkpt>
      <trkpt lat="44.9908" lon="1.01972">
        <ele>216.796</ele>
        <time>2014-11-28T11:25:03Z</time>
      </trkpt>
      <trkpt lat="44.99076" lon="1.0199">
        <ele>216.418</ele>
        <time>2014-11-28T11:25:07Z</time>
      </trkpt>
      <trkpt lat="44.99061" lon="1.02057">
        <ele>215.499</ele>
        <time>2014-11-28T11:25:20Z</time>
      </trkpt>
      <trkpt lat="44.99075" lon="1.02062">
        <ele>217.108</ele>
        <time>2014-11-28T11:25:24Z</time>
      </trkpt>
      <trkpt lat="44.99119" lon="1.02045">
        <ele>218.96</ele>
        <time>2014-11-28T11:25:42Z</time>
      </trkpt>
      <trkpt lat="44.99119" lon="1.02045">
        <ele>219.814</ele>
        <time>2014-11-28T11:25:44Z</time>
      </trkpt>
      <trkpt lat="44.99119" lon="1.02045">
        <ele>221.124</ele>
        <time>2014-11-28T11:25:56Z</time>
      </trkpt>
      <trkpt lat="44.99188" lon="1.02033">
        <ele>219.389</ele>
        <time>2014-11-28T11:26:04Z</time>
      </trkpt>
      <trkpt lat="44.99211" lon="1.0203">
        <ele>219.947</ele>
        <time>2014-11-28T11:26:09Z</time>
      </trkpt>
      <trkpt lat="44.99222" lon="1.02029">
        <ele>218.477</ele>
        <time>2014-11-28T11:26:11Z</time>
      </trkpt>
      <trkpt lat="44.99288" lon="1.02084">
        <ele>215.451</ele>
        <time>2014-11-28T11:26:22Z</time>
      </trkpt>
      <trkpt lat="44.99302" lon="1.02084">
        <ele>217.174</ele>
        <time>2014-11-28T11:26:25Z</time>
      </trkpt>
      <trkpt lat="44.99313" lon="1.02085">
        <ele>215.937</ele>
        <time>2014-11-28T11:26:27Z</time>
      </trkpt>
      <trkpt lat="44.99326" lon="1.02085">
        <ele>216.178</ele>
        <time>2014-11-28T11:26:30Z</time>
      </trkpt>
      <trkpt lat="44.99338" lon="1.02086">
        <ele>216.022</ele>
        <time>2014-11-28T11:26:33Z</time>
      </trkpt>
      <trkpt lat="44.99357" lon="1.02087">
        <ele>215.242</ele>
        <time>2014-11-28T11:26:37Z</time>
      </trkpt>
      <trkpt lat="44.99373" lon="1.02088">
        <ele>214.557</ele>
        <time>2014-11-28T11:26:41Z</time>
      </trkpt>
      <trkpt lat="44.9941" lon="1.0209">
        <ele>213.952</ele>
        <time>2014-11-28T11:26:50Z</time>
      </trkpt>
      <trkpt lat="44.99431" lon="1.02091">
        <ele>214.562</ele>
        <time>2014-11-28T11:26:55Z</time>
      </trkpt>
      <trkpt lat="44.99462" lon="1.02092">
        <ele>215.283</ele>
        <time>2014-11-28T11:27:02Z</time>
      </trkpt>
      <trkpt lat="44.99475" lon="1.02092">
        <ele>215.232</ele>
        <time>2014-11-28T11:27:05Z</time>
      </trkpt>
      <trkpt lat="44.99488" lon="1.0209">
        <ele>215.475</ele>
        <time>2014-11-28T11:27:08Z</time>
      </trkpt>
      <trkpt lat="44.99499" lon="1.02116">
        <ele>215.425</ele>
        <time>2014-11-28T11:27:13Z</time>
      </trkpt>
      <trkpt lat="44.9949" lon="1.02181">
        <ele>215.296</ele>
        <time>2014-11-28T11:27:23Z</time>
      </trkpt>
      <trkpt lat="44.995" lon="1.02227">
        <ele>213.872</ele>
        <time>2014-11-28T11:27:28Z</time>
      </trkpt>
      <trkpt lat="44.99507" lon="1.02272">
        <ele>211.351</ele>
        <time>2014-11-28T11:27:32Z</time>
      </trkpt>
      <trkpt lat="44.99507" lon="1.02296">
        <ele>210.573</ele>
        <time>2014-11-28T11:27:34Z</time>
      </trkpt>
      <trkpt lat="44.99503" lon="1.02334">
        <ele>208.806</ele>
        <time>2014-11-28T11:27:37Z</time>
      </trkpt>
      <trkpt lat="44.99499" lon="1.02346">
        <ele>206.537</ele>
        <time>2014-11-28T11:27:38Z</time>
      </trkpt>
      <trkpt lat="44.99504" lon="1.02376">
        <ele>199.536</ele>
        <time>2014-11-28T11:27:41Z</time>
      </trkpt>
      <trkpt lat="44.9951" lon="1.02383">
        <ele>199.532</ele>
        <time>2014-11-28T11:27:42Z</time>
      </trkpt>
      <trkpt lat="44.9952" lon="1.024">
        <ele>197.431</ele>
        <time>2014-11-28T11:27:44Z</time>
      </trkpt>
      <trkpt lat="44.99524" lon="1.02408">
        <ele>195.804</ele>
        <time>2014-11-28T11:27:45Z</time>
      </trkpt>
      <trkpt lat="44.99526" lon="1.02453">
        <ele>194.914</ele>
        <time>2014-11-28T11:27:49Z</time>
      </trkpt>
      <trkpt lat="44.99523" lon="1.02478">
        <ele>192.905</ele>
        <time>2014-11-28T11:27:51Z</time>
      </trkpt>
      <trkpt lat="44.99524" lon="1.02503">
        <ele>191.621</ele>
        <time>2014-11-28T11:27:53Z</time>
      </trkpt>
      <trkpt lat="44.99531" lon="1.02519">
        <ele>187.254</ele>
        <time>2014-11-28T11:27:55Z</time>
      </trkpt>
      <trkpt lat="44.99524" lon="1.02528">
        <ele>187.249</ele>
        <time>2014-11-28T11:27:56Z</time>
      </trkpt>
      <trkpt lat="44.99524" lon="1.02528">
        <ele>185.373</ele>
        <time>2014-11-28T11:27:57Z</time>
      </trkpt>
      <trkpt lat="44.99506" lon="1.02599">
        <ele>181.817</ele>
        <time>2014-11-28T11:28:02Z</time>
      </trkpt>
      <trkpt lat="44.99499" lon="1.026">
        <ele>181.812</ele>
        <time>2014-11-28T11:28:03Z</time>
      </trkpt>
      <trkpt lat="44.99493" lon="1.02596">
        <ele>177.4</ele>
        <time>2014-11-28T11:28:04Z</time>
      </trkpt>
      <trkpt lat="44.99488" lon="1.02589">
        <ele>177.395</ele>
        <time>2014-11-28T11:28:05Z</time>
      </trkpt>
      <trkpt lat="44.99479" lon="1.02574">
        <ele>175.299</ele>
        <time>2014-11-28T11:28:07Z</time>
      </trkpt>
      <trkpt lat="44.99472" lon="1.02555">
        <ele>171.871</ele>
        <time>2014-11-28T11:28:09Z</time>
      </trkpt>
      <trkpt lat="44.99456" lon="1.02538">
        <ele>169.787</ele>
        <time>2014-11-28T11:28:12Z</time>
      </trkpt>
      <trkpt lat="44.99446" lon="1.02549">
        <ele>167.357</ele>
        <time>2014-11-28T11:28:14Z</time>
      </trkpt>
      <trkpt lat="44.99437" lon="1.02567">
        <ele>164.766</ele>
        <time>2014-11-28T11:28:16Z</time>
      </trkpt>
      <trkpt lat="44.99422" lon="1.02579">
        <ele>161.728</ele>
        <time>2014-11-28T11:28:18Z</time>
      </trkpt>
      <trkpt lat="44.99415" lon="1.02583">
        <ele>161.728</ele>
        <time>2014-11-28T11:28:19Z</time>
      </trkpt>
      <trkpt lat="44.9937" lon="1.0264">
        <ele>160.499</ele>
        <time>2014-11-28T11:28:21Z</time>
      </trkpt>
      <trkpt lat="44.99366" lon="1.02635">
        <ele>159.497</ele>
        <time>2014-11-28T11:28:22Z</time>
      </trkpt>
      <trkpt lat="44.9935" lon="1.0262">
        <ele>155.6</ele>
        <time>2014-11-28T11:28:25Z</time>
      </trkpt>
      <trkpt lat="44.99344" lon="1.02612">
        <ele>155.596</ele>
        <time>2014-11-28T11:28:26Z</time>
      </trkpt>
      <trkpt lat="44.9934" lon="1.02606">
        <ele>152.848</ele>
        <time>2014-11-28T11:28:27Z</time>
      </trkpt>
      <trkpt lat="44.99333" lon="1.02593">
        <ele>151.09</ele>
        <time>2014-11-28T11:28:30Z</time>
      </trkpt>
      <trkpt lat="44.99333" lon="1.02593">
        <ele>147.788</ele>
        <time>2014-11-28T11:28:31Z</time>
      </trkpt>
      <trkpt lat="44.99351" lon="1.02621">
        <ele>145.678</ele>
        <time>2014-11-28T11:28:37Z</time>
      </trkpt>
      <trkpt lat="44.99371" lon="1.0264">
        <ele>141.819</ele>
        <time>2014-11-28T11:28:40Z</time>
      </trkpt>
      <trkpt lat="44.99383" lon="1.02654">
        <ele>139.76</ele>
        <time>2014-11-28T11:28:42Z</time>
      </trkpt>
      <trkpt lat="44.9941" lon="1.0268">
        <ele>137.389</ele>
        <time>2014-11-28T11:28:46Z</time>
      </trkpt>
      <trkpt lat="44.99423" lon="1.02709">
        <ele>136.194</ele>
        <time>2014-11-28T11:28:49Z</time>
      </trkpt>
      <trkpt lat="44.99458" lon="1.02768">
        <ele>132.719</ele>
        <time>2014-11-28T11:28:56Z</time>
      </trkpt>
      <trkpt lat="44.99463" lon="1.02777">
        <ele>131.625</ele>
        <time>2014-11-28T11:28:57Z</time>
      </trkpt>
      <trkpt lat="44.99479" lon="1.02802">
        <ele>130.225</ele>
        <time>2014-11-28T11:29:00Z</time>
      </trkpt>
      <trkpt lat="44.99494" lon="1.02827">
        <ele>128.351</ele>
        <time>2014-11-28T11:29:03Z</time>
      </trkpt>
      <trkpt lat="44.99499" lon="1.02835">
        <ele>128.085</ele>
        <time>2014-11-28T11:29:04Z</time>
      </trkpt>
      <trkpt lat="44.99512" lon="1.02855">
        <ele>126.736</ele>
        <time>2014-11-28T11:29:07Z</time>
      </trkpt>
      <trkpt lat="44.99521" lon="1.02867">
        <ele>125.493</ele>
        <time>2014-11-28T11:29:09Z</time>
      </trkpt>
      <trkpt lat="44.99529" lon="1.02878">
        <ele>124.639</ele>
        <time>2014-11-28T11:29:11Z</time>
      </trkpt>
      <trkpt lat="44.9954" lon="1.02895">
        <ele>124.219</ele>
        <time>2014-11-28T11:29:14Z</time>
      </trkpt>
      <trkpt lat="44.99579" lon="1.02907">
        <ele>122.366</ele>
        <time>2014-11-28T11:29:26Z</time>
      </trkpt>
      <trkpt lat="44.99604" lon="1.02905">
        <ele>123.495</ele>
        <time>2014-11-28T11:29:39Z</time>
      </trkpt>
      <trkpt lat="44.99632" lon="1.02896">
        <ele>125.704</ele>
        <time>2014-11-28T11:29:53Z</time>
      </trkpt>
      <trkpt lat="44.99636" lon="1.02894">
        <ele>125.94</ele>
        <time>2014-11-28T11:29:55Z</time>
      </trkpt>
      <trkpt lat="44.99661" lon="1.02873">
        <ele>125.533</ele>
        <time>2014-11-28T11:30:07Z</time>
      </trkpt>
      <trkpt lat="44.99698" lon="1.02856">
        <ele>128.551</ele>
        <time>2014-11-28T11:30:21Z</time>
      </trkpt>
      <trkpt lat="44.99708" lon="1.02853">
        <ele>129.56</ele>
        <time>2014-11-28T11:30:25Z</time>
      </trkpt>
      <trkpt lat="44.99719" lon="1.02853">
        <ele>130.891</ele>
        <time>2014-11-28T11:30:29Z</time>
      </trkpt>
      <trkpt lat="44.99751" lon="1.02867">
        <ele>131.014</ele>
        <time>2014-11-28T11:30:42Z</time>
      </trkpt>
      <trkpt lat="44.99774" lon="1.02879">
        <ele>132.569</ele>
        <time>2014-11-28T11:30:53Z</time>
      </trkpt>
      <trkpt lat="44.99797" lon="1.02889">
        <ele>134.349</ele>
        <time>2014-11-28T11:31:03Z</time>
      </trkpt>
      <trkpt lat="44.99801" lon="1.02891">
        <ele>134.701</ele>
        <time>2014-11-28T11:31:05Z</time>
      </trkpt>
      <trkpt lat="44.99813" lon="1.02895">
        <ele>134.521</ele>
        <time>2014-11-28T11:31:08Z</time>
      </trkpt>
      <trkpt lat="44.99825" lon="1.029">
        <ele>135.347</ele>
        <time>2014-11-28T11:31:13Z</time>
      </trkpt>
      <trkpt lat="44.99847" lon="1.02906">
        <ele>137.993</ele>
        <time>2014-11-28T11:31:23Z</time>
      </trkpt>
      <trkpt lat="44.9988" lon="1.0291">
        <ele>139.271</ele>
        <time>2014-11-28T11:31:35Z</time>
      </trkpt>
      <trkpt lat="44.99891" lon="1.02908">
        <ele>140.149</ele>
        <time>2014-11-28T11:31:40Z</time>
      </trkpt>
      <trkpt lat="44.99919" lon="1.02895">
        <ele>142.309</ele>
        <time>2014-11-28T11:31:52Z</time>
      </trkpt>
      <trkpt lat="44.99971" lon="1.02883">
        <ele>142.835</ele>
        <time>2014-11-28T11:32:11Z</time>
      </trkpt>
      <trkpt lat="44.9999" lon="1.02927">
        <ele>142.373</ele>
        <time>2014-11-28T11:32:23Z</time>
      </trkpt>
      <trkpt lat="44.99989" lon="1.02955">
        <ele>144.725</ele>
        <time>2014-11-28T11:32:34Z</time>
      </trkpt>
      <trkpt lat="44.99987" lon="1.02959">
        <ele>146.238</ele>
        <time>2014-11-28T11:32:36Z</time>
      </trkpt>
      <trkpt lat="44.99986" lon="1.02963">
        <ele>147.282</ele>
        <time>2014-11-28T11:32:38Z</time>
      </trkpt>
      <trkpt lat="44.99965" lon="1.02988">
        <ele>147.597</ele>
        <time>2014-11-28T11:32:52Z</time>
      </trkpt>
      <trkpt lat="44.99963" lon="1.03003">
        <ele>150.648</ele>
        <time>2014-11-28T11:33:03Z</time>
      </trkpt>
      <trkpt lat="44.99958" lon="1.0303">
        <ele>153.933</ele>
        <time>2014-11-28T11:33:17Z</time>
      </trkpt>
      <trkpt lat="44.99952" lon="1.03043">
        <ele>156.69</ele>
        <time>2014-11-28T11:33:30Z</time>
      </trkpt>
      <trkpt lat="44.99947" lon="1.03052">
        <ele>158.884</ele>
        <time>2014-11-28T11:33:44Z</time>
      </trkpt>
      <trkpt lat="44.99946" lon="1.03056">
        <ele>159.47</ele>
        <time>2014-11-28T11:33:53Z</time>
      </trkpt>
      <trkpt lat="44.9993" lon="1.03072">
        <ele>162.783</ele>
        <time>2014-11-28T11:34:09Z</time>
      </trkpt>
      <trkpt lat="44.99922" lon="1.0308">
        <ele>164.997</ele>
        <time>2014-11-28T11:34:19Z</time>
      </trkpt>
      <trkpt lat="44.9991" lon="1.03086">
        <ele>167.004</ele>
        <time>2014-11-28T11:34:31Z</time>
      </trkpt>
      <trkpt lat="44.99905" lon="1.0309">
        <ele>167.688</ele>
        <time>2014-11-28T11:34:36Z</time>
      </trkpt>
      <trkpt lat="44.99898" lon="1.03096">
        <ele>168.91</ele>
        <time>2014-11-28T11:34:42Z</time>
      </trkpt>
      <trkpt lat="44.99895" lon="1.03098">
        <ele>169.598</ele>
        <time>2014-11-28T11:34:45Z</time>
      </trkpt>
      <trkpt lat="44.99877" lon="1.03109">
        <ele>172.784</ele>
        <time>2014-11-28T11:35:00Z</time>
      </trkpt>
      <trkpt lat="44.99875" lon="1.0311">
        <ele>173.404</ele>
        <time>2014-11-28T11:35:02Z</time>
      </trkpt>
      <trkpt lat="44.99867" lon="1.03116">
        <ele>174.546</ele>
        <time>2014-11-28T11:35:10Z</time>
      </trkpt>
      <trkpt lat="44.99863" lon="1.03121">
        <ele>175.567</ele>
        <time>2014-11-28T11:35:14Z</time>
      </trkpt>
      <trkpt lat="44.99857" lon="1.03128">
        <ele>176.736</ele>
        <time>2014-11-28T11:35:18Z</time>
      </trkpt>
      <trkpt lat="44.99844" lon="1.03136">
        <ele>179.514</ele>
        <time>2014-11-28T11:35:31Z</time>
      </trkpt>
      <trkpt lat="44.99838" lon="1.03141">
        <ele>180.139</ele>
        <time>2014-11-28T11:35:37Z</time>
      </trkpt>
      <trkpt lat="44.99822" lon="1.03156">
        <ele>183.716</ele>
        <time>2014-11-28T11:35:52Z</time>
      </trkpt>
      <trkpt lat="44.99809" lon="1.0317">
        <ele>186.138</ele>
        <time>2014-11-28T11:36:07Z</time>
      </trkpt>
      <trkpt lat="44.9979" lon="1.03186">
        <ele>187.175</ele>
        <time>2014-11-28T11:36:22Z</time>
      </trkpt>
      <trkpt lat="44.99778" lon="1.03205">
        <ele>190.111</ele>
        <time>2014-11-28T11:36:30Z</time>
      </trkpt>
      <trkpt lat="44.99761" lon="1.0323">
        <ele>187.899</ele>
        <time>2014-11-28T11:36:41Z</time>
      </trkpt>
      <trkpt lat="44.99756" lon="1.03238">
        <ele>190.421</ele>
        <time>2014-11-28T11:36:44Z</time>
      </trkpt>
      <trkpt lat="44.99733" lon="1.03287">
        <ele>192.155</ele>
        <time>2014-11-28T11:37:01Z</time>
      </trkpt>
      <trkpt lat="44.9972" lon="1.0335">
        <ele>193.868</ele>
        <time>2014-11-28T11:37:16Z</time>
      </trkpt>
      <trkpt lat="44.99719" lon="1.03359">
        <ele>195.297</ele>
        <time>2014-11-28T11:37:18Z</time>
      </trkpt>
      <trkpt lat="44.99721" lon="1.0339">
        <ele>196.729</ele>
        <time>2014-11-28T11:37:28Z</time>
      </trkpt>
      <trkpt lat="44.99731" lon="1.03437">
        <ele>198.309</ele>
        <time>2014-11-28T11:37:47Z</time>
      </trkpt>
      <trkpt lat="44.99753" lon="1.03469">
        <ele>201.645</ele>
        <time>2014-11-28T11:38:03Z</time>
      </trkpt>
      <trkpt lat="44.99757" lon="1.03474">
        <ele>201.529</ele>
        <time>2014-11-28T11:38:06Z</time>
      </trkpt>
      <trkpt lat="44.99772" lon="1.03508">
        <ele>202.685</ele>
        <time>2014-11-28T11:38:18Z</time>
      </trkpt>
      <trkpt lat="44.99772" lon="1.03546">
        <ele>200.225</ele>
        <time>2014-11-28T11:38:30Z</time>
      </trkpt>
      <trkpt lat="44.99771" lon="1.03558">
        <ele>203.314</ele>
        <time>2014-11-28T11:38:33Z</time>
      </trkpt>
      <trkpt lat="44.99763" lon="1.03619">
        <ele>205.039</ele>
        <time>2014-11-28T11:38:49Z</time>
      </trkpt>
      <trkpt lat="44.99742" lon="1.03667">
        <ele>206.371</ele>
        <time>2014-11-28T11:39:03Z</time>
      </trkpt>
      <trkpt lat="44.99722" lon="1.0372">
        <ele>208.165</ele>
        <time>2014-11-28T11:39:18Z</time>
      </trkpt>
      <trkpt lat="44.99718" lon="1.03732">
        <ele>208.682</ele>
        <time>2014-11-28T11:39:22Z</time>
      </trkpt>
      <trkpt lat="44.99717" lon="1.03738">
        <ele>208.495</ele>
        <time>2014-11-28T11:39:24Z</time>
      </trkpt>
      <trkpt lat="44.99696" lon="1.03782">
        <ele>211.19</ele>
        <time>2014-11-28T11:39:39Z</time>
      </trkpt>
      <trkpt lat="44.9969" lon="1.03789">
        <ele>211.887</ele>
        <time>2014-11-28T11:39:42Z</time>
      </trkpt>
      <trkpt lat="44.99672" lon="1.03818">
        <ele>211.092</ele>
        <time>2014-11-28T11:39:51Z</time>
      </trkpt>
      <trkpt lat="44.99667" lon="1.03834">
        <ele>210.996</ele>
        <time>2014-11-28T11:39:55Z</time>
      </trkpt>
      <trkpt lat="44.99663" lon="1.03843">
        <ele>210.725</ele>
        <time>2014-11-28T11:39:58Z</time>
      </trkpt>
      <trkpt lat="44.99658" lon="1.03852">
        <ele>210.391</ele>
        <time>2014-11-28T11:40:02Z</time>
      </trkpt>
      <trkpt lat="44.99638" lon="1.03875">
        <ele>210.119</ele>
        <time>2014-11-28T11:40:14Z</time>
      </trkpt>
      <trkpt lat="44.99631" lon="1.03884">
        <ele>210.139</ele>
        <time>2014-11-28T11:40:17Z</time>
      </trkpt>
      <trkpt lat="44.99622" lon="1.03903">
        <ele>209.508</ele>
        <time>2014-11-28T11:40:21Z</time>
      </trkpt>
      <trkpt lat="44.99614" lon="1.03926">
        <ele>207.813</ele>
        <time>2014-11-28T11:40:25Z</time>
      </trkpt>
      <trkpt lat="44.99574" lon="1.03965">
        <ele>209.13</ele>
        <time>2014-11-28T11:40:37Z</time>
      </trkpt>
      <trkpt lat="44.99545" lon="1.04017">
        <ele>208.627</ele>
        <time>2014-11-28T11:40:48Z</time>
      </trkpt>
      <trkpt lat="44.9952" lon="1.04053">
        <ele>205.976</ele>
        <time>2014-11-28T11:40:55Z</time>
      </trkpt>
      <trkpt lat="44.99509" lon="1.04072">
        <ele>207.264</ele>
        <time>2014-11-28T11:40:58Z</time>
      </trkpt>
      <trkpt lat="44.99494" lon="1.04101">
        <ele>204.735</ele>
        <time>2014-11-28T11:41:02Z</time>
      </trkpt>
      <trkpt lat="44.99476" lon="1.04156">
        <ele>200.443</ele>
        <time>2014-11-28T11:41:08Z</time>
      </trkpt>
      <trkpt lat="44.99471" lon="1.0418">
        <ele>199.636</ele>
        <time>2014-11-28T11:41:10Z</time>
      </trkpt>
      <trkpt lat="44.99468" lon="1.04217">
        <ele>198.166</ele>
        <time>2014-11-28T11:41:13Z</time>
      </trkpt>
      <trkpt lat="44.99463" lon="1.0424">
        <ele>194.276</ele>
        <time>2014-11-28T11:41:15Z</time>
      </trkpt>
      <trkpt lat="44.99458" lon="1.04263">
        <ele>191.661</ele>
        <time>2014-11-28T11:41:17Z</time>
      </trkpt>
      <trkpt lat="44.99454" lon="1.04315">
        <ele>188.82</ele>
        <time>2014-11-28T11:41:21Z</time>
      </trkpt>
      <trkpt lat="44.99459" lon="1.04354">
        <ele>186.85</ele>
        <time>2014-11-28T11:41:24Z</time>
      </trkpt>
      <trkpt lat="44.9946" lon="1.04378">
        <ele>185.51</ele>
        <time>2014-11-28T11:41:26Z</time>
      </trkpt>
      <trkpt lat="44.99458" lon="1.04428">
        <ele>184.452</ele>
        <time>2014-11-28T11:41:30Z</time>
      </trkpt>
      <trkpt lat="44.99456" lon="1.04453">
        <ele>181.135</ele>
        <time>2014-11-28T11:41:32Z</time>
      </trkpt>
      <trkpt lat="44.99455" lon="1.04468">
        <ele>181.133</ele>
        <time>2014-11-28T11:41:33Z</time>
      </trkpt>
      <trkpt lat="44.99454" lon="1.04489">
        <ele>178.692</ele>
        <time>2014-11-28T11:41:35Z</time>
      </trkpt>
      <trkpt lat="44.99458" lon="1.0449">
        <ele>175.441</ele>
        <time>2014-11-28T11:41:36Z</time>
      </trkpt>
      <trkpt lat="44.99464" lon="1.0449">
        <ele>175.439</ele>
        <time>2014-11-28T11:41:37Z</time>
      </trkpt>
      <trkpt lat="44.99454" lon="1.0449">
        <ele>174.313</ele>
        <time>2014-11-28T11:41:38Z</time>
      </trkpt>
      <trkpt lat="44.99454" lon="1.04477">
        <ele>172.967</ele>
        <time>2014-11-28T11:41:40Z</time>
      </trkpt>
      <trkpt lat="44.9951" lon="1.04471">
        <ele>172.028</ele>
        <time>2014-11-28T11:41:44Z</time>
      </trkpt>
      <trkpt lat="44.99528" lon="1.04472">
        <ele>169.04</ele>
        <time>2014-11-28T11:41:47Z</time>
      </trkpt>
      <trkpt lat="44.99541" lon="1.04481">
        <ele>167.409</ele>
        <time>2014-11-28T11:41:49Z</time>
      </trkpt>
      <trkpt lat="44.99569" lon="1.04497">
        <ele>162.298</ele>
        <time>2014-11-28T11:41:53Z</time>
      </trkpt>
      <trkpt lat="44.99575" lon="1.04503">
        <ele>162.301</ele>
        <time>2014-11-28T11:41:54Z</time>
      </trkpt>
      <trkpt lat="44.99591" lon="1.04514">
        <ele>161.22</ele>
        <time>2014-11-28T11:41:56Z</time>
      </trkpt>
      <trkpt lat="44.99611" lon="1.04544">
        <ele>158.587</ele>
        <time>2014-11-28T11:42:00Z</time>
      </trkpt>
      <trkpt lat="44.99608" lon="1.04563">
        <ele>158.06</ele>
        <time>2014-11-28T11:42:02Z</time>
      </trkpt>
      <trkpt lat="44.99602" lon="1.04595">
        <ele>156.555</ele>
        <time>2014-11-28T11:42:05Z</time>
      </trkpt>
      <trkpt lat="44.99598" lon="1.04607">
        <ele>155.398</ele>
        <time>2014-11-28T11:42:06Z</time>
      </trkpt>
      <trkpt lat="44.99599" lon="1.04624">
        <ele>152.877</ele>
        <time>2014-11-28T11:42:08Z</time>
      </trkpt>
      <trkpt lat="44.9961" lon="1.04638">
        <ele>150.062</ele>
        <time>2014-11-28T11:42:10Z</time>
      </trkpt>
      <trkpt lat="44.99632" lon="1.04652">
        <ele>146.516</ele>
        <time>2014-11-28T11:42:13Z</time>
      </trkpt>
      <trkpt lat="44.99636" lon="1.04655">
        <ele>146.518</ele>
        <time>2014-11-28T11:42:14Z</time>
      </trkpt>
      <trkpt lat="44.99625" lon="1.04687">
        <ele>141.661</ele>
        <time>2014-11-28T11:42:19Z</time>
      </trkpt>
      <trkpt lat="44.99621" lon="1.04696">
        <ele>139.249</ele>
        <time>2014-11-28T11:42:20Z</time>
      </trkpt>
      <trkpt lat="44.99612" lon="1.04709">
        <ele>135.883</ele>
        <time>2014-11-28T11:42:22Z</time>
      </trkpt>
      <trkpt lat="44.99609" lon="1.04713">
        <ele>132.208</ele>
        <time>2014-11-28T11:42:23Z</time>
      </trkpt>
      <trkpt lat="44.99625" lon="1.04729">
        <ele>131.303</ele>
        <time>2014-11-28T11:42:28Z</time>
      </trkpt>
      <trkpt lat="44.99647" lon="1.04736">
        <ele>128.526</ele>
        <time>2014-11-28T11:42:31Z</time>
      </trkpt>
      <trkpt lat="44.99655" lon="1.04736">
        <ele>127.195</ele>
        <time>2014-11-28T11:42:32Z</time>
      </trkpt>
      <trkpt lat="44.99682" lon="1.04732">
        <ele>125.372</ele>
        <time>2014-11-28T11:42:35Z</time>
      </trkpt>
      <trkpt lat="44.99701" lon="1.0473">
        <ele>120.084</ele>
        <time>2014-11-28T11:42:37Z</time>
      </trkpt>
      <trkpt lat="44.99711" lon="1.04728">
        <ele>120.087</ele>
        <time>2014-11-28T11:42:38Z</time>
      </trkpt>
      <trkpt lat="44.9973" lon="1.0472">
        <ele>116.668</ele>
        <time>2014-11-28T11:42:40Z</time>
      </trkpt>
      <trkpt lat="44.99745" lon="1.04706">
        <ele>113.922</ele>
        <time>2014-11-28T11:42:42Z</time>
      </trkpt>
      <trkpt lat="44.99753" lon="1.04698">
        <ele>109.53</ele>
        <time>2014-11-28T11:42:44Z</time>
      </trkpt>
      <trkpt lat="44.99757" lon="1.04697">
        <ele>109.53</ele>
        <time>2014-11-28T11:42:45Z</time>
      </trkpt>
      <trkpt lat="44.99758" lon="1.047">
        <ele>107.884</ele>
        <time>2014-11-28T11:42:47Z</time>
      </trkpt>
      <trkpt lat="44.99751" lon="1.04731">
        <ele>105.072</ele>
        <time>2014-11-28T11:42:56Z</time>
      </trkpt>
      <trkpt lat="44.9975" lon="1.04735">
        <ele>103.616</ele>
        <time>2014-11-28T11:43:12Z</time>
      </trkpt>
      <trkpt lat="44.99749" lon="1.04734">
        <ele>101.901</ele>
        <time>2014-11-28T11:43:46Z</time>
      </trkpt>
      <trkpt lat="44.99747" lon="1.04737">
        <ele>100.861</ele>
        <time>2014-11-28T11:55:44Z</time>
      </trkpt>
      <trkpt lat="44.99746" lon="1.04737">
        <ele>101.655</ele>
        <time>2014-11-28T11:55:55Z</time>
      </trkpt>
      <trkpt lat="44.99746" lon="1.04736">
        <ele>102.447</ele>
        <time>2014-11-28T11:56:07Z</time>
      </trkpt>
      <trkpt lat="44.99749" lon="1.04752">
        <ele>102.367</ele>
        <time>2014-11-28T11:56:13Z</time>
      </trkpt>
      <trkpt lat="44.99742" lon="1.04778">
        <ele>102.559</ele>
        <time>2014-11-28T11:56:19Z</time>
      </trkpt>
      <trkpt lat="44.9972" lon="1.04817">
        <ele>100.453</ele>
        <time>2014-11-28T11:56:25Z</time>
      </trkpt>
      <trkpt lat="44.99709" lon="1.0483">
        <ele>99.466</ele>
        <time>2014-11-28T11:56:27Z</time>
      </trkpt>
      <trkpt lat="44.99703" lon="1.04836">
        <ele>98.585</ele>
        <time>2014-11-28T11:56:28Z</time>
      </trkpt>
      <trkpt lat="44.99677" lon="1.04857">
        <ele>96.778</ele>
        <time>2014-11-28T11:56:32Z</time>
      </trkpt>
      <trkpt lat="44.99664" lon="1.04868">
        <ele>95.671</ele>
        <time>2014-11-28T11:56:34Z</time>
      </trkpt>
      <trkpt lat="44.99658" lon="1.04875">
        <ele>95.387</ele>
        <time>2014-11-28T11:56:35Z</time>
      </trkpt>
      <trkpt lat="44.99613" lon="1.0491">
        <ele>94.762</ele>
        <time>2014-11-28T11:56:42Z</time>
      </trkpt>
      <trkpt lat="44.99591" lon="1.0493">
        <ele>94.101</ele>
        <time>2014-11-28T11:56:46Z</time>
      </trkpt>
      <trkpt lat="44.9954" lon="1.04951">
        <ele>90.871</ele>
        <time>2014-11-28T11:56:53Z</time>
      </trkpt>
      <trkpt lat="44.99515" lon="1.0496">
        <ele>89.375</ele>
        <time>2014-11-28T11:56:56Z</time>
      </trkpt>
      <trkpt lat="44.99495" lon="1.04974">
        <ele>87.908</ele>
        <time>2014-11-28T11:56:59Z</time>
      </trkpt>
      <trkpt lat="44.99487" lon="1.04977">
        <ele>86.671</ele>
        <time>2014-11-28T11:57:00Z</time>
      </trkpt>
      <trkpt lat="44.99438" lon="1.05003">
        <ele>84.051</ele>
        <time>2014-11-28T11:57:09Z</time>
      </trkpt>
      <trkpt lat="44.99384" lon="1.05058">
        <ele>82.461</ele>
        <time>2014-11-28T11:57:20Z</time>
      </trkpt>
      <trkpt lat="44.99315" lon="1.05124">
        <ele>82.749</ele>
        <time>2014-11-28T11:57:36Z</time>
      </trkpt>
      <trkpt lat="44.993" lon="1.05139">
        <ele>83.052</ele>
        <time>2014-11-28T11:57:40Z</time>
      </trkpt>
      <trkpt lat="44.99281" lon="1.05157">
        <ele>82.26</ele>
        <time>2014-11-28T11:57:45Z</time>
      </trkpt>
      <trkpt lat="44.9927" lon="1.0517">
        <ele>83.638</ele>
        <time>2014-11-28T11:57:48Z</time>
      </trkpt>
      <trkpt lat="44.99228" lon="1.05209">
        <ele>81.46</ele>
        <time>2014-11-28T11:57:57Z</time>
      </trkpt>
      <trkpt lat="44.99168" lon="1.05281">
        <ele>77.77</ele>
        <time>2014-11-28T11:58:07Z</time>
      </trkpt>
      <trkpt lat="44.9917" lon="1.05293">
        <ele>77.538</ele>
        <time>2014-11-28T11:58:09Z</time>
      </trkpt>
      <trkpt lat="44.99171" lon="1.05309">
        <ele>75.484</ele>
        <time>2014-11-28T11:58:11Z</time>
      </trkpt>
      <trkpt lat="44.99175" lon="1.05334">
        <ele>74.759</ele>
        <time>2014-11-28T11:58:14Z</time>
      </trkpt>
      <trkpt lat="44.99183" lon="1.05358">
        <ele>76.249</ele>
        <time>2014-11-28T11:58:18Z</time>
      </trkpt>
      <trkpt lat="44.99186" lon="1.05364">
        <ele>76.173</ele>
        <time>2014-11-28T11:58:19Z</time>
      </trkpt>
      <trkpt lat="44.99197" lon="1.05388">
        <ele>75.213</ele>
        <time>2014-11-28T11:58:23Z</time>
      </trkpt>
      <trkpt lat="44.99204" lon="1.05399">
        <ele>73.921</ele>
        <time>2014-11-28T11:58:25Z</time>
      </trkpt>
      <trkpt lat="44.99256" lon="1.05465">
        <ele>71.785</ele>
        <time>2014-11-28T11:58:37Z</time>
      </trkpt>
      <trkpt lat="44.99275" lon="1.05491">
        <ele>71.085</ele>
        <time>2014-11-28T11:58:41Z</time>
      </trkpt>
      <trkpt lat="44.99265" lon="1.05525">
        <ele>69.813</ele>
        <time>2014-11-28T11:58:45Z</time>
      </trkpt>
      <trkpt lat="44.99253" lon="1.05545">
        <ele>68.773</ele>
        <time>2014-11-28T11:58:47Z</time>
      </trkpt>
      <trkpt lat="44.99237" lon="1.05626">
        <ele>66.139</ele>
        <time>2014-11-28T11:58:54Z</time>
      </trkpt>
      <trkpt lat="44.99237" lon="1.05659">
        <ele>65.47</ele>
        <time>2014-11-28T11:58:57Z</time>
      </trkpt>
      <trkpt lat="44.99222" lon="1.05717">
        <ele>64.949</ele>
        <time>2014-11-28T11:59:04Z</time>
      </trkpt>
      <trkpt lat="44.99217" lon="1.05749">
        <ele>65.843</ele>
        <time>2014-11-28T11:59:08Z</time>
      </trkpt>
      <trkpt lat="44.99213" lon="1.05833">
        <ele>65.517</ele>
        <time>2014-11-28T11:59:20Z</time>
      </trkpt>
      <trkpt lat="44.99197" lon="1.05851">
        <ele>64.198</ele>
        <time>2014-11-28T11:59:25Z</time>
      </trkpt>
      <trkpt lat="44.99187" lon="1.05855">
        <ele>64.158</ele>
        <time>2014-11-28T11:59:27Z</time>
      </trkpt>
      <trkpt lat="44.99182" lon="1.05885">
        <ele>64.59</ele>
        <time>2014-11-28T11:59:32Z</time>
      </trkpt>
      <trkpt lat="44.99183" lon="1.05916">
        <ele>64.769</ele>
        <time>2014-11-28T11:59:37Z</time>
      </trkpt>
      <trkpt lat="44.99185" lon="1.0594">
        <ele>64.859</ele>
        <time>2014-11-28T11:59:41Z</time>
      </trkpt>
      <trkpt lat="44.99193" lon="1.06066">
        <ele>64.83</ele>
        <time>2014-11-28T12:00:01Z</time>
      </trkpt>
      <trkpt lat="44.99194" lon="1.06095">
        <ele>64.667</ele>
        <time>2014-11-28T12:00:06Z</time>
      </trkpt>
      <trkpt lat="44.99194" lon="1.06113">
        <ele>64.927</ele>
        <time>2014-11-28T12:00:09Z</time>
      </trkpt>
      <trkpt lat="44.99194" lon="1.06129">
        <ele>64.366</ele>
        <time>2014-11-28T12:00:12Z</time>
      </trkpt>
      <trkpt lat="44.99188" lon="1.06161">
        <ele>64.192</ele>
        <time>2014-11-28T12:00:18Z</time>
      </trkpt>
      <trkpt lat="44.99193" lon="1.06195">
        <ele>63.776</ele>
        <time>2014-11-28T12:00:25Z</time>
      </trkpt>
      <trkpt lat="44.99191" lon="1.06255">
        <ele>64.799</ele>
        <time>2014-11-28T12:00:38Z</time>
      </trkpt>
      <trkpt lat="44.99183" lon="1.06325">
        <ele>64.944</ele>
        <time>2014-11-28T12:00:53Z</time>
      </trkpt>
      <trkpt lat="44.99162" lon="1.0644">
        <ele>64.707</ele>
        <time>2014-11-28T12:01:10Z</time>
      </trkpt>
      <trkpt lat="44.99159" lon="1.06471">
        <ele>65.2</ele>
        <time>2014-11-28T12:01:15Z</time>
      </trkpt>
      <trkpt lat="44.99148" lon="1.06569">
        <ele>64.733</ele>
        <time>2014-11-28T12:01:31Z</time>
      </trkpt>
      <trkpt lat="44.99124" lon="1.06679">
        <ele>64.97</ele>
        <time>2014-11-28T12:01:50Z</time>
      </trkpt>
      <trkpt lat="44.99118" lon="1.067">
        <ele>64.932</ele>
        <time>2014-11-28T12:01:55Z</time>
      </trkpt>
      <trkpt lat="44.99092" lon="1.06753">
        <ele>66.035</ele>
        <time>2014-11-28T12:02:08Z</time>
      </trkpt>
      <trkpt lat="44.99064" lon="1.0683">
        <ele>66.023</ele>
        <time>2014-11-28T12:02:26Z</time>
      </trkpt>
      <trkpt lat="44.99043" lon="1.06937">
        <ele>65.193</ele>
        <time>2014-11-28T12:02:49Z</time>
      </trkpt>
      <trkpt lat="44.99019" lon="1.0702">
        <ele>64.72</ele>
        <time>2014-11-28T12:03:05Z</time>
      </trkpt>
      <trkpt lat="44.99004" lon="1.07041">
        <ele>64.279</ele>
        <time>2014-11-28T12:03:10Z</time>
      </trkpt>
      <trkpt lat="44.98997" lon="1.07057">
        <ele>64.838</ele>
        <time>2014-11-28T12:03:13Z</time>
      </trkpt>
      <trkpt lat="44.99003" lon="1.07098">
        <ele>65.343</ele>
        <time>2014-11-28T12:03:20Z</time>
      </trkpt>
      <trkpt lat="44.99046" lon="1.07156">
        <ele>67.479</ele>
        <time>2014-11-28T12:03:35Z</time>
      </trkpt>
      <trkpt lat="44.99053" lon="1.07162">
        <ele>69.14</ele>
        <time>2014-11-28T12:03:37Z</time>
      </trkpt>
      <trkpt lat="44.99063" lon="1.07172">
        <ele>67.265</ele>
        <time>2014-11-28T12:03:40Z</time>
      </trkpt>
      <trkpt lat="44.99153" lon="1.07231">
        <ele>64.859</ele>
        <time>2014-11-28T12:04:03Z</time>
      </trkpt>
      <trkpt lat="44.99219" lon="1.07266">
        <ele>64.609</ele>
        <time>2014-11-28T12:04:19Z</time>
      </trkpt>
      <trkpt lat="44.99227" lon="1.07271">
        <ele>63.067</ele>
        <time>2014-11-28T12:04:21Z</time>
      </trkpt>
      <trkpt lat="44.99259" lon="1.07288">
        <ele>63.37</ele>
        <time>2014-11-28T12:04:29Z</time>
      </trkpt>
      <trkpt lat="44.99281" lon="1.073">
        <ele>64.144</ele>
        <time>2014-11-28T12:04:34Z</time>
      </trkpt>
      <trkpt lat="44.99377" lon="1.07336">
        <ele>64.795</ele>
        <time>2014-11-28T12:04:56Z</time>
      </trkpt>
      <trkpt lat="44.99415" lon="1.07349">
        <ele>65.495</ele>
        <time>2014-11-28T12:05:05Z</time>
      </trkpt>
      <trkpt lat="44.99448" lon="1.07349">
        <ele>64.438</ele>
        <time>2014-11-28T12:05:12Z</time>
      </trkpt>
      <trkpt lat="44.9947" lon="1.07359">
        <ele>64.632</ele>
        <time>2014-11-28T12:05:17Z</time>
      </trkpt>
      <trkpt lat="44.99577" lon="1.07396">
        <ele>64.926</ele>
        <time>2014-11-28T12:05:39Z</time>
      </trkpt>
      <trkpt lat="44.99596" lon="1.07402">
        <ele>64.919</ele>
        <time>2014-11-28T12:05:43Z</time>
      </trkpt>
      <trkpt lat="44.99615" lon="1.07408">
        <ele>65.049</ele>
        <time>2014-11-28T12:05:47Z</time>
      </trkpt>
      <trkpt lat="44.99708" lon="1.07434">
        <ele>65.586</ele>
        <time>2014-11-28T12:06:07Z</time>
      </trkpt>
      <trkpt lat="44.99795" lon="1.07454">
        <ele>63.986</ele>
        <time>2014-11-28T12:06:25Z</time>
      </trkpt>
      <trkpt lat="44.99872" lon="1.07458">
        <ele>64.254</ele>
        <time>2014-11-28T12:06:41Z</time>
      </trkpt>
      <trkpt lat="44.99928" lon="1.0746">
        <ele>65.932</ele>
        <time>2014-11-28T12:06:53Z</time>
      </trkpt>
      <trkpt lat="44.99965" lon="1.07466">
        <ele>66.437</ele>
        <time>2014-11-28T12:07:01Z</time>
      </trkpt>
      <trkpt lat="44.99991" lon="1.07473">
        <ele>64.982</ele>
        <time>2014-11-28T12:07:07Z</time>
      </trkpt>
      <trkpt lat="45.00002" lon="1.07466">
        <ele>65.062</ele>
        <time>2014-11-28T12:07:11Z</time>
      </trkpt>
      <trkpt lat="45.00013" lon="1.0741">
        <ele>64.604</ele>
        <time>2014-11-28T12:07:22Z</time>
      </trkpt>
      <trkpt lat="45.00032" lon="1.07306">
        <ele>64.61</ele>
        <time>2014-11-28T12:07:45Z</time>
      </trkpt>
      <trkpt lat="45.00016" lon="1.07285">
        <ele>64.629</ele>
        <time>2014-11-28T12:07:50Z</time>
      </trkpt>
      <trkpt lat="45.00008" lon="1.07282">
        <ele>63.773</ele>
        <time>2014-11-28T12:07:54Z</time>
      </trkpt>
      <trkpt lat="45.00053" lon="1.0725">
        <ele>61.974</ele>
        <time>2014-11-28T12:08:00Z</time>
      </trkpt>
      <trkpt lat="45.00054" lon="1.07243">
        <ele>62.324</ele>
        <time>2014-11-28T12:08:10Z</time>
      </trkpt>
      <trkpt lat="45.00059" lon="1.07203">
        <ele>62.586</ele>
        <time>2014-11-28T12:08:22Z</time>
      </trkpt>
      <trkpt lat="45.00062" lon="1.07174">
        <ele>63.721</ele>
        <time>2014-11-28T12:08:33Z</time>
      </trkpt>
      <trkpt lat="45.00062" lon="1.07168">
        <ele>63.718</ele>
        <time>2014-11-28T12:08:34Z</time>
      </trkpt>
      <trkpt lat="45.00072" lon="1.07104">
        <ele>64.165</ele>
        <time>2014-11-28T12:08:46Z</time>
      </trkpt>
      <trkpt lat="45.00076" lon="1.07091">
        <ele>64.349</ele>
        <time>2014-11-28T12:08:49Z</time>
      </trkpt>
      <trkpt lat="45.00087" lon="1.07079">
        <ele>64.931</ele>
        <time>2014-11-28T12:08:54Z</time>
      </trkpt>
      <trkpt lat="45.00153" lon="1.0709">
        <ele>65.89</ele>
        <time>2014-11-28T12:09:10Z</time>
      </trkpt>
      <trkpt lat="45.00206" lon="1.07106">
        <ele>66.699</ele>
        <time>2014-11-28T12:09:22Z</time>
      </trkpt>
      <trkpt lat="45.00214" lon="1.07098">
        <ele>65.634</ele>
        <time>2014-11-28T12:09:26Z</time>
      </trkpt>
      <trkpt lat="45.00219" lon="1.0706">
        <ele>65.892</ele>
        <time>2014-11-28T12:09:39Z</time>
      </trkpt>
      <trkpt lat="45.0024" lon="1.07046">
        <ele>68.855</ele>
        <time>2014-11-28T12:09:49Z</time>
      </trkpt>
      <trkpt lat="45.00255" lon="1.07046">
        <ele>69.865</ele>
        <time>2014-11-28T12:09:55Z</time>
      </trkpt>
      <trkpt lat="45.00259" lon="1.0703">
        <ele>73.986</ele>
        <time>2014-11-28T12:10:07Z</time>
      </trkpt>
      <trkpt lat="45.00259" lon="1.0703">
        <ele>74.801</ele>
        <time>2014-11-28T12:10:08Z</time>
      </trkpt>
      <trkpt lat="45.00259" lon="1.0703">
        <ele>75.076</ele>
        <time>2014-11-28T12:10:10Z</time>
      </trkpt>
      <trkpt lat="45.00259" lon="1.0703">
        <ele>78.186</ele>
        <time>2014-11-28T12:10:17Z</time>
      </trkpt>
      <trkpt lat="45.00259" lon="1.0703">
        <ele>79.778</ele>
        <time>2014-11-28T12:10:23Z</time>
      </trkpt>
      <trkpt lat="45.00259" lon="1.0703">
        <ele>80.665</ele>
        <time>2014-11-28T12:10:26Z</time>
      </trkpt>
      <trkpt lat="45.00259" lon="1.0703">
        <ele>82.644</ele>
        <time>2014-11-28T12:10:34Z</time>
      </trkpt>
      <trkpt lat="45.00262" lon="1.06949">
        <ele>85.415</ele>
        <time>2014-11-28T12:10:47Z</time>
      </trkpt>
      <trkpt lat="45.0026" lon="1.06928">
        <ele>87.786</ele>
        <time>2014-11-28T12:10:59Z</time>
      </trkpt>
      <trkpt lat="45.00254" lon="1.06919">
        <ele>89.542</ele>
        <time>2014-11-28T12:11:07Z</time>
      </trkpt>
      <trkpt lat="45.00252" lon="1.06912">
        <ele>90.466</ele>
        <time>2014-11-28T12:11:11Z</time>
      </trkpt>
      <trkpt lat="45.0025" lon="1.06905">
        <ele>91.297</ele>
        <time>2014-11-28T12:11:16Z</time>
      </trkpt>
      <trkpt lat="45.00246" lon="1.06895">
        <ele>93.316</ele>
        <time>2014-11-28T12:11:22Z</time>
      </trkpt>
      <trkpt lat="45.00235" lon="1.06872">
        <ele>96.552</ele>
        <time>2014-11-28T12:11:35Z</time>
      </trkpt>
      <trkpt lat="45.00231" lon="1.06862">
        <ele>97.737</ele>
        <time>2014-11-28T12:11:39Z</time>
      </trkpt>
      <trkpt lat="45.00229" lon="1.06852">
        <ele>99.494</ele>
        <time>2014-11-28T12:11:43Z</time>
      </trkpt>
      <trkpt lat="45.00222" lon="1.06829">
        <ele>101.298</ele>
        <time>2014-11-28T12:11:52Z</time>
      </trkpt>
      <trkpt lat="45.0022" lon="1.06811">
        <ele>101.722</ele>
        <time>2014-11-28T12:11:59Z</time>
      </trkpt>
      <trkpt lat="45.00218" lon="1.06786">
        <ele>103.111</ele>
        <time>2014-11-28T12:12:08Z</time>
      </trkpt>
      <trkpt lat="45.00221" lon="1.06778">
        <ele>103.733</ele>
        <time>2014-11-28T12:12:11Z</time>
      </trkpt>
      <trkpt lat="45.00222" lon="1.06768">
        <ele>104.289</ele>
        <time>2014-11-28T12:12:15Z</time>
      </trkpt>
      <trkpt lat="45.00232" lon="1.06744">
        <ele>107.679</ele>
        <time>2014-11-28T12:12:27Z</time>
      </trkpt>
      <trkpt lat="45.00232" lon="1.06742">
        <ele>107.681</ele>
        <time>2014-11-28T12:12:28Z</time>
      </trkpt>
      <trkpt lat="45.00249" lon="1.06698">
        <ele>110.041</ele>
        <time>2014-11-28T12:12:50Z</time>
      </trkpt>
      <trkpt lat="45.00276" lon="1.06663">
        <ele>112.144</ele>
        <time>2014-11-28T12:13:10Z</time>
      </trkpt>
      <trkpt lat="45.00292" lon="1.06642">
        <ele>115.159</ele>
        <time>2014-11-28T12:13:20Z</time>
      </trkpt>
      <trkpt lat="45.00314" lon="1.06612">
        <ele>117.684</ele>
        <time>2014-11-28T12:13:35Z</time>
      </trkpt>
      <trkpt lat="45.0032" lon="1.06605">
        <ele>118.125</ele>
        <time>2014-11-28T12:13:46Z</time>
      </trkpt>
      <trkpt lat="45.00324" lon="1.06599">
        <ele>117.954</ele>
        <time>2014-11-28T12:14:02Z</time>
      </trkpt>
      <trkpt lat="45.00325" lon="1.06599">
        <ele>118.31</ele>
        <time>2014-11-28T12:15:07Z</time>
      </trkpt>
      <trkpt lat="45.00324" lon="1.06601">
        <ele>118.497</ele>
        <time>2014-11-28T12:15:09Z</time>
      </trkpt>
      <trkpt lat="45.00326" lon="1.0661">
        <ele>118.274</ele>
        <time>2014-11-28T12:15:13Z</time>
      </trkpt>
      <trkpt lat="45.00342" lon="1.06648">
        <ele>116.34</ele>
        <time>2014-11-28T12:15:20Z</time>
      </trkpt>
      <trkpt lat="45.00356" lon="1.06677">
        <ele>114.732</ele>
        <time>2014-11-28T12:15:24Z</time>
      </trkpt>
      <trkpt lat="45.0036" lon="1.06684">
        <ele>114.087</ele>
        <time>2014-11-28T12:15:25Z</time>
      </trkpt>
      <trkpt lat="45.00374" lon="1.06709">
        <ele>112.21</ele>
        <time>2014-11-28T12:15:28Z</time>
      </trkpt>
      <trkpt lat="45.00384" lon="1.06728">
        <ele>110.665</ele>
        <time>2014-11-28T12:15:30Z</time>
      </trkpt>
      <trkpt lat="45.004" lon="1.06754">
        <ele>108.293</ele>
        <time>2014-11-28T12:15:33Z</time>
      </trkpt>
      <trkpt lat="45.0041" lon="1.06765">
        <ele>106.39</ele>
        <time>2014-11-28T12:15:35Z</time>
      </trkpt>
      <trkpt lat="45.00417" lon="1.06768">
        <ele>102.744</ele>
        <time>2014-11-28T12:15:37Z</time>
      </trkpt>
      <trkpt lat="45.0042" lon="1.06767">
        <ele>101.798</ele>
        <time>2014-11-28T12:15:38Z</time>
      </trkpt>
      <trkpt lat="45.00435" lon="1.06782">
        <ele>100.413</ele>
        <time>2014-11-28T12:15:46Z</time>
      </trkpt>
      <trkpt lat="45.0044" lon="1.06791">
        <ele>100.58</ele>
        <time>2014-11-28T12:15:48Z</time>
      </trkpt>
      <trkpt lat="45.00449" lon="1.0681">
        <ele>99.541</ele>
        <time>2014-11-28T12:15:52Z</time>
      </trkpt>
      <trkpt lat="45.00455" lon="1.06818">
        <ele>98.797</ele>
        <time>2014-11-28T12:15:54Z</time>
      </trkpt>
      <trkpt lat="45.00462" lon="1.06827">
        <ele>97.693</ele>
        <time>2014-11-28T12:15:57Z</time>
      </trkpt>
      <trkpt lat="45.00468" lon="1.06853">
        <ele>98.286</ele>
        <time>2014-11-28T12:16:05Z</time>
      </trkpt>
      <trkpt lat="45.00468" lon="1.06859">
        <ele>99.164</ele>
        <time>2014-11-28T12:16:07Z</time>
      </trkpt>
      <trkpt lat="45.00469" lon="1.06866">
        <ele>99.21</ele>
        <time>2014-11-28T12:16:10Z</time>
      </trkpt>
      <trkpt lat="45.00462" lon="1.06901">
        <ele>98.9</ele>
        <time>2014-11-28T12:16:20Z</time>
      </trkpt>
      <trkpt lat="45.0046" lon="1.06932">
        <ele>96.545</ele>
        <time>2014-11-28T12:16:24Z</time>
      </trkpt>
      <trkpt lat="45.00462" lon="1.06946">
        <ele>97.003</ele>
        <time>2014-11-28T12:16:26Z</time>
      </trkpt>
      <trkpt lat="45.00468" lon="1.06978">
        <ele>96.179</ele>
        <time>2014-11-28T12:16:32Z</time>
      </trkpt>
      <trkpt lat="45.00473" lon="1.06983">
        <ele>97</ele>
        <time>2014-11-28T12:16:36Z</time>
      </trkpt>
      <trkpt lat="45.00476" lon="1.06984">
        <ele>97.935</ele>
        <time>2014-11-28T12:16:38Z</time>
      </trkpt>
      <trkpt lat="45.00478" lon="1.06983">
        <ele>97.786</ele>
        <time>2014-11-28T12:16:40Z</time>
      </trkpt>
      <trkpt lat="45.00481" lon="1.06983">
        <ele>98.567</ele>
        <time>2014-11-28T12:16:42Z</time>
      </trkpt>
      <trkpt lat="45.00496" lon="1.06979">
        <ele>102.119</ele>
        <time>2014-11-28T12:16:53Z</time>
      </trkpt>
      <trkpt lat="45.00497" lon="1.06979">
        <ele>102.12</ele>
        <time>2014-11-28T12:16:54Z</time>
      </trkpt>
      <trkpt lat="45.00509" lon="1.06975">
        <ele>105.283</ele>
        <time>2014-11-28T12:17:04Z</time>
      </trkpt>
      <trkpt lat="45.0052" lon="1.06968">
        <ele>108.64</ele>
        <time>2014-11-28T12:17:16Z</time>
      </trkpt>
      <trkpt lat="45.00521" lon="1.06967">
        <ele>108.751</ele>
        <time>2014-11-28T12:17:19Z</time>
      </trkpt>
      <trkpt lat="45.00534" lon="1.0696">
        <ele>110.743</ele>
        <time>2014-11-28T12:17:34Z</time>
      </trkpt>
      <trkpt lat="45.00535" lon="1.0696">
        <ele>111.454</ele>
        <time>2014-11-28T12:17:35Z</time>
      </trkpt>
      <trkpt lat="45.0054" lon="1.06957">
        <ele>112.268</ele>
        <time>2014-11-28T12:17:48Z</time>
      </trkpt>
      <trkpt lat="45.00541" lon="1.06955">
        <ele>113.438</ele>
        <time>2014-11-28T12:17:55Z</time>
      </trkpt>
      <trkpt lat="45.00546" lon="1.06955">
        <ele>113.984</ele>
        <time>2014-11-28T12:18:00Z</time>
      </trkpt>
      <trkpt lat="45.00548" lon="1.06953">
        <ele>114.685</ele>
        <time>2014-11-28T12:18:03Z</time>
      </trkpt>
      <trkpt lat="45.00557" lon="1.06941">
        <ele>117.132</ele>
        <time>2014-11-28T12:18:14Z</time>
      </trkpt>
      <trkpt lat="45.00561" lon="1.06915">
        <ele>120.144</ele>
        <time>2014-11-28T12:18:28Z</time>
      </trkpt>
      <trkpt lat="45.00571" lon="1.06887">
        <ele>122.507</ele>
        <time>2014-11-28T12:18:46Z</time>
      </trkpt>
      <trkpt lat="45.00575" lon="1.06882">
        <ele>124.258</ele>
        <time>2014-11-28T12:18:50Z</time>
      </trkpt>
      <trkpt lat="45.0059" lon="1.06858">
        <ele>127.263</ele>
        <time>2014-11-28T12:19:07Z</time>
      </trkpt>
      <trkpt lat="45.00598" lon="1.06825">
        <ele>129.845</ele>
        <time>2014-11-28T12:19:23Z</time>
      </trkpt>
      <trkpt lat="45.00609" lon="1.06798">
        <ele>132.051</ele>
        <time>2014-11-28T12:19:39Z</time>
      </trkpt>
      <trkpt lat="45.00625" lon="1.06787">
        <ele>136.697</ele>
        <time>2014-11-28T12:19:53Z</time>
      </trkpt>
      <trkpt lat="45.00626" lon="1.06786">
        <ele>136.696</ele>
        <time>2014-11-28T12:19:54Z</time>
      </trkpt>
      <trkpt lat="45.00634" lon="1.0678">
        <ele>137.899</ele>
        <time>2014-11-28T12:20:01Z</time>
      </trkpt>
      <trkpt lat="45.00637" lon="1.06779">
        <ele>139.805</ele>
        <time>2014-11-28T12:20:04Z</time>
      </trkpt>
      <trkpt lat="45.00645" lon="1.06772">
        <ele>141.772</ele>
        <time>2014-11-28T12:20:11Z</time>
      </trkpt>
      <trkpt lat="45.00649" lon="1.0677">
        <ele>142.619</ele>
        <time>2014-11-28T12:20:15Z</time>
      </trkpt>
      <trkpt lat="45.00651" lon="1.06768">
        <ele>143.629</ele>
        <time>2014-11-28T12:20:17Z</time>
      </trkpt>
      <trkpt lat="45.00657" lon="1.06761">
        <ele>143.439</ele>
        <time>2014-11-28T12:20:23Z</time>
      </trkpt>
      <trkpt lat="45.00664" lon="1.06757">
        <ele>144.262</ele>
        <time>2014-11-28T12:20:29Z</time>
      </trkpt>
      <trkpt lat="45.00667" lon="1.06755">
        <ele>148.39</ele>
        <time>2014-11-28T12:20:33Z</time>
      </trkpt>
      <trkpt lat="45.00669" lon="1.06748">
        <ele>146.478</ele>
        <time>2014-11-28T12:20:37Z</time>
      </trkpt>
      <trkpt lat="45.0067" lon="1.06754">
        <ele>147.055</ele>
        <time>2014-11-28T12:20:45Z</time>
      </trkpt>
      <trkpt lat="45.00688" lon="1.06786">
        <ele>149.957</ele>
        <time>2014-11-28T12:21:05Z</time>
      </trkpt>
      <trkpt lat="45.00717" lon="1.06839">
        <ele>150.35</ele>
        <time>2014-11-28T12:21:24Z</time>
      </trkpt>
      <trkpt lat="45.00722" lon="1.06845">
        <ele>150.418</ele>
        <time>2014-11-28T12:21:26Z</time>
      </trkpt>
      <trkpt lat="45.00743" lon="1.06835">
        <ele>151.059</ele>
        <time>2014-11-28T12:21:35Z</time>
      </trkpt>
      <trkpt lat="45.00789" lon="1.06847">
        <ele>154.366</ele>
        <time>2014-11-28T12:21:54Z</time>
      </trkpt>
      <trkpt lat="45.0084" lon="1.0685">
        <ele>156.844</ele>
        <time>2014-11-28T12:22:13Z</time>
      </trkpt>
      <trkpt lat="45.00867" lon="1.06854">
        <ele>159.194</ele>
        <time>2014-11-28T12:22:23Z</time>
      </trkpt>
      <trkpt lat="45.00901" lon="1.06867">
        <ele>158.071</ele>
        <time>2014-11-28T12:22:34Z</time>
      </trkpt>
      <trkpt lat="45.00885" lon="1.06858">
        <ele>156.791</ele>
        <time>2014-11-28T12:22:37Z</time>
      </trkpt>
      <trkpt lat="45.00885" lon="1.06858">
        <ele>155.414</ele>
        <time>2014-11-28T12:22:39Z</time>
      </trkpt>
      <trkpt lat="45.00885" lon="1.06858">
        <ele>154.85</ele>
        <time>2014-11-28T12:22:41Z</time>
      </trkpt>
      <trkpt lat="45.00937" lon="1.06846">
        <ele>153.614</ele>
        <time>2014-11-28T12:22:43Z</time>
      </trkpt>
      <trkpt lat="45.00956" lon="1.06829">
        <ele>151.511</ele>
        <time>2014-11-28T12:22:49Z</time>
      </trkpt>
      <trkpt lat="45.00968" lon="1.06813">
        <ele>150.044</ele>
        <time>2014-11-28T12:22:52Z</time>
      </trkpt>
      <trkpt lat="45.00987" lon="1.06788">
        <ele>148.48</ele>
        <time>2014-11-28T12:22:56Z</time>
      </trkpt>
      <trkpt lat="45.0101" lon="1.06771">
        <ele>147.739</ele>
        <time>2014-11-28T12:23:00Z</time>
      </trkpt>
      <trkpt lat="45.01033" lon="1.06764">
        <ele>144.856</ele>
        <time>2014-11-28T12:23:04Z</time>
      </trkpt>
      <trkpt lat="45.01041" lon="1.06787">
        <ele>143.458</ele>
        <time>2014-11-28T12:23:08Z</time>
      </trkpt>
      <trkpt lat="45.01044" lon="1.06805">
        <ele>143.506</ele>
        <time>2014-11-28T12:23:16Z</time>
      </trkpt>
      <trkpt lat="45.01054" lon="1.0685">
        <ele>143.504</ele>
        <time>2014-11-28T12:23:27Z</time>
      </trkpt>
      <trkpt lat="45.01058" lon="1.06865">
        <ele>143.535</ele>
        <time>2014-11-28T12:23:31Z</time>
      </trkpt>
      <trkpt lat="45.01073" lon="1.06918">
        <ele>142.788</ele>
        <time>2014-11-28T12:23:43Z</time>
      </trkpt>
      <trkpt lat="45.01075" lon="1.06936">
        <ele>142.97</ele>
        <time>2014-11-28T12:23:49Z</time>
      </trkpt>
      <trkpt lat="45.01081" lon="1.06947">
        <ele>143.424</ele>
        <time>2014-11-28T12:23:53Z</time>
      </trkpt>
      <trkpt lat="45.01093" lon="1.06993">
        <ele>145.691</ele>
        <time>2014-11-28T12:24:10Z</time>
      </trkpt>
      <trkpt lat="45.011" lon="1.07016">
        <ele>146.499</ele>
        <time>2014-11-28T12:24:20Z</time>
      </trkpt>
      <trkpt lat="45.0111" lon="1.07032">
        <ele>147.786</ele>
        <time>2014-11-28T12:24:28Z</time>
      </trkpt>
      <trkpt lat="45.01128" lon="1.07065">
        <ele>147.125</ele>
        <time>2014-11-28T12:24:41Z</time>
      </trkpt>
      <trkpt lat="45.01144" lon="1.07096">
        <ele>144.876</ele>
        <time>2014-11-28T12:24:50Z</time>
      </trkpt>
      <trkpt lat="45.01144" lon="1.07096">
        <ele>144.597</ele>
        <time>2014-11-28T12:25:09Z</time>
      </trkpt>
      <trkpt lat="45.01144" lon="1.07096">
        <ele>146.241</ele>
        <time>2014-11-28T12:25:56Z</time>
      </trkpt>
      <trkpt lat="45.01143" lon="1.07088">
        <ele>147.512</ele>
        <time>2014-11-28T12:26:12Z</time>
      </trkpt>
      <trkpt lat="45.01145" lon="1.07081">
        <ele>150.424</ele>
        <time>2014-11-28T12:26:25Z</time>
      </trkpt>
      <trkpt lat="45.01145" lon="1.07075">
        <ele>150.733</ele>
        <time>2014-11-28T12:26:40Z</time>
      </trkpt>
      <trkpt lat="45.01145" lon="1.07069">
        <ele>149.949</ele>
        <time>2014-11-28T12:27:01Z</time>
      </trkpt>
      <trkpt lat="45.01144" lon="1.07064">
        <ele>151.731</ele>
        <time>2014-11-28T12:27:18Z</time>
      </trkpt>
      <trkpt lat="45.01147" lon="1.07064">
        <ele>152.702</ele>
        <time>2014-11-28T12:27:35Z</time>
      </trkpt>
      <trkpt lat="45.01153" lon="1.0705">
        <ele>155.831</ele>
        <time>2014-11-28T12:27:53Z</time>
      </trkpt>
      <trkpt lat="45.01165" lon="1.0704">
        <ele>159.111</ele>
        <time>2014-11-28T12:28:09Z</time>
      </trkpt>
      <trkpt lat="45.01175" lon="1.07037">
        <ele>162.741</ele>
        <time>2014-11-28T12:28:25Z</time>
      </trkpt>
      <trkpt lat="45.01175" lon="1.07037">
        <ele>162.735</ele>
        <time>2014-11-28T12:28:26Z</time>
      </trkpt>
      <trkpt lat="45.01178" lon="1.07035">
        <ele>161.94</ele>
        <time>2014-11-28T12:28:29Z</time>
      </trkpt>
      <trkpt lat="45.01186" lon="1.07032">
        <ele>164.915</ele>
        <time>2014-11-28T12:28:42Z</time>
      </trkpt>
      <trkpt lat="45.01196" lon="1.07026">
        <ele>166.418</ele>
        <time>2014-11-28T12:28:57Z</time>
      </trkpt>
      <trkpt lat="45.01198" lon="1.07025">
        <ele>167.223</ele>
        <time>2014-11-28T12:28:59Z</time>
      </trkpt>
      <trkpt lat="45.0121" lon="1.07022">
        <ele>168.966</ele>
        <time>2014-11-28T12:29:17Z</time>
      </trkpt>
      <trkpt lat="45.01215" lon="1.07022">
        <ele>171.214</ele>
        <time>2014-11-28T12:29:24Z</time>
      </trkpt>
      <trkpt lat="45.01226" lon="1.07017">
        <ele>172.745</ele>
        <time>2014-11-28T12:29:40Z</time>
      </trkpt>
      <trkpt lat="45.01239" lon="1.0701">
        <ele>173.323</ele>
        <time>2014-11-28T12:29:56Z</time>
      </trkpt>
      <trkpt lat="45.01247" lon="1.06991">
        <ele>176.246</ele>
        <time>2014-11-28T12:30:18Z</time>
      </trkpt>
      <trkpt lat="45.01248" lon="1.06989">
        <ele>178.166</ele>
        <time>2014-11-28T12:30:20Z</time>
      </trkpt>
      <trkpt lat="45.0125" lon="1.0698">
        <ele>181.31</ele>
        <time>2014-11-28T12:30:33Z</time>
      </trkpt>
      <trkpt lat="45.0125" lon="1.0698">
        <ele>181.306</ele>
        <time>2014-11-28T12:30:34Z</time>
      </trkpt>
      <trkpt lat="45.0125" lon="1.0698">
        <ele>183.438</ele>
        <time>2014-11-28T12:30:42Z</time>
      </trkpt>
      <trkpt lat="45.01252" lon="1.06979">
        <ele>182.068</ele>
        <time>2014-11-28T12:31:05Z</time>
      </trkpt>
      <trkpt lat="45.01255" lon="1.06975">
        <ele>184.503</ele>
        <time>2014-11-28T12:31:18Z</time>
      </trkpt>
      <trkpt lat="45.01262" lon="1.06967">
        <ele>187.747</ele>
        <time>2014-11-28T12:31:37Z</time>
      </trkpt>
      <trkpt lat="45.01269" lon="1.06961">
        <ele>190.307</ele>
        <time>2014-11-28T12:31:58Z</time>
      </trkpt>
      <trkpt lat="45.01273" lon="1.06949">
        <ele>193.294</ele>
        <time>2014-11-28T12:32:15Z</time>
      </trkpt>
      <trkpt lat="45.01275" lon="1.06942">
        <ele>195.069</ele>
        <time>2014-11-28T12:32:30Z</time>
      </trkpt>
      <trkpt lat="45.0128" lon="1.06936">
        <ele>198.085</ele>
        <time>2014-11-28T12:32:47Z</time>
      </trkpt>
      <trkpt lat="45.01286" lon="1.06923">
        <ele>201.111</ele>
        <time>2014-11-28T12:33:07Z</time>
      </trkpt>
      <trkpt lat="45.01287" lon="1.06922">
        <ele>202.702</ele>
        <time>2014-11-28T12:33:09Z</time>
      </trkpt>
      <trkpt lat="45.01289" lon="1.06912">
        <ele>205.22</ele>
        <time>2014-11-28T12:33:28Z</time>
      </trkpt>
      <trkpt lat="45.0129" lon="1.0691">
        <ele>205.844</ele>
        <time>2014-11-28T12:33:30Z</time>
      </trkpt>
      <trkpt lat="45.01292" lon="1.06905">
        <ele>205.439</ele>
        <time>2014-11-28T12:33:49Z</time>
      </trkpt>
      <trkpt lat="45.01295" lon="1.06905">
        <ele>207.818</ele>
        <time>2014-11-28T12:33:59Z</time>
      </trkpt>
      <trkpt lat="45.01319" lon="1.06913">
        <ele>210.493</ele>
        <time>2014-11-28T12:34:16Z</time>
      </trkpt>
      <trkpt lat="45.01339" lon="1.06922">
        <ele>213.301</ele>
        <time>2014-11-28T12:34:29Z</time>
      </trkpt>
      <trkpt lat="45.01342" lon="1.06924">
        <ele>213.845</ele>
        <time>2014-11-28T12:34:31Z</time>
      </trkpt>
      <trkpt lat="45.01367" lon="1.06931">
        <ele>217.271</ele>
        <time>2014-11-28T12:34:47Z</time>
      </trkpt>
      <trkpt lat="45.01383" lon="1.06935">
        <ele>220.551</ele>
        <time>2014-11-28T12:34:57Z</time>
      </trkpt>
      <trkpt lat="45.01411" lon="1.06942">
        <ele>222.589</ele>
        <time>2014-11-28T12:35:13Z</time>
      </trkpt>
      <trkpt lat="45.01449" lon="1.06959">
        <ele>224.568</ele>
        <time>2014-11-28T12:35:31Z</time>
      </trkpt>
      <trkpt lat="45.01493" lon="1.06971">
        <ele>225.909</ele>
        <time>2014-11-28T12:35:45Z</time>
      </trkpt>
      <trkpt lat="45.0153" lon="1.06985">
        <ele>225.499</ele>
        <time>2014-11-28T12:35:55Z</time>
      </trkpt>
      <trkpt lat="45.01548" lon="1.06974">
        <ele>225.222</ele>
        <time>2014-11-28T12:35:58Z</time>
      </trkpt>
      <trkpt lat="45.01571" lon="1.06991">
        <ele>224.803</ele>
        <time>2014-11-28T12:36:04Z</time>
      </trkpt>
      <trkpt lat="45.01645" lon="1.07042">
        <ele>224.987</ele>
        <time>2014-11-28T12:36:24Z</time>
      </trkpt>
      <trkpt lat="45.017" lon="1.07075">
        <ele>228.602</ele>
        <time>2014-11-28T12:36:43Z</time>
      </trkpt>
      <trkpt lat="45.01702" lon="1.07075">
        <ele>228.596</ele>
        <time>2014-11-28T12:36:44Z</time>
      </trkpt>
      <trkpt lat="45.01702" lon="1.07075">
        <ele>226.413</ele>
        <time>2014-11-28T12:36:53Z</time>
      </trkpt>
      <trkpt lat="45.01702" lon="1.07075">
        <ele>224.818</ele>
        <time>2014-11-28T12:36:56Z</time>
      </trkpt>
      <trkpt lat="45.01702" lon="1.07075">
        <ele>226.077</ele>
        <time>2014-11-28T12:37:03Z</time>
      </trkpt>
      <trkpt lat="45.01702" lon="1.07075">
        <ele>223.61</ele>
        <time>2014-11-28T12:37:19Z</time>
      </trkpt>
      <trkpt lat="45.01702" lon="1.07075">
        <ele>226.461</ele>
        <time>2014-11-28T12:37:28Z</time>
      </trkpt>
      <trkpt lat="45.01702" lon="1.07075">
        <ele>228.438</ele>
        <time>2014-11-28T12:37:30Z</time>
      </trkpt>
      <trkpt lat="45.01708" lon="1.07079">
        <ele>226.934</ele>
        <time>2014-11-28T12:37:33Z</time>
      </trkpt>
      <trkpt lat="45.01725" lon="1.07087">
        <ele>225.407</ele>
        <time>2014-11-28T12:37:40Z</time>
      </trkpt>
      <trkpt lat="45.01729" lon="1.07084">
        <ele>224.903</ele>
        <time>2014-11-28T12:37:44Z</time>
      </trkpt>
      <trkpt lat="45.01729" lon="1.07077">
        <ele>225.588</ele>
        <time>2014-11-28T12:37:52Z</time>
      </trkpt>
      <trkpt lat="45.01728" lon="1.07077">
        <ele>225.011</ele>
        <time>2014-11-28T12:38:14Z</time>
      </trkpt>
      <trkpt lat="45.01728" lon="1.07076">
        <ele>225.165</ele>
        <time>2014-11-28T12:39:26Z</time>
      </trkpt>
      <trkpt lat="45.01727" lon="1.07075">
        <ele>226.081</ele>
        <time>2014-11-28T12:39:32Z</time>
      </trkpt>
      <trkpt lat="45.01736" lon="1.07092">
        <ele>225.47</ele>
        <time>2014-11-28T12:39:38Z</time>
      </trkpt>
      <trkpt lat="45.01749" lon="1.07097">
        <ele>224.901</ele>
        <time>2014-11-28T12:39:41Z</time>
      </trkpt>
      <trkpt lat="45.01782" lon="1.07111">
        <ele>226.358</ele>
        <time>2014-11-28T12:39:49Z</time>
      </trkpt>
      <trkpt lat="45.01794" lon="1.07119">
        <ele>225.796</ele>
        <time>2014-11-28T12:39:52Z</time>
      </trkpt>
      <trkpt lat="45.01803" lon="1.07126">
        <ele>225.385</ele>
        <time>2014-11-28T12:39:54Z</time>
      </trkpt>
      <trkpt lat="45.01812" lon="1.07134">
        <ele>224.595</ele>
        <time>2014-11-28T12:39:56Z</time>
      </trkpt>
      <trkpt lat="45.0183" lon="1.07153">
        <ele>223.764</ele>
        <time>2014-11-28T12:40:00Z</time>
      </trkpt>
      <trkpt lat="45.01868" lon="1.07207">
        <ele>222.965</ele>
        <time>2014-11-28T12:40:10Z</time>
      </trkpt>
      <trkpt lat="45.01892" lon="1.07244">
        <ele>220.753</ele>
        <time>2014-11-28T12:40:15Z</time>
      </trkpt>
      <trkpt lat="45.019" lon="1.07258">
        <ele>220.651</ele>
        <time>2014-11-28T12:40:17Z</time>
      </trkpt>
      <trkpt lat="45.01944" lon="1.07324">
        <ele>217.174</ele>
        <time>2014-11-28T12:40:28Z</time>
      </trkpt>
      <trkpt lat="45.01984" lon="1.07388">
        <ele>216.871</ele>
        <time>2014-11-28T12:40:39Z</time>
      </trkpt>
      <trkpt lat="45.01991" lon="1.07399">
        <ele>216.729</ele>
        <time>2014-11-28T12:40:41Z</time>
      </trkpt>
      <trkpt lat="45.02028" lon="1.07453">
        <ele>217.198</ele>
        <time>2014-11-28T12:40:53Z</time>
      </trkpt>
      <trkpt lat="45.02031" lon="1.07457">
        <ele>217.194</ele>
        <time>2014-11-28T12:40:54Z</time>
      </trkpt>
      <trkpt lat="45.02047" lon="1.07483">
        <ele>218.05</ele>
        <time>2014-11-28T12:41:01Z</time>
      </trkpt>
      <trkpt lat="45.02059" lon="1.07503">
        <ele>217.549</ele>
        <time>2014-11-28T12:41:06Z</time>
      </trkpt>
      <trkpt lat="45.02064" lon="1.0751">
        <ele>219.82</ele>
        <time>2014-11-28T12:41:08Z</time>
      </trkpt>
      <trkpt lat="45.02087" lon="1.07544">
        <ele>218.952</ele>
        <time>2014-11-28T12:41:19Z</time>
      </trkpt>
      <trkpt lat="45.02108" lon="1.07573">
        <ele>219.204</ele>
        <time>2014-11-28T12:41:28Z</time>
      </trkpt>
      <trkpt lat="45.02131" lon="1.07603">
        <ele>219.097</ele>
        <time>2014-11-28T12:41:37Z</time>
      </trkpt>
      <trkpt lat="45.02156" lon="1.07638">
        <ele>219.244</ele>
        <time>2014-11-28T12:41:48Z</time>
      </trkpt>
      <trkpt lat="45.02164" lon="1.07649">
        <ele>218.195</ele>
        <time>2014-11-28T12:41:51Z</time>
      </trkpt>
      <trkpt lat="45.02177" lon="1.07667">
        <ele>218.059</ele>
        <time>2014-11-28T12:41:55Z</time>
      </trkpt>
      <trkpt lat="45.02155" lon="1.07781">
        <ele>216.659</ele>
        <time>2014-11-28T12:42:04Z</time>
      </trkpt>
      <trkpt lat="45.02165" lon="1.07818">
        <ele>217.464</ele>
        <time>2014-11-28T12:42:12Z</time>
      </trkpt>
      <trkpt lat="45.02175" lon="1.07862">
        <ele>217.92</ele>
        <time>2014-11-28T12:42:22Z</time>
      </trkpt>
      <trkpt lat="45.02196" lon="1.07905">
        <ele>220.427</ele>
        <time>2014-11-28T12:42:32Z</time>
      </trkpt>
      <trkpt lat="45.02197" lon="1.07908">
        <ele>220.477</ele>
        <time>2014-11-28T12:42:34Z</time>
      </trkpt>
      <trkpt lat="45.02197" lon="1.07915">
        <ele>220.985</ele>
        <time>2014-11-28T12:42:36Z</time>
      </trkpt>
      <trkpt lat="45.02195" lon="1.07932">
        <ele>219.429</ele>
        <time>2014-11-28T12:42:40Z</time>
      </trkpt>
      <trkpt lat="45.02191" lon="1.07965">
        <ele>218.538</ele>
        <time>2014-11-28T12:42:45Z</time>
      </trkpt>
      <trkpt lat="45.02184" lon="1.07992">
        <ele>216.477</ele>
        <time>2014-11-28T12:42:48Z</time>
      </trkpt>
      <trkpt lat="45.02179" lon="1.08011">
        <ele>215.395</ele>
        <time>2014-11-28T12:42:50Z</time>
      </trkpt>
      <trkpt lat="45.02174" lon="1.08033">
        <ele>213.922</ele>
        <time>2014-11-28T12:42:52Z</time>
      </trkpt>
      <trkpt lat="45.02172" lon="1.08044">
        <ele>210.761</ele>
        <time>2014-11-28T12:42:53Z</time>
      </trkpt>
      <trkpt lat="45.02171" lon="1.08056">
        <ele>210.763</ele>
        <time>2014-11-28T12:42:54Z</time>
      </trkpt>
      <trkpt lat="45.02168" lon="1.08083">
        <ele>207.968</ele>
        <time>2014-11-28T12:42:56Z</time>
      </trkpt>
      <trkpt lat="45.02165" lon="1.08119">
        <ele>206.175</ele>
        <time>2014-11-28T12:42:59Z</time>
      </trkpt>
      <trkpt lat="45.02166" lon="1.0813">
        <ele>204.504</ele>
        <time>2014-11-28T12:43:00Z</time>
      </trkpt>
      <trkpt lat="45.02172" lon="1.08164">
        <ele>200.896</ele>
        <time>2014-11-28T12:43:03Z</time>
      </trkpt>
      <trkpt lat="45.02179" lon="1.08173">
        <ele>200.898</ele>
        <time>2014-11-28T12:43:04Z</time>
      </trkpt>
      <trkpt lat="45.02194" lon="1.08186">
        <ele>198.94</ele>
        <time>2014-11-28T12:43:06Z</time>
      </trkpt>
      <trkpt lat="45.02201" lon="1.08198">
        <ele>194.606</ele>
        <time>2014-11-28T12:43:08Z</time>
      </trkpt>
      <trkpt lat="45.02204" lon="1.08208">
        <ele>189.749</ele>
        <time>2014-11-28T12:43:09Z</time>
      </trkpt>
      <trkpt lat="45.02205" lon="1.08216">
        <ele>188.134</ele>
        <time>2014-11-28T12:43:10Z</time>
      </trkpt>
      <trkpt lat="45.02199" lon="1.08256">
        <ele>183.821</ele>
        <time>2014-11-28T12:43:14Z</time>
      </trkpt>
      <trkpt lat="45.02196" lon="1.08263">
        <ele>183.823</ele>
        <time>2014-11-28T12:43:15Z</time>
      </trkpt>
      <trkpt lat="45.02191" lon="1.08272">
        <ele>179.334</ele>
        <time>2014-11-28T12:43:17Z</time>
      </trkpt>
      <trkpt lat="45.02179" lon="1.08287">
        <ele>177.238</ele>
        <time>2014-11-28T12:43:22Z</time>
      </trkpt>
      <trkpt lat="45.02159" lon="1.08305">
        <ele>173.775</ele>
        <time>2014-11-28T12:43:24Z</time>
      </trkpt>
      <trkpt lat="45.02135" lon="1.08314">
        <ele>170.127</ele>
        <time>2014-11-28T12:43:26Z</time>
      </trkpt>
      <trkpt lat="45.02124" lon="1.0832">
        <ele>170.135</ele>
        <time>2014-11-28T12:43:27Z</time>
      </trkpt>
      <trkpt lat="45.02115" lon="1.0833">
        <ele>167.65</ele>
        <time>2014-11-28T12:43:28Z</time>
      </trkpt>
      <trkpt lat="45.02079" lon="1.08383">
        <ele>165.002</ele>
        <time>2014-11-28T12:43:32Z</time>
      </trkpt>
      <trkpt lat="45.02064" lon="1.08406">
        <ele>163.388</ele>
        <time>2014-11-28T12:43:34Z</time>
      </trkpt>
      <trkpt lat="45.02059" lon="1.0842">
        <ele>159.875</ele>
        <time>2014-11-28T12:43:35Z</time>
      </trkpt>
      <trkpt lat="45.02053" lon="1.08438">
        <ele>159.882</ele>
        <time>2014-11-28T12:43:36Z</time>
      </trkpt>
      <trkpt lat="45.02049" lon="1.08455">
        <ele>156.529</ele>
        <time>2014-11-28T12:43:37Z</time>
      </trkpt>
      <trkpt lat="45.02046" lon="1.08495">
        <ele>151.735</ele>
        <time>2014-11-28T12:43:39Z</time>
      </trkpt>
      <trkpt lat="45.02042" lon="1.08513">
        <ele>148.679</ele>
        <time>2014-11-28T12:43:40Z</time>
      </trkpt>
      <trkpt lat="45.02037" lon="1.08533">
        <ele>148.684</ele>
        <time>2014-11-28T12:43:41Z</time>
      </trkpt>
      <trkpt lat="45.02035" lon="1.0856">
        <ele>146.102</ele>
        <time>2014-11-28T12:43:43Z</time>
      </trkpt>
      <trkpt lat="45.02031" lon="1.08592">
        <ele>140.959</ele>
        <time>2014-11-28T12:43:45Z</time>
      </trkpt>
      <trkpt lat="45.0203" lon="1.08618">
        <ele>136.672</ele>
        <time>2014-11-28T12:43:47Z</time>
      </trkpt>
      <trkpt lat="45.02032" lon="1.08659">
        <ele>135.914</ele>
        <time>2014-11-28T12:43:50Z</time>
      </trkpt>
      <trkpt lat="45.02029" lon="1.08689">
        <ele>132.852</ele>
        <time>2014-11-28T12:43:52Z</time>
      </trkpt>
      <trkpt lat="45.02021" lon="1.08715">
        <ele>129.832</ele>
        <time>2014-11-28T12:43:54Z</time>
      </trkpt>
      <trkpt lat="45.02017" lon="1.08728">
        <ele>129.836</ele>
        <time>2014-11-28T12:43:55Z</time>
      </trkpt>
      <trkpt lat="45.02008" lon="1.08754">
        <ele>128.523</ele>
        <time>2014-11-28T12:43:57Z</time>
      </trkpt>
      <trkpt lat="45.01999" lon="1.08779">
        <ele>126.111</ele>
        <time>2014-11-28T12:43:59Z</time>
      </trkpt>
      <trkpt lat="45.01985" lon="1.08816">
        <ele>121.789</ele>
        <time>2014-11-28T12:44:02Z</time>
      </trkpt>
      <trkpt lat="45.01974" lon="1.08842">
        <ele>119.283</ele>
        <time>2014-11-28T12:44:04Z</time>
      </trkpt>
      <trkpt lat="45.01961" lon="1.08867">
        <ele>116.661</ele>
        <time>2014-11-28T12:44:06Z</time>
      </trkpt>
      <trkpt lat="45.0195" lon="1.0889">
        <ele>108.958</ele>
        <time>2014-11-28T12:44:08Z</time>
      </trkpt>
      <trkpt lat="45.01947" lon="1.08897">
        <ele>108.961</ele>
        <time>2014-11-28T12:44:09Z</time>
      </trkpt>
      <trkpt lat="45.01945" lon="1.08902">
        <ele>105.403</ele>
        <time>2014-11-28T12:44:10Z</time>
      </trkpt>
      <trkpt lat="45.01942" lon="1.08905">
        <ele>105.406</ele>
        <time>2014-11-28T12:44:11Z</time>
      </trkpt>
      <trkpt lat="45.01942" lon="1.08905">
        <ele>103.786</ele>
        <time>2014-11-28T12:44:13Z</time>
      </trkpt>
      <trkpt lat="45.01942" lon="1.08905">
        <ele>104.497</ele>
        <time>2014-11-28T12:45:04Z</time>
      </trkpt>
      <trkpt lat="45.01942" lon="1.08905">
        <ele>105.223</ele>
        <time>2014-11-28T12:50:31Z</time>
      </trkpt>
      <trkpt lat="45.01942" lon="1.08905">
        <ele>102.079</ele>
        <time>2014-11-28T12:51:20Z</time>
      </trkpt>
      <trkpt lat="45.01942" lon="1.08905">
        <ele>104.314</ele>
        <time>2014-11-28T12:51:31Z</time>
      </trkpt>
      <trkpt lat="45.01942" lon="1.08905">
        <ele>105.149</ele>
        <time>2014-11-28T12:52:43Z</time>
      </trkpt>
      <trkpt lat="45.01942" lon="1.08905">
        <ele>102.132</ele>
        <time>2014-11-28T12:53:19Z</time>
      </trkpt>
      <trkpt lat="45.01942" lon="1.08905">
        <ele>105.523</ele>
        <time>2014-11-28T12:54:00Z</time>
      </trkpt>
      <trkpt lat="45.01942" lon="1.08905">
        <ele>105.34</ele>
        <time>2014-11-28T12:55:48Z</time>
      </trkpt>
      <trkpt lat="45.01942" lon="1.08905">
        <ele>102.301</ele>
        <time>2014-11-28T12:56:19Z</time>
      </trkpt>
      <trkpt lat="45.01942" lon="1.08905">
        <ele>103.136</ele>
        <time>2014-11-28T13:05:34Z</time>
      </trkpt>
      <trkpt lat="45.01942" lon="1.08905">
        <ele>103.079</ele>
        <time>2014-11-28T13:06:29Z</time>
      </trkpt>
      <trkpt lat="45.01942" lon="1.08905">
        <ele>100.08</ele>
        <time>2014-11-28T13:06:39Z</time>
      </trkpt>
      <trkpt lat="45.01942" lon="1.08905">
        <ele>101.576</ele>
        <time>2014-11-28T13:06:41Z</time>
      </trkpt>
      <trkpt lat="45.01942" lon="1.08905">
        <ele>103.487</ele>
        <time>2014-11-28T13:06:43Z</time>
      </trkpt>
      <trkpt lat="45.01942" lon="1.08905">
        <ele>99.956</ele>
        <time>2014-11-28T13:07:49Z</time>
      </trkpt>
      <trkpt lat="45.01942" lon="1.08905">
        <ele>103.011</ele>
        <time>2014-11-28T13:07:59Z</time>
      </trkpt>
      <trkpt lat="45.01939" lon="1.08914">
        <ele>103.259</ele>
        <time>2014-11-28T13:09:29Z</time>
      </trkpt>
      <trkpt lat="45.01937" lon="1.08918">
        <ele>103.258</ele>
        <time>2014-11-28T13:09:30Z</time>
      </trkpt>
      <trkpt lat="45.01915" lon="1.08959">
        <ele>102.905</ele>
        <time>2014-11-28T13:09:37Z</time>
      </trkpt>
      <trkpt lat="45.01894" lon="1.08986">
        <ele>100.767</ele>
        <time>2014-11-28T13:09:41Z</time>
      </trkpt>
      <trkpt lat="45.01882" lon="1.09001">
        <ele>99.298</ele>
        <time>2014-11-28T13:09:43Z</time>
      </trkpt>
      <trkpt lat="45.01863" lon="1.0902">
        <ele>98.05</ele>
        <time>2014-11-28T13:09:46Z</time>
      </trkpt>
      <trkpt lat="45.01848" lon="1.09029">
        <ele>96.678</ele>
        <time>2014-11-28T13:09:48Z</time>
      </trkpt>
      <trkpt lat="45.01825" lon="1.09038">
        <ele>94.254</ele>
        <time>2014-11-28T13:09:51Z</time>
      </trkpt>
      <trkpt lat="45.01825" lon="1.09038">
        <ele>92.377</ele>
        <time>2014-11-28T13:09:52Z</time>
      </trkpt>
      <trkpt lat="45.01794" lon="1.09065">
        <ele>90.954</ele>
        <time>2014-11-28T13:09:55Z</time>
      </trkpt>
      <trkpt lat="45.01781" lon="1.09083">
        <ele>88.223</ele>
        <time>2014-11-28T13:09:57Z</time>
      </trkpt>
      <trkpt lat="45.01769" lon="1.09102">
        <ele>86.86</ele>
        <time>2014-11-28T13:10:00Z</time>
      </trkpt>
      <trkpt lat="45.01769" lon="1.09102">
        <ele>85.559</ele>
        <time>2014-11-28T13:10:01Z</time>
      </trkpt>
      <trkpt lat="45.01718" lon="1.09135">
        <ele>83.451</ele>
        <time>2014-11-28T13:10:05Z</time>
      </trkpt>
      <trkpt lat="45.01704" lon="1.09146">
        <ele>82.125</ele>
        <time>2014-11-28T13:10:07Z</time>
      </trkpt>
      <trkpt lat="45.01696" lon="1.09176">
        <ele>80.277</ele>
        <time>2014-11-28T13:10:10Z</time>
      </trkpt>
      <trkpt lat="45.01669" lon="1.092">
        <ele>79.781</ele>
        <time>2014-11-28T13:10:16Z</time>
      </trkpt>
      <trkpt lat="45.01664" lon="1.09196">
        <ele>80.386</ele>
        <time>2014-11-28T13:10:17Z</time>
      </trkpt>
      <trkpt lat="45.01652" lon="1.09187">
        <ele>80.484</ele>
        <time>2014-11-28T13:10:19Z</time>
      </trkpt>
      <trkpt lat="45.01641" lon="1.09177">
        <ele>78.827</ele>
        <time>2014-11-28T13:10:21Z</time>
      </trkpt>
      <trkpt lat="45.01607" lon="1.09144">
        <ele>75.741</ele>
        <time>2014-11-28T13:10:27Z</time>
      </trkpt>
      <trkpt lat="45.01603" lon="1.09139">
        <ele>75.737</ele>
        <time>2014-11-28T13:10:28Z</time>
      </trkpt>
      <trkpt lat="45.01528" lon="1.09071">
        <ele>71.248</ele>
        <time>2014-11-28T13:10:40Z</time>
      </trkpt>
      <trkpt lat="45.01515" lon="1.09058">
        <ele>69.491</ele>
        <time>2014-11-28T13:10:42Z</time>
      </trkpt>
      <trkpt lat="45.01417" lon="1.08984">
        <ele>68.042</ele>
        <time>2014-11-28T13:10:56Z</time>
      </trkpt>
      <trkpt lat="45.01333" lon="1.08957">
        <ele>66.445</ele>
        <time>2014-11-28T13:11:10Z</time>
      </trkpt>
      <trkpt lat="45.01323" lon="1.08955">
        <ele>65.336</ele>
        <time>2014-11-28T13:11:12Z</time>
      </trkpt>
      <trkpt lat="45.01313" lon="1.08955">
        <ele>65.098</ele>
        <time>2014-11-28T13:11:14Z</time>
      </trkpt>
      <trkpt lat="45.0129" lon="1.08955">
        <ele>65.366</ele>
        <time>2014-11-28T13:11:19Z</time>
      </trkpt>
      <trkpt lat="45.01198" lon="1.08934">
        <ele>66.909</ele>
        <time>2014-11-28T13:11:38Z</time>
      </trkpt>
      <trkpt lat="45.01103" lon="1.08902">
        <ele>66.52</ele>
        <time>2014-11-28T13:11:59Z</time>
      </trkpt>
      <trkpt lat="45.01095" lon="1.08903">
        <ele>66.934</ele>
        <time>2014-11-28T13:12:02Z</time>
      </trkpt>
      <trkpt lat="45.01089" lon="1.08879">
        <ele>67.985</ele>
        <time>2014-11-28T13:12:07Z</time>
      </trkpt>
      <trkpt lat="45.01104" lon="1.08795">
        <ele>71.298</ele>
        <time>2014-11-28T13:12:26Z</time>
      </trkpt>
      <trkpt lat="45.0111" lon="1.0876">
        <ele>69.629</ele>
        <time>2014-11-28T13:12:33Z</time>
      </trkpt>
      <trkpt lat="45.01111" lon="1.08755">
        <ele>69.396</ele>
        <time>2014-11-28T13:12:34Z</time>
      </trkpt>
      <trkpt lat="45.01112" lon="1.08745">
        <ele>69.323</ele>
        <time>2014-11-28T13:12:38Z</time>
      </trkpt>
      <trkpt lat="45.01112" lon="1.08745">
        <ele>70.795</ele>
        <time>2014-11-28T13:12:44Z</time>
      </trkpt>
      <trkpt lat="45.01046" lon="1.08713">
        <ele>73.863</ele>
        <time>2014-11-28T13:12:53Z</time>
      </trkpt>
      <trkpt lat="45.0104" lon="1.0871">
        <ele>75.175</ele>
        <time>2014-11-28T13:13:08Z</time>
      </trkpt>
      <trkpt lat="45.01015" lon="1.08696">
        <ele>75.653</ele>
        <time>2014-11-28T13:13:19Z</time>
      </trkpt>
      <trkpt lat="45.01006" lon="1.08692">
        <ele>73.954</ele>
        <time>2014-11-28T13:13:21Z</time>
      </trkpt>
      <trkpt lat="45.01003" lon="1.08691">
        <ele>72.138</ele>
        <time>2014-11-28T13:13:24Z</time>
      </trkpt>
      <trkpt lat="45.01003" lon="1.08691">
        <ele>69.054</ele>
        <time>2014-11-28T13:13:36Z</time>
      </trkpt>
      <trkpt lat="45.01003" lon="1.08691">
        <ele>68.852</ele>
        <time>2014-11-28T13:13:37Z</time>
      </trkpt>
      <trkpt lat="45.01003" lon="1.08691">
        <ele>71.054</ele>
        <time>2014-11-28T13:14:03Z</time>
      </trkpt>
      <trkpt lat="45.00982" lon="1.08677">
        <ele>70.468</ele>
        <time>2014-11-28T13:14:12Z</time>
      </trkpt>
      <trkpt lat="45.00945" lon="1.08684">
        <ele>72.067</ele>
        <time>2014-11-28T13:14:20Z</time>
      </trkpt>
      <trkpt lat="45.00933" lon="1.08689">
        <ele>71.139</ele>
        <time>2014-11-28T13:14:23Z</time>
      </trkpt>
      <trkpt lat="45.00926" lon="1.08707">
        <ele>69.621</ele>
        <time>2014-11-28T13:14:28Z</time>
      </trkpt>
      <trkpt lat="45.00929" lon="1.08707">
        <ele>67.78</ele>
        <time>2014-11-28T13:14:35Z</time>
      </trkpt>
      <trkpt lat="45.00944" lon="1.08685">
        <ele>65.091</ele>
        <time>2014-11-28T13:14:38Z</time>
      </trkpt>
      <trkpt lat="45.00941" lon="1.08686">
        <ele>64.81</ele>
        <time>2014-11-28T13:14:39Z</time>
      </trkpt>
      <trkpt lat="45.00936" lon="1.08689">
        <ele>64.091</ele>
        <time>2014-11-28T13:14:43Z</time>
      </trkpt>
      <trkpt lat="45.00934" lon="1.08689">
        <ele>64.038</ele>
        <time>2014-11-28T13:14:52Z</time>
      </trkpt>
      <trkpt lat="45.00934" lon="1.08689">
        <ele>64.409</ele>
        <time>2014-11-28T13:14:53Z</time>
      </trkpt>
      <trkpt lat="45.00934" lon="1.08689">
        <ele>64.399</ele>
        <time>2014-11-28T13:15:07Z</time>
      </trkpt>
      <trkpt lat="45.00934" lon="1.08689">
        <ele>66.169</ele>
        <time>2014-11-28T13:15:37Z</time>
      </trkpt>
      <trkpt lat="45.00934" lon="1.08689">
        <ele>64.737</ele>
        <time>2014-11-28T13:15:48Z</time>
      </trkpt>
      <trkpt lat="45.00916" lon="1.0874">
        <ele>64.237</ele>
        <time>2014-11-28T13:15:52Z</time>
      </trkpt>
      <trkpt lat="45.00914" lon="1.08752">
        <ele>64.243</ele>
        <time>2014-11-28T13:15:56Z</time>
      </trkpt>
      <trkpt lat="45.00908" lon="1.08755">
        <ele>64.805</ele>
        <time>2014-11-28T13:15:59Z</time>
      </trkpt>
      <trkpt lat="45.00899" lon="1.08768">
        <ele>62.745</ele>
        <time>2014-11-28T13:16:03Z</time>
      </trkpt>
      <trkpt lat="45.00888" lon="1.08775">
        <ele>61.361</ele>
        <time>2014-11-28T13:16:06Z</time>
      </trkpt>
      <trkpt lat="45.00877" lon="1.08787">
        <ele>63.178</ele>
        <time>2014-11-28T13:16:10Z</time>
      </trkpt>
      <trkpt lat="45.00871" lon="1.08795">
        <ele>64.442</ele>
        <time>2014-11-28T13:16:12Z</time>
      </trkpt>
      <trkpt lat="45.00863" lon="1.08804">
        <ele>64.744</ele>
        <time>2014-11-28T13:16:16Z</time>
      </trkpt>
      <trkpt lat="45.00834" lon="1.08833">
        <ele>65.432</ele>
        <time>2014-11-28T13:16:24Z</time>
      </trkpt>
      <trkpt lat="45.0083" lon="1.08841">
        <ele>65.245</ele>
        <time>2014-11-28T13:16:26Z</time>
      </trkpt>
      <trkpt lat="45.00816" lon="1.08871">
        <ele>64.715</ele>
        <time>2014-11-28T13:16:34Z</time>
      </trkpt>
      <trkpt lat="45.00804" lon="1.08915">
        <ele>65.362</ele>
        <time>2014-11-28T13:16:43Z</time>
      </trkpt>
      <trkpt lat="45.00777" lon="1.08946">
        <ele>64.453</ele>
        <time>2014-11-28T13:16:50Z</time>
      </trkpt>
      <trkpt lat="45.00758" lon="1.08976">
        <ele>64.059</ele>
        <time>2014-11-28T13:16:57Z</time>
      </trkpt>
      <trkpt lat="45.00755" lon="1.08995">
        <ele>64.752</ele>
        <time>2014-11-28T13:17:01Z</time>
      </trkpt>
      <trkpt lat="45.00743" lon="1.0902">
        <ele>65.28</ele>
        <time>2014-11-28T13:17:08Z</time>
      </trkpt>
      <trkpt lat="45.00721" lon="1.09027">
        <ele>65.298</ele>
        <time>2014-11-28T13:17:19Z</time>
      </trkpt>
      <trkpt lat="45.00719" lon="1.09029">
        <ele>65.782</ele>
        <time>2014-11-28T13:17:28Z</time>
      </trkpt>
      <trkpt lat="45.00703" lon="1.09044">
        <ele>64.863</ele>
        <time>2014-11-28T13:17:34Z</time>
      </trkpt>
      <trkpt lat="45.00669" lon="1.09072">
        <ele>66.324</ele>
        <time>2014-11-28T13:17:44Z</time>
      </trkpt>
      <trkpt lat="45.00653" lon="1.09087">
        <ele>66.519</ele>
        <time>2014-11-28T13:17:52Z</time>
      </trkpt>
      <trkpt lat="45.00633" lon="1.09097">
        <ele>66.411</ele>
        <time>2014-11-28T13:17:58Z</time>
      </trkpt>
      <trkpt lat="45.00626" lon="1.09113">
        <ele>66.075</ele>
        <time>2014-11-28T13:18:03Z</time>
      </trkpt>
      <trkpt lat="45.00616" lon="1.09127">
        <ele>66.118</ele>
        <time>2014-11-28T13:18:07Z</time>
      </trkpt>
      <trkpt lat="45.00586" lon="1.09157">
        <ele>66.149</ele>
        <time>2014-11-28T13:18:16Z</time>
      </trkpt>
      <trkpt lat="45.00577" lon="1.0917">
        <ele>65.856</ele>
        <time>2014-11-28T13:18:20Z</time>
      </trkpt>
      <trkpt lat="45.00556" lon="1.09192">
        <ele>67.161</ele>
        <time>2014-11-28T13:18:28Z</time>
      </trkpt>
      <trkpt lat="45.0053" lon="1.09208">
        <ele>68.829</ele>
        <time>2014-11-28T13:18:39Z</time>
      </trkpt>
      <trkpt lat="45.00506" lon="1.0923">
        <ele>69.812</ele>
        <time>2014-11-28T13:18:48Z</time>
      </trkpt>
      <trkpt lat="45.00489" lon="1.09245">
        <ele>70.287</ele>
        <time>2014-11-28T13:18:53Z</time>
      </trkpt>
      <trkpt lat="45.00461" lon="1.09278">
        <ele>69.114</ele>
        <time>2014-11-28T13:19:04Z</time>
      </trkpt>
      <trkpt lat="45.00459" lon="1.09281">
        <ele>69.788</ele>
        <time>2014-11-28T13:19:05Z</time>
      </trkpt>
      <trkpt lat="45.00432" lon="1.09296">
        <ele>70.316</ele>
        <time>2014-11-28T13:19:11Z</time>
      </trkpt>
      <trkpt lat="45.00421" lon="1.09303">
        <ele>70.39</ele>
        <time>2014-11-28T13:19:13Z</time>
      </trkpt>
      <trkpt lat="45.00408" lon="1.09315">
        <ele>71.26</ele>
        <time>2014-11-28T13:19:28Z</time>
      </trkpt>
      <trkpt lat="45.00406" lon="1.09315">
        <ele>71.18</ele>
        <time>2014-11-28T13:19:43Z</time>
      </trkpt>
      <trkpt lat="45.00399" lon="1.0932">
        <ele>72.11</ele>
        <time>2014-11-28T13:20:20Z</time>
      </trkpt>
      <trkpt lat="45.00383" lon="1.09337">
        <ele>75.405</ele>
        <time>2014-11-28T13:20:29Z</time>
      </trkpt>
      <trkpt lat="45.00381" lon="1.09339">
        <ele>75.42</ele>
        <time>2014-11-28T13:20:30Z</time>
      </trkpt>
      <trkpt lat="45.00378" lon="1.09345">
        <ele>76.556</ele>
        <time>2014-11-28T13:20:34Z</time>
      </trkpt>
      <trkpt lat="45.00371" lon="1.09359">
        <ele>78.332</ele>
        <time>2014-11-28T13:20:43Z</time>
      </trkpt>
      <trkpt lat="45.0037" lon="1.09361">
        <ele>78.611</ele>
        <time>2014-11-28T13:20:45Z</time>
      </trkpt>
      <trkpt lat="45.00363" lon="1.09368">
        <ele>81.727</ele>
        <time>2014-11-28T13:20:50Z</time>
      </trkpt>
      <trkpt lat="45.00361" lon="1.09369">
        <ele>81.74</ele>
        <time>2014-11-28T13:20:51Z</time>
      </trkpt>
      <trkpt lat="45.00356" lon="1.09372">
        <ele>82.18</ele>
        <time>2014-11-28T13:20:53Z</time>
      </trkpt>
      <trkpt lat="45.00346" lon="1.09389">
        <ele>83.698</ele>
        <time>2014-11-28T13:21:01Z</time>
      </trkpt>
      <trkpt lat="45.00345" lon="1.094">
        <ele>83.996</ele>
        <time>2014-11-28T13:21:11Z</time>
      </trkpt>
      <trkpt lat="45.00343" lon="1.09405">
        <ele>83.982</ele>
        <time>2014-11-28T13:21:13Z</time>
      </trkpt>
      <trkpt lat="45.00314" lon="1.09435">
        <ele>86.465</ele>
        <time>2014-11-28T13:21:25Z</time>
      </trkpt>
      <trkpt lat="45.00306" lon="1.09455">
        <ele>86.643</ele>
        <time>2014-11-28T13:21:32Z</time>
      </trkpt>
      <trkpt lat="45.00303" lon="1.09462">
        <ele>86.748</ele>
        <time>2014-11-28T13:21:36Z</time>
      </trkpt>
      <trkpt lat="45.00285" lon="1.09493">
        <ele>88.59</ele>
        <time>2014-11-28T13:21:46Z</time>
      </trkpt>
      <trkpt lat="45.00274" lon="1.09508">
        <ele>90.647</ele>
        <time>2014-11-28T13:21:54Z</time>
      </trkpt>
      <trkpt lat="45.00272" lon="1.09513">
        <ele>92.033</ele>
        <time>2014-11-28T13:21:57Z</time>
      </trkpt>
      <trkpt lat="45.00264" lon="1.09526">
        <ele>91.698</ele>
        <time>2014-11-28T13:22:02Z</time>
      </trkpt>
      <trkpt lat="45.0025" lon="1.09553">
        <ele>91.629</ele>
        <time>2014-11-28T13:22:07Z</time>
      </trkpt>
      <trkpt lat="45.00243" lon="1.09573">
        <ele>90.587</ele>
        <time>2014-11-28T13:22:11Z</time>
      </trkpt>
      <trkpt lat="45.00235" lon="1.09604">
        <ele>92.367</ele>
        <time>2014-11-28T13:22:21Z</time>
      </trkpt>
      <trkpt lat="45.00229" lon="1.09622">
        <ele>90.862</ele>
        <time>2014-11-28T13:22:25Z</time>
      </trkpt>
      <trkpt lat="45.00226" lon="1.09629">
        <ele>90.872</ele>
        <time>2014-11-28T13:22:26Z</time>
      </trkpt>
      <trkpt lat="45.00217" lon="1.0966">
        <ele>88.835</ele>
        <time>2014-11-28T13:22:30Z</time>
      </trkpt>
      <trkpt lat="45.00213" lon="1.09677">
        <ele>88.676</ele>
        <time>2014-11-28T13:22:33Z</time>
      </trkpt>
      <trkpt lat="45.0021" lon="1.09689">
        <ele>88.761</ele>
        <time>2014-11-28T13:22:35Z</time>
      </trkpt>
      <trkpt lat="45.00202" lon="1.09718">
        <ele>88.533</ele>
        <time>2014-11-28T13:22:42Z</time>
      </trkpt>
      <trkpt lat="45.00223" lon="1.09773">
        <ele>88.282</ele>
        <time>2014-11-28T13:22:52Z</time>
      </trkpt>
      <trkpt lat="45.00227" lon="1.09811">
        <ele>87.114</ele>
        <time>2014-11-28T13:22:59Z</time>
      </trkpt>
      <trkpt lat="45.00185" lon="1.09856">
        <ele>86.467</ele>
        <time>2014-11-28T13:23:08Z</time>
      </trkpt>
      <trkpt lat="45.0016" lon="1.09866">
        <ele>86.919</ele>
        <time>2014-11-28T13:23:17Z</time>
      </trkpt>
      <trkpt lat="45.00159" lon="1.09868">
        <ele>87.178</ele>
        <time>2014-11-28T13:23:18Z</time>
      </trkpt>
      <trkpt lat="45.0014" lon="1.09883">
        <ele>88.301</ele>
        <time>2014-11-28T13:23:24Z</time>
      </trkpt>
      <trkpt lat="45.00126" lon="1.09907">
        <ele>89.651</ele>
        <time>2014-11-28T13:23:32Z</time>
      </trkpt>
      <trkpt lat="45.00121" lon="1.09922">
        <ele>89.281</ele>
        <time>2014-11-28T13:23:36Z</time>
      </trkpt>
      <trkpt lat="45.00119" lon="1.09934">
        <ele>88.742</ele>
        <time>2014-11-28T13:23:38Z</time>
      </trkpt>
      <trkpt lat="45.00108" lon="1.09943">
        <ele>87.585</ele>
        <time>2014-11-28T13:23:40Z</time>
      </trkpt>
      <trkpt lat="45.00091" lon="1.0996">
        <ele>83.938</ele>
        <time>2014-11-28T13:23:46Z</time>
      </trkpt>
      <trkpt lat="45.00089" lon="1.09965">
        <ele>83.579</ele>
        <time>2014-11-28T13:23:49Z</time>
      </trkpt>
      <trkpt lat="45.00087" lon="1.09976">
        <ele>83.878</ele>
        <time>2014-11-28T13:23:51Z</time>
      </trkpt>
      <trkpt lat="45.00057" lon="1.10067">
        <ele>80.057</ele>
        <time>2014-11-28T13:23:59Z</time>
      </trkpt>
      <trkpt lat="45.00044" lon="1.10071">
        <ele>79.018</ele>
        <time>2014-11-28T13:24:03Z</time>
      </trkpt>
      <trkpt lat="45.00036" lon="1.10074">
        <ele>80.046</ele>
        <time>2014-11-28T13:24:13Z</time>
      </trkpt>
      <trkpt lat="45.00016" lon="1.10084">
        <ele>81.28</ele>
        <time>2014-11-28T13:24:18Z</time>
      </trkpt>
      <trkpt lat="45.00012" lon="1.10087">
        <ele>83.391</ele>
        <time>2014-11-28T13:24:24Z</time>
      </trkpt>
      <trkpt lat="44.99991" lon="1.10102">
        <ele>84.882</ele>
        <time>2014-11-28T13:24:36Z</time>
      </trkpt>
      <trkpt lat="44.99946" lon="1.10092">
        <ele>86.127</ele>
        <time>2014-11-28T13:24:55Z</time>
      </trkpt>
      <trkpt lat="44.99934" lon="1.10093">
        <ele>85.991</ele>
        <time>2014-11-28T13:25:07Z</time>
      </trkpt>
      <trkpt lat="44.99933" lon="1.10094">
        <ele>86.074</ele>
        <time>2014-11-28T13:25:11Z</time>
      </trkpt>
      <trkpt lat="44.99931" lon="1.10098">
        <ele>86.844</ele>
        <time>2014-11-28T13:25:28Z</time>
      </trkpt>
      <trkpt lat="44.99928" lon="1.10098">
        <ele>86.544</ele>
        <time>2014-11-28T13:26:38Z</time>
      </trkpt>
      <trkpt lat="44.99927" lon="1.10106">
        <ele>87.108</ele>
        <time>2014-11-28T13:26:43Z</time>
      </trkpt>
      <trkpt lat="44.99924" lon="1.1011">
        <ele>87.337</ele>
        <time>2014-11-28T13:26:45Z</time>
      </trkpt>
      <trkpt lat="44.9992" lon="1.10121">
        <ele>86.801</ele>
        <time>2014-11-28T13:26:50Z</time>
      </trkpt>
      <trkpt lat="44.9991" lon="1.10106">
        <ele>89.958</ele>
        <time>2014-11-28T13:26:59Z</time>
      </trkpt>
      <trkpt lat="44.99911" lon="1.1011">
        <ele>90.079</ele>
        <time>2014-11-28T13:27:02Z</time>
      </trkpt>
      <trkpt lat="44.99926" lon="1.10124">
        <ele>89.841</ele>
        <time>2014-11-28T13:27:05Z</time>
      </trkpt>
      <trkpt lat="44.99938" lon="1.10138">
        <ele>89.608</ele>
        <time>2014-11-28T13:27:10Z</time>
      </trkpt>
      <trkpt lat="44.9995" lon="1.10134">
        <ele>89.26</ele>
        <time>2014-11-28T13:27:12Z</time>
      </trkpt>
      <trkpt lat="44.9996" lon="1.10126">
        <ele>87.584</ele>
        <time>2014-11-28T13:27:15Z</time>
      </trkpt>
      <trkpt lat="44.99993" lon="1.101">
        <ele>85.934</ele>
        <time>2014-11-28T13:27:20Z</time>
      </trkpt>
      <trkpt lat="45.0003" lon="1.10077">
        <ele>83.245</ele>
        <time>2014-11-28T13:27:25Z</time>
      </trkpt>
      <trkpt lat="45.00045" lon="1.10071">
        <ele>82.493</ele>
        <time>2014-11-28T13:27:27Z</time>
      </trkpt>
      <trkpt lat="45.0008" lon="1.1008">
        <ele>82.898</ele>
        <time>2014-11-28T13:27:33Z</time>
      </trkpt>
      <trkpt lat="45.00086" lon="1.10129">
        <ele>82.489</ele>
        <time>2014-11-28T13:27:39Z</time>
      </trkpt>
      <trkpt lat="45.00066" lon="1.10214">
        <ele>83.905</ele>
        <time>2014-11-28T13:27:53Z</time>
      </trkpt>
      <trkpt lat="45.00049" lon="1.10279">
        <ele>86.588</ele>
        <time>2014-11-28T13:28:10Z</time>
      </trkpt>
      <trkpt lat="45.00044" lon="1.10338">
        <ele>89.287</ele>
        <time>2014-11-28T13:28:25Z</time>
      </trkpt>
      <trkpt lat="45.00045" lon="1.10351">
        <ele>90.294</ele>
        <time>2014-11-28T13:28:28Z</time>
      </trkpt>
      <trkpt lat="45.00039" lon="1.10363">
        <ele>89.366</ele>
        <time>2014-11-28T13:28:33Z</time>
      </trkpt>
      <trkpt lat="45.00037" lon="1.10357">
        <ele>90.295</ele>
        <time>2014-11-28T13:28:37Z</time>
      </trkpt>
      <trkpt lat="45.00028" lon="1.10335">
        <ele>93.346</ele>
        <time>2014-11-28T13:28:49Z</time>
      </trkpt>
      <trkpt lat="45.00022" lon="1.10319">
        <ele>96.485</ele>
        <time>2014-11-28T13:29:00Z</time>
      </trkpt>
      <trkpt lat="45.00022" lon="1.10314">
        <ele>97.13</ele>
        <time>2014-11-28T13:29:03Z</time>
      </trkpt>
      <trkpt lat="45.00015" lon="1.10288">
        <ele>99.938</ele>
        <time>2014-11-28T13:29:20Z</time>
      </trkpt>
      <trkpt lat="45.00009" lon="1.10257">
        <ele>101.502</ele>
        <time>2014-11-28T13:29:39Z</time>
      </trkpt>
      <trkpt lat="45.00007" lon="1.10252">
        <ele>102.874</ele>
        <time>2014-11-28T13:29:42Z</time>
      </trkpt>
      <trkpt lat="45.00006" lon="1.10234">
        <ele>104.811</ele>
        <time>2014-11-28T13:29:52Z</time>
      </trkpt>
      <trkpt lat="45.00005" lon="1.1023">
        <ele>106.213</ele>
        <time>2014-11-28T13:29:55Z</time>
      </trkpt>
      <trkpt lat="45.00003" lon="1.10219">
        <ele>108.915</ele>
        <time>2014-11-28T13:30:02Z</time>
      </trkpt>
      <trkpt lat="44.99994" lon="1.10192">
        <ele>111.289</ele>
        <time>2014-11-28T13:30:18Z</time>
      </trkpt>
      <trkpt lat="44.99961" lon="1.10193">
        <ele>110.761</ele>
        <time>2014-11-28T13:30:30Z</time>
      </trkpt>
      <trkpt lat="44.99906" lon="1.10217">
        <ele>109.876</ele>
        <time>2014-11-28T13:30:43Z</time>
      </trkpt>
      <trkpt lat="44.99859" lon="1.1023">
        <ele>107.756</ele>
        <time>2014-11-28T13:30:51Z</time>
      </trkpt>
      <trkpt lat="44.99847" lon="1.10232">
        <ele>107.091</ele>
        <time>2014-11-28T13:30:53Z</time>
      </trkpt>
      <trkpt lat="44.99803" lon="1.10239">
        <ele>105.927</ele>
        <time>2014-11-28T13:31:00Z</time>
      </trkpt>
      <trkpt lat="44.9977" lon="1.10249">
        <ele>105.25</ele>
        <time>2014-11-28T13:31:07Z</time>
      </trkpt>
      <trkpt lat="44.99749" lon="1.10234">
        <ele>104.106</ele>
        <time>2014-11-28T13:31:12Z</time>
      </trkpt>
      <trkpt lat="44.99742" lon="1.10216">
        <ele>103.776</ele>
        <time>2014-11-28T13:31:15Z</time>
      </trkpt>
      <trkpt lat="44.99737" lon="1.10201">
        <ele>104.114</ele>
        <time>2014-11-28T13:31:18Z</time>
      </trkpt>
      <trkpt lat="44.99739" lon="1.10185">
        <ele>104.756</ele>
        <time>2014-11-28T13:31:22Z</time>
      </trkpt>
      <trkpt lat="44.99753" lon="1.1015">
        <ele>105.585</ele>
        <time>2014-11-28T13:31:34Z</time>
      </trkpt>
      <trkpt lat="44.99773" lon="1.10141">
        <ele>107.871</ele>
        <time>2014-11-28T13:31:47Z</time>
      </trkpt>
      <trkpt lat="44.99806" lon="1.10129">
        <ele>111.08</ele>
        <time>2014-11-28T13:32:05Z</time>
      </trkpt>
      <trkpt lat="44.99837" lon="1.101">
        <ele>112.06</ele>
        <time>2014-11-28T13:32:22Z</time>
      </trkpt>
      <trkpt lat="44.99843" lon="1.10093">
        <ele>111.903</ele>
        <time>2014-11-28T13:32:25Z</time>
      </trkpt>
      <trkpt lat="44.9987" lon="1.10068">
        <ele>113.163</ele>
        <time>2014-11-28T13:32:37Z</time>
      </trkpt>
      <trkpt lat="44.99879" lon="1.10059">
        <ele>115.421</ele>
        <time>2014-11-28T13:32:43Z</time>
      </trkpt>
      <trkpt lat="44.99888" lon="1.10051">
        <ele>116.607</ele>
        <time>2014-11-28T13:32:48Z</time>
      </trkpt>
      <trkpt lat="44.99912" lon="1.1003">
        <ele>119.419</ele>
        <time>2014-11-28T13:33:04Z</time>
      </trkpt>
      <trkpt lat="44.99937" lon="1.09999">
        <ele>120.355</ele>
        <time>2014-11-28T13:33:21Z</time>
      </trkpt>
      <trkpt lat="44.99956" lon="1.09958">
        <ele>122.356</ele>
        <time>2014-11-28T13:33:37Z</time>
      </trkpt>
      <trkpt lat="44.99962" lon="1.09924">
        <ele>123.927</ele>
        <time>2014-11-28T13:33:48Z</time>
      </trkpt>
      <trkpt lat="44.99962" lon="1.09914">
        <ele>123.668</ele>
        <time>2014-11-28T13:33:51Z</time>
      </trkpt>
      <trkpt lat="44.99959" lon="1.09908">
        <ele>124.32</ele>
        <time>2014-11-28T13:33:55Z</time>
      </trkpt>
      <trkpt lat="44.99953" lon="1.09904">
        <ele>125.513</ele>
        <time>2014-11-28T13:34:00Z</time>
      </trkpt>
      <trkpt lat="44.99934" lon="1.09889">
        <ele>128.506</ele>
        <time>2014-11-28T13:34:13Z</time>
      </trkpt>
      <trkpt lat="44.9992" lon="1.09867">
        <ele>128.905</ele>
        <time>2014-11-28T13:34:24Z</time>
      </trkpt>
      <trkpt lat="44.99911" lon="1.09858">
        <ele>130.798</ele>
        <time>2014-11-28T13:34:32Z</time>
      </trkpt>
      <trkpt lat="44.99904" lon="1.0985">
        <ele>131.788</ele>
        <time>2014-11-28T13:34:39Z</time>
      </trkpt>
      <trkpt lat="44.99891" lon="1.09844">
        <ele>133.234</ele>
        <time>2014-11-28T13:34:51Z</time>
      </trkpt>
      <trkpt lat="44.99883" lon="1.09837">
        <ele>134.64</ele>
        <time>2014-11-28T13:35:01Z</time>
      </trkpt>
      <trkpt lat="44.99878" lon="1.09829">
        <ele>136.748</ele>
        <time>2014-11-28T13:35:08Z</time>
      </trkpt>
      <trkpt lat="44.99877" lon="1.09826">
        <ele>136.905</ele>
        <time>2014-11-28T13:35:10Z</time>
      </trkpt>
      <trkpt lat="44.99879" lon="1.09806">
        <ele>141.042</ele>
        <time>2014-11-28T13:35:25Z</time>
      </trkpt>
      <trkpt lat="44.99881" lon="1.0979">
        <ele>142.923</ele>
        <time>2014-11-28T13:35:37Z</time>
      </trkpt>
      <trkpt lat="44.99889" lon="1.09768">
        <ele>145.371</ele>
        <time>2014-11-28T13:35:53Z</time>
      </trkpt>
      <trkpt lat="44.99904" lon="1.09738">
        <ele>147.317</ele>
        <time>2014-11-28T13:36:13Z</time>
      </trkpt>
      <trkpt lat="44.99915" lon="1.09722">
        <ele>150.299</ele>
        <time>2014-11-28T13:36:24Z</time>
      </trkpt>
      <trkpt lat="44.99934" lon="1.09702">
        <ele>151.508</ele>
        <time>2014-11-28T13:36:38Z</time>
      </trkpt>
      <trkpt lat="44.9995" lon="1.09679">
        <ele>155.223</ele>
        <time>2014-11-28T13:36:53Z</time>
      </trkpt>
      <trkpt lat="44.99951" lon="1.09678">
        <ele>155.223</ele>
        <time>2014-11-28T13:36:54Z</time>
      </trkpt>
      <trkpt lat="44.99952" lon="1.09673">
        <ele>155.275</ele>
        <time>2014-11-28T13:36:57Z</time>
      </trkpt>
      <trkpt lat="44.99957" lon="1.09659">
        <ele>157.312</ele>
        <time>2014-11-28T13:37:15Z</time>
      </trkpt>
      <trkpt lat="44.9997" lon="1.09646">
        <ele>157.637</ele>
        <time>2014-11-28T13:37:26Z</time>
      </trkpt>
      <trkpt lat="44.9997" lon="1.09642">
        <ele>157.953</ele>
        <time>2014-11-28T13:37:30Z</time>
      </trkpt>
      <trkpt lat="44.99966" lon="1.09639">
        <ele>159.848</ele>
        <time>2014-11-28T13:37:36Z</time>
      </trkpt>
      <trkpt lat="44.99962" lon="1.09639">
        <ele>161.478</ele>
        <time>2014-11-28T13:37:42Z</time>
      </trkpt>
      <trkpt lat="44.99957" lon="1.09638">
        <ele>162.147</ele>
        <time>2014-11-28T13:37:51Z</time>
      </trkpt>
      <trkpt lat="44.99956" lon="1.09638">
        <ele>162.149</ele>
        <time>2014-11-28T13:37:52Z</time>
      </trkpt>
      <trkpt lat="44.99953" lon="1.09637">
        <ele>162.498</ele>
        <time>2014-11-28T13:37:54Z</time>
      </trkpt>
      <trkpt lat="44.99954" lon="1.09631">
        <ele>164.248</ele>
        <time>2014-11-28T13:37:59Z</time>
      </trkpt>
      <trkpt lat="44.99957" lon="1.09625">
        <ele>164.222</ele>
        <time>2014-11-28T13:38:05Z</time>
      </trkpt>
      <trkpt lat="44.99965" lon="1.09598">
        <ele>167.517</ele>
        <time>2014-11-28T13:38:23Z</time>
      </trkpt>
      <trkpt lat="44.99967" lon="1.09595">
        <ele>167.836</ele>
        <time>2014-11-28T13:38:25Z</time>
      </trkpt>
      <trkpt lat="44.99975" lon="1.09566">
        <ele>170.447</ele>
        <time>2014-11-28T13:38:43Z</time>
      </trkpt>
      <trkpt lat="44.99974" lon="1.09559">
        <ele>171.654</ele>
        <time>2014-11-28T13:38:50Z</time>
      </trkpt>
      <trkpt lat="44.99969" lon="1.09531">
        <ele>174.556</ele>
        <time>2014-11-28T13:39:07Z</time>
      </trkpt>
      <trkpt lat="44.99968" lon="1.09528">
        <ele>175.24</ele>
        <time>2014-11-28T13:39:09Z</time>
      </trkpt>
      <trkpt lat="44.99957" lon="1.09515">
        <ele>176.942</ele>
        <time>2014-11-28T13:39:21Z</time>
      </trkpt>
      <trkpt lat="44.99954" lon="1.09511">
        <ele>177.44</ele>
        <time>2014-11-28T13:39:24Z</time>
      </trkpt>
      <trkpt lat="44.99948" lon="1.09501">
        <ele>178.278</ele>
        <time>2014-11-28T13:39:31Z</time>
      </trkpt>
      <trkpt lat="44.99946" lon="1.09498">
        <ele>178.425</ele>
        <time>2014-11-28T13:39:33Z</time>
      </trkpt>
      <trkpt lat="44.99941" lon="1.09486">
        <ele>178.894</ele>
        <time>2014-11-28T13:39:39Z</time>
      </trkpt>
      <trkpt lat="44.99936" lon="1.09477">
        <ele>179.213</ele>
        <time>2014-11-28T13:39:43Z</time>
      </trkpt>
      <trkpt lat="44.99924" lon="1.09462">
        <ele>180.404</ele>
        <time>2014-11-28T13:39:50Z</time>
      </trkpt>
      <trkpt lat="44.99928" lon="1.09428">
        <ele>178.586</ele>
        <time>2014-11-28T13:39:58Z</time>
      </trkpt>
      <trkpt lat="44.99926" lon="1.09416">
        <ele>177.355</ele>
        <time>2014-11-28T13:40:00Z</time>
      </trkpt>
      <trkpt lat="44.99928" lon="1.09394">
        <ele>174.905</ele>
        <time>2014-11-28T13:40:03Z</time>
      </trkpt>
      <trkpt lat="44.99897" lon="1.09374">
        <ele>173.179</ele>
        <time>2014-11-28T13:40:10Z</time>
      </trkpt>
      <trkpt lat="44.99892" lon="1.09372">
        <ele>173.178</ele>
        <time>2014-11-28T13:40:11Z</time>
      </trkpt>
      <trkpt lat="44.99878" lon="1.09367">
        <ele>172.759</ele>
        <time>2014-11-28T13:40:14Z</time>
      </trkpt>
      <trkpt lat="44.99829" lon="1.09361">
        <ele>171.75</ele>
        <time>2014-11-28T13:40:27Z</time>
      </trkpt>
      <trkpt lat="44.99829" lon="1.09361">
        <ele>174.963</ele>
        <time>2014-11-28T13:40:40Z</time>
      </trkpt>
      <trkpt lat="44.99829" lon="1.09361">
        <ele>175.512</ele>
        <time>2014-11-28T13:40:45Z</time>
      </trkpt>
      <trkpt lat="44.99808" lon="1.09356">
        <ele>176.489</ele>
        <time>2014-11-28T13:40:50Z</time>
      </trkpt>
      <trkpt lat="44.99794" lon="1.09347">
        <ele>177.053</ele>
        <time>2014-11-28T13:41:02Z</time>
      </trkpt>
      <trkpt lat="44.99773" lon="1.0931">
        <ele>177.967</ele>
        <time>2014-11-28T13:41:16Z</time>
      </trkpt>
      <trkpt lat="44.9969" lon="1.09356">
        <ele>176.699</ele>
        <time>2014-11-28T13:41:26Z</time>
      </trkpt>
      <trkpt lat="44.9966" lon="1.09354">
        <ele>176.943</ele>
        <time>2014-11-28T13:41:34Z</time>
      </trkpt>
      <trkpt lat="44.99642" lon="1.09373">
        <ele>180.129</ele>
        <time>2014-11-28T13:41:47Z</time>
      </trkpt>
      <trkpt lat="44.99638" lon="1.09387">
        <ele>182.079</ele>
        <time>2014-11-28T13:41:57Z</time>
      </trkpt>
      <trkpt lat="44.99636" lon="1.09405">
        <ele>184.381</ele>
        <time>2014-11-28T13:42:09Z</time>
      </trkpt>
      <trkpt lat="44.99636" lon="1.0941">
        <ele>185.789</ele>
        <time>2014-11-28T13:42:12Z</time>
      </trkpt>
      <trkpt lat="44.99635" lon="1.09416">
        <ele>187.176</ele>
        <time>2014-11-28T13:42:16Z</time>
      </trkpt>
      <trkpt lat="44.99631" lon="1.09432">
        <ele>189.384</ele>
        <time>2014-11-28T13:42:34Z</time>
      </trkpt>
      <trkpt lat="44.99631" lon="1.09444">
        <ele>192.399</ele>
        <time>2014-11-28T13:42:47Z</time>
      </trkpt>
      <trkpt lat="44.9963" lon="1.0946">
        <ele>194.223</ele>
        <time>2014-11-28T13:43:01Z</time>
      </trkpt>
      <trkpt lat="44.9963" lon="1.09474">
        <ele>196.122</ele>
        <time>2014-11-28T13:43:14Z</time>
      </trkpt>
      <trkpt lat="44.99629" lon="1.09491">
        <ele>198.996</ele>
        <time>2014-11-28T13:43:28Z</time>
      </trkpt>
      <trkpt lat="44.99629" lon="1.09492">
        <ele>199.509</ele>
        <time>2014-11-28T13:43:29Z</time>
      </trkpt>
      <trkpt lat="44.99626" lon="1.09512">
        <ele>202.677</ele>
        <time>2014-11-28T13:43:47Z</time>
      </trkpt>
      <trkpt lat="44.99625" lon="1.09532">
        <ele>204.654</ele>
        <time>2014-11-28T13:44:02Z</time>
      </trkpt>
      <trkpt lat="44.99619" lon="1.09561">
        <ele>207.657</ele>
        <time>2014-11-28T13:44:14Z</time>
      </trkpt>
      <trkpt lat="44.99619" lon="1.09571">
        <ele>207.952</ele>
        <time>2014-11-28T13:44:18Z</time>
      </trkpt>
      <trkpt lat="44.99618" lon="1.0961">
        <ele>210.077</ele>
        <time>2014-11-28T13:44:34Z</time>
      </trkpt>
      <trkpt lat="44.99593" lon="1.09617">
        <ele>211.227</ele>
        <time>2014-11-28T13:44:48Z</time>
      </trkpt>
      <trkpt lat="44.99552" lon="1.09623">
        <ele>213.53</ele>
        <time>2014-11-28T13:45:04Z</time>
      </trkpt>
      <trkpt lat="44.99507" lon="1.09629">
        <ele>215.805</ele>
        <time>2014-11-28T13:45:19Z</time>
      </trkpt>
      <trkpt lat="44.99487" lon="1.09631">
        <ele>215.09</ele>
        <time>2014-11-28T13:45:26Z</time>
      </trkpt>
      <trkpt lat="44.99461" lon="1.09641">
        <ele>218.446</ele>
        <time>2014-11-28T13:45:36Z</time>
      </trkpt>
      <trkpt lat="44.99459" lon="1.09642">
        <ele>218.444</ele>
        <time>2014-11-28T13:45:37Z</time>
      </trkpt>
      <trkpt lat="44.99441" lon="1.0965">
        <ele>219.319</ele>
        <time>2014-11-28T13:45:48Z</time>
      </trkpt>
      <trkpt lat="44.99437" lon="1.09652">
        <ele>219.828</ele>
        <time>2014-11-28T13:45:51Z</time>
      </trkpt>
      <trkpt lat="44.99435" lon="1.0965">
        <ele>218.192</ele>
        <time>2014-11-28T13:46:08Z</time>
      </trkpt>
      <trkpt lat="44.99435" lon="1.0965">
        <ele>217.642</ele>
        <time>2014-11-28T13:47:09Z</time>
      </trkpt>
      <trkpt lat="44.99435" lon="1.0965">
        <ele>214.963</ele>
        <time>2014-11-28T13:47:14Z</time>
      </trkpt>
      <trkpt lat="44.99435" lon="1.0965">
        <ele>216.732</ele>
        <time>2014-11-28T13:47:16Z</time>
      </trkpt>
      <trkpt lat="44.99434" lon="1.0965">
        <ele>219.016</ele>
        <time>2014-11-28T13:49:00Z</time>
      </trkpt>
      <trkpt lat="44.99435" lon="1.0965">
        <ele>217.923</ele>
        <time>2014-11-28T13:50:21Z</time>
      </trkpt>
      <trkpt lat="44.99436" lon="1.09649">
        <ele>218.493</ele>
        <time>2014-11-28T13:50:23Z</time>
      </trkpt>
      <trkpt lat="44.99444" lon="1.09602">
        <ele>218.001</ele>
        <time>2014-11-28T13:50:35Z</time>
      </trkpt>
      <trkpt lat="44.99432" lon="1.0957">
        <ele>217.675</ele>
        <time>2014-11-28T13:50:41Z</time>
      </trkpt>
      <trkpt lat="44.99415" lon="1.09543">
        <ele>216.417</ele>
        <time>2014-11-28T13:50:46Z</time>
      </trkpt>
      <trkpt lat="44.99402" lon="1.09524">
        <ele>216.056</ele>
        <time>2014-11-28T13:50:49Z</time>
      </trkpt>
      <trkpt lat="44.99385" lon="1.09496">
        <ele>214.372</ele>
        <time>2014-11-28T13:50:53Z</time>
      </trkpt>
      <trkpt lat="44.99377" lon="1.09435">
        <ele>212.491</ele>
        <time>2014-11-28T13:51:00Z</time>
      </trkpt>
      <trkpt lat="44.99357" lon="1.09374">
        <ele>214.73</ele>
        <time>2014-11-28T13:51:11Z</time>
      </trkpt>
      <trkpt lat="44.99328" lon="1.09312">
        <ele>216.162</ele>
        <time>2014-11-28T13:51:28Z</time>
      </trkpt>
      <trkpt lat="44.99307" lon="1.09266">
        <ele>213.559</ele>
        <time>2014-11-28T13:51:38Z</time>
      </trkpt>
      <trkpt lat="44.99273" lon="1.09262">
        <ele>211.647</ele>
        <time>2014-11-28T13:51:44Z</time>
      </trkpt>
      <trkpt lat="44.99254" lon="1.09276">
        <ele>210.173</ele>
        <time>2014-11-28T13:51:48Z</time>
      </trkpt>
      <trkpt lat="44.99186" lon="1.09325">
        <ele>212.2</ele>
        <time>2014-11-28T13:52:06Z</time>
      </trkpt>
      <trkpt lat="44.99174" lon="1.09332">
        <ele>211.494</ele>
        <time>2014-11-28T13:52:09Z</time>
      </trkpt>
      <trkpt lat="44.99152" lon="1.09334">
        <ele>210.606</ele>
        <time>2014-11-28T13:52:13Z</time>
      </trkpt>
      <trkpt lat="44.99126" lon="1.09313">
        <ele>207.365</ele>
        <time>2014-11-28T13:52:17Z</time>
      </trkpt>
      <trkpt lat="44.99111" lon="1.09274">
        <ele>203.899</ele>
        <time>2014-11-28T13:52:24Z</time>
      </trkpt>
      <trkpt lat="44.99113" lon="1.0926">
        <ele>203.927</ele>
        <time>2014-11-28T13:52:26Z</time>
      </trkpt>
      <trkpt lat="44.99105" lon="1.09209">
        <ele>201.47</ele>
        <time>2014-11-28T13:52:32Z</time>
      </trkpt>
      <trkpt lat="44.99101" lon="1.09193">
        <ele>200.562</ele>
        <time>2014-11-28T13:52:34Z</time>
      </trkpt>
      <trkpt lat="44.99096" lon="1.09172">
        <ele>199.733</ele>
        <time>2014-11-28T13:52:37Z</time>
      </trkpt>
      <trkpt lat="44.99088" lon="1.09157">
        <ele>198.497</ele>
        <time>2014-11-28T13:52:39Z</time>
      </trkpt>
      <trkpt lat="44.99076" lon="1.09152">
        <ele>198.033</ele>
        <time>2014-11-28T13:52:41Z</time>
      </trkpt>
      <trkpt lat="44.99066" lon="1.09148">
        <ele>197.832</ele>
        <time>2014-11-28T13:52:43Z</time>
      </trkpt>
      <trkpt lat="44.99045" lon="1.09136">
        <ele>195.618</ele>
        <time>2014-11-28T13:52:47Z</time>
      </trkpt>
      <trkpt lat="44.99031" lon="1.09132">
        <ele>195.294</ele>
        <time>2014-11-28T13:52:49Z</time>
      </trkpt>
      <trkpt lat="44.9901" lon="1.09135">
        <ele>193.735</ele>
        <time>2014-11-28T13:52:52Z</time>
      </trkpt>
      <trkpt lat="44.99004" lon="1.09137">
        <ele>193.927</ele>
        <time>2014-11-28T13:52:53Z</time>
      </trkpt>
      <trkpt lat="44.98959" lon="1.09134">
        <ele>190.881</ele>
        <time>2014-11-28T13:53:00Z</time>
      </trkpt>
      <trkpt lat="44.98945" lon="1.09129">
        <ele>189.719</ele>
        <time>2014-11-28T13:53:02Z</time>
      </trkpt>
      <trkpt lat="44.98931" lon="1.09131">
        <ele>186.882</ele>
        <time>2014-11-28T13:53:04Z</time>
      </trkpt>
      <trkpt lat="44.98923" lon="1.09145">
        <ele>185.562</ele>
        <time>2014-11-28T13:53:06Z</time>
      </trkpt>
      <trkpt lat="44.98915" lon="1.09166">
        <ele>183.098</ele>
        <time>2014-11-28T13:53:09Z</time>
      </trkpt>
      <trkpt lat="44.98894" lon="1.09234">
        <ele>184.661</ele>
        <time>2014-11-28T13:53:20Z</time>
      </trkpt>
      <trkpt lat="44.98877" lon="1.09264">
        <ele>184.14</ele>
        <time>2014-11-28T13:53:25Z</time>
      </trkpt>
      <trkpt lat="44.98865" lon="1.09291">
        <ele>182.948</ele>
        <time>2014-11-28T13:53:29Z</time>
      </trkpt>
      <trkpt lat="44.98859" lon="1.09311">
        <ele>182.841</ele>
        <time>2014-11-28T13:53:32Z</time>
      </trkpt>
      <trkpt lat="44.98855" lon="1.09323">
        <ele>181.475</ele>
        <time>2014-11-28T13:53:34Z</time>
      </trkpt>
      <trkpt lat="44.98853" lon="1.09328">
        <ele>181.027</ele>
        <time>2014-11-28T13:53:35Z</time>
      </trkpt>
      <trkpt lat="44.98844" lon="1.09351">
        <ele>180.488</ele>
        <time>2014-11-28T13:53:39Z</time>
      </trkpt>
      <trkpt lat="44.98842" lon="1.09358">
        <ele>180.785</ele>
        <time>2014-11-28T13:53:43Z</time>
      </trkpt>
      <trkpt lat="44.98842" lon="1.09358">
        <ele>182.194</ele>
        <time>2014-11-28T13:53:52Z</time>
      </trkpt>
      <trkpt lat="44.98832" lon="1.09368">
        <ele>184.763</ele>
        <time>2014-11-28T13:54:00Z</time>
      </trkpt>
      <trkpt lat="44.98832" lon="1.09368">
        <ele>187.336</ele>
        <time>2014-11-28T13:54:15Z</time>
      </trkpt>
      <trkpt lat="44.98798" lon="1.09336">
        <ele>188.059</ele>
        <time>2014-11-28T13:54:29Z</time>
      </trkpt>
      <trkpt lat="44.98795" lon="1.09333">
        <ele>188.106</ele>
        <time>2014-11-28T13:54:31Z</time>
      </trkpt>
      <trkpt lat="44.98791" lon="1.09331">
        <ele>188.792</ele>
        <time>2014-11-28T13:54:35Z</time>
      </trkpt>
      <trkpt lat="44.9878" lon="1.09328">
        <ele>191.585</ele>
        <time>2014-11-28T13:54:47Z</time>
      </trkpt>
      <trkpt lat="44.9878" lon="1.09328">
        <ele>192.412</ele>
        <time>2014-11-28T13:54:50Z</time>
      </trkpt>
      <trkpt lat="44.98764" lon="1.0932">
        <ele>194.608</ele>
        <time>2014-11-28T13:55:03Z</time>
      </trkpt>
      <trkpt lat="44.98745" lon="1.0931">
        <ele>197.8</ele>
        <time>2014-11-28T13:55:20Z</time>
      </trkpt>
      <trkpt lat="44.9873" lon="1.09307">
        <ele>200.43</ele>
        <time>2014-11-28T13:55:35Z</time>
      </trkpt>
      <trkpt lat="44.98719" lon="1.09303">
        <ele>203.498</ele>
        <time>2014-11-28T13:55:50Z</time>
      </trkpt>
      <trkpt lat="44.98709" lon="1.09308">
        <ele>206.998</ele>
        <time>2014-11-28T13:56:06Z</time>
      </trkpt>
      <trkpt lat="44.987" lon="1.09311">
        <ele>210.227</ele>
        <time>2014-11-28T13:56:20Z</time>
      </trkpt>
      <trkpt lat="44.98699" lon="1.09309">
        <ele>210.436</ele>
        <time>2014-11-28T13:56:23Z</time>
      </trkpt>
      <trkpt lat="44.98695" lon="1.09273">
        <ele>211.304</ele>
        <time>2014-11-28T13:56:36Z</time>
      </trkpt>
      <trkpt lat="44.98689" lon="1.09221">
        <ele>210.805</ele>
        <time>2014-11-28T13:56:50Z</time>
      </trkpt>
      <trkpt lat="44.98688" lon="1.09211">
        <ele>211.051</ele>
        <time>2014-11-28T13:56:53Z</time>
      </trkpt>
      <trkpt lat="44.98678" lon="1.09189">
        <ele>213.309</ele>
        <time>2014-11-28T13:57:07Z</time>
      </trkpt>
      <trkpt lat="44.98666" lon="1.09174">
        <ele>216.568</ele>
        <time>2014-11-28T13:57:22Z</time>
      </trkpt>
      <trkpt lat="44.98658" lon="1.09169">
        <ele>218.021</ele>
        <time>2014-11-28T13:57:33Z</time>
      </trkpt>
      <trkpt lat="44.98652" lon="1.0917">
        <ele>219.246</ele>
        <time>2014-11-28T13:57:38Z</time>
      </trkpt>
      <trkpt lat="44.98642" lon="1.09183">
        <ele>222.964</ele>
        <time>2014-11-28T13:57:52Z</time>
      </trkpt>
      <trkpt lat="44.98632" lon="1.09195">
        <ele>226.113</ele>
        <time>2014-11-28T13:58:06Z</time>
      </trkpt>
      <trkpt lat="44.98623" lon="1.0921">
        <ele>228.516</ele>
        <time>2014-11-28T13:58:23Z</time>
      </trkpt>
      <trkpt lat="44.98621" lon="1.09215">
        <ele>228.969</ele>
        <time>2014-11-28T13:58:28Z</time>
      </trkpt>
      <trkpt lat="44.98618" lon="1.09224">
        <ele>230.434</ele>
        <time>2014-11-28T13:58:36Z</time>
      </trkpt>
      <trkpt lat="44.98618" lon="1.0925">
        <ele>232.965</ele>
        <time>2014-11-28T13:58:53Z</time>
      </trkpt>
      <trkpt lat="44.98617" lon="1.09263">
        <ele>233.599</ele>
        <time>2014-11-28T13:59:14Z</time>
      </trkpt>
      <trkpt lat="44.98616" lon="1.0928">
        <ele>236.623</ele>
        <time>2014-11-28T13:59:37Z</time>
      </trkpt>
      <trkpt lat="44.98612" lon="1.09304">
        <ele>238.846</ele>
        <time>2014-11-28T13:59:51Z</time>
      </trkpt>
      <trkpt lat="44.98617" lon="1.09358">
        <ele>239.401</ele>
        <time>2014-11-28T14:00:08Z</time>
      </trkpt>
      <trkpt lat="44.9862" lon="1.09403">
        <ele>240.543</ele>
        <time>2014-11-28T14:00:24Z</time>
      </trkpt>
      <trkpt lat="44.98618" lon="1.09406">
        <ele>241.092</ele>
        <time>2014-11-28T14:00:27Z</time>
      </trkpt>
      <trkpt lat="44.98609" lon="1.09405">
        <ele>243.695</ele>
        <time>2014-11-28T14:00:36Z</time>
      </trkpt>
      <trkpt lat="44.98603" lon="1.09404">
        <ele>245.848</ele>
        <time>2014-11-28T14:00:43Z</time>
      </trkpt>
      <trkpt lat="44.98587" lon="1.09399">
        <ele>249.047</ele>
        <time>2014-11-28T14:01:00Z</time>
      </trkpt>
      <trkpt lat="44.98572" lon="1.09404">
        <ele>251.801</ele>
        <time>2014-11-28T14:01:12Z</time>
      </trkpt>
      <trkpt lat="44.98553" lon="1.09427">
        <ele>251.437</ele>
        <time>2014-11-28T14:01:28Z</time>
      </trkpt>
      <trkpt lat="44.98537" lon="1.09414">
        <ele>252.51</ele>
        <time>2014-11-28T14:01:39Z</time>
      </trkpt>
      <trkpt lat="44.98505" lon="1.09374">
        <ele>252.635</ele>
        <time>2014-11-28T14:01:55Z</time>
      </trkpt>
      <trkpt lat="44.98495" lon="1.09373">
        <ele>253.722</ele>
        <time>2014-11-28T14:02:00Z</time>
      </trkpt>
      <trkpt lat="44.98456" lon="1.0939">
        <ele>250.99</ele>
        <time>2014-11-28T14:02:10Z</time>
      </trkpt>
      <trkpt lat="44.98436" lon="1.0938">
        <ele>250.067</ele>
        <time>2014-11-28T14:02:16Z</time>
      </trkpt>
      <trkpt lat="44.98434" lon="1.09376">
        <ele>249.898</ele>
        <time>2014-11-28T14:02:29Z</time>
      </trkpt>
      <trkpt lat="44.98434" lon="1.09376">
        <ele>249.758</ele>
        <time>2014-11-28T14:03:02Z</time>
      </trkpt>
      <trkpt lat="44.98434" lon="1.09376">
        <ele>249.483</ele>
        <time>2014-11-28T14:04:57Z</time>
      </trkpt>
      <trkpt lat="44.9843" lon="1.09373">
        <ele>249.79</ele>
        <time>2014-11-28T14:05:00Z</time>
      </trkpt>
      <trkpt lat="44.98392" lon="1.09344">
        <ele>251.041</ele>
        <time>2014-11-28T14:05:16Z</time>
      </trkpt>
      <trkpt lat="44.98342" lon="1.09317">
        <ele>252.489</ele>
        <time>2014-11-28T14:05:32Z</time>
      </trkpt>
      <trkpt lat="44.98302" lon="1.09296">
        <ele>252.459</ele>
        <time>2014-11-28T14:05:43Z</time>
      </trkpt>
      <trkpt lat="44.983" lon="1.09306">
        <ele>251.212</ele>
        <time>2014-11-28T14:05:50Z</time>
      </trkpt>
      <trkpt lat="44.983" lon="1.09306">
        <ele>252.179</ele>
        <time>2014-11-28T14:06:37Z</time>
      </trkpt>
      <trkpt lat="44.98299" lon="1.09307">
        <ele>251.521</ele>
        <time>2014-11-28T14:09:54Z</time>
      </trkpt>
      <trkpt lat="44.98299" lon="1.09305">
        <ele>252.112</ele>
        <time>2014-11-28T14:10:15Z</time>
      </trkpt>
      <trkpt lat="44.98286" lon="1.09289">
        <ele>252.535</ele>
        <time>2014-11-28T14:10:21Z</time>
      </trkpt>
      <trkpt lat="44.98243" lon="1.09265">
        <ele>252.66</ele>
        <time>2014-11-28T14:10:32Z</time>
      </trkpt>
      <trkpt lat="44.98219" lon="1.09247">
        <ele>252.732</ele>
        <time>2014-11-28T14:10:38Z</time>
      </trkpt>
      <trkpt lat="44.98157" lon="1.09176">
        <ele>252.176</ele>
        <time>2014-11-28T14:10:53Z</time>
      </trkpt>
      <trkpt lat="44.98063" lon="1.09063">
        <ele>253.142</ele>
        <time>2014-11-28T14:11:16Z</time>
      </trkpt>
      <trkpt lat="44.97992" lon="1.08979">
        <ele>254.72</ele>
        <time>2014-11-28T14:11:38Z</time>
      </trkpt>
      <trkpt lat="44.97974" lon="1.08954">
        <ele>253.786</ele>
        <time>2014-11-28T14:11:44Z</time>
      </trkpt>
      <trkpt lat="44.97958" lon="1.08907">
        <ele>252.34</ele>
        <time>2014-11-28T14:11:51Z</time>
      </trkpt>
      <trkpt lat="44.97957" lon="1.08845">
        <ele>250.08</ele>
        <time>2014-11-28T14:11:58Z</time>
      </trkpt>
      <trkpt lat="44.97951" lon="1.08805">
        <ele>250.093</ele>
        <time>2014-11-28T14:12:02Z</time>
      </trkpt>
      <trkpt lat="44.97936" lon="1.08769">
        <ele>248.345</ele>
        <time>2014-11-28T14:12:06Z</time>
      </trkpt>
      <trkpt lat="44.97928" lon="1.08754">
        <ele>246.854</ele>
        <time>2014-11-28T14:12:08Z</time>
      </trkpt>
      <trkpt lat="44.97915" lon="1.08727">
        <ele>245.464</ele>
        <time>2014-11-28T14:12:11Z</time>
      </trkpt>
      <trkpt lat="44.97859" lon="1.08613">
        <ele>242.618</ele>
        <time>2014-11-28T14:12:22Z</time>
      </trkpt>
      <trkpt lat="44.97825" lon="1.08558">
        <ele>241.854</ele>
        <time>2014-11-28T14:12:29Z</time>
      </trkpt>
      <trkpt lat="44.97803" lon="1.08528">
        <ele>241.908</ele>
        <time>2014-11-28T14:12:34Z</time>
      </trkpt>
      <trkpt lat="44.97804" lon="1.0853">
        <ele>241.154</ele>
        <time>2014-11-28T14:12:39Z</time>
      </trkpt>
      <trkpt lat="44.9781" lon="1.08538">
        <ele>240.684</ele>
        <time>2014-11-28T14:12:43Z</time>
      </trkpt>
      <trkpt lat="44.97811" lon="1.0854">
        <ele>239.819</ele>
        <time>2014-11-28T14:12:50Z</time>
      </trkpt>
      <trkpt lat="44.97807" lon="1.08533">
        <ele>240.522</ele>
        <time>2014-11-28T14:12:54Z</time>
      </trkpt>
      <trkpt lat="44.97774" lon="1.08492">
        <ele>241.74</ele>
        <time>2014-11-28T14:13:04Z</time>
      </trkpt>
      <trkpt lat="44.97763" lon="1.08477">
        <ele>241.567</ele>
        <time>2014-11-28T14:13:07Z</time>
      </trkpt>
      <trkpt lat="44.97737" lon="1.08446">
        <ele>242.41</ele>
        <time>2014-11-28T14:13:14Z</time>
      </trkpt>
      <trkpt lat="44.9772" lon="1.08428">
        <ele>241.365</ele>
        <time>2014-11-28T14:13:18Z</time>
      </trkpt>
      <trkpt lat="44.97676" lon="1.08403">
        <ele>240.81</ele>
        <time>2014-11-28T14:13:26Z</time>
      </trkpt>
      <trkpt lat="44.97639" lon="1.08397">
        <ele>239.171</ele>
        <time>2014-11-28T14:13:34Z</time>
      </trkpt>
      <trkpt lat="44.97612" lon="1.084">
        <ele>238.224</ele>
        <time>2014-11-28T14:13:39Z</time>
      </trkpt>
      <trkpt lat="44.97573" lon="1.08408">
        <ele>237.329</ele>
        <time>2014-11-28T14:13:45Z</time>
      </trkpt>
      <trkpt lat="44.97554" lon="1.08412">
        <ele>236.528</ele>
        <time>2014-11-28T14:13:48Z</time>
      </trkpt>
      <trkpt lat="44.97512" lon="1.08412">
        <ele>235.982</ele>
        <time>2014-11-28T14:13:54Z</time>
      </trkpt>
      <trkpt lat="44.97455" lon="1.08385">
        <ele>235.547</ele>
        <time>2014-11-28T14:14:04Z</time>
      </trkpt>
      <trkpt lat="44.97417" lon="1.0835">
        <ele>236.49</ele>
        <time>2014-11-28T14:14:13Z</time>
      </trkpt>
      <trkpt lat="44.97362" lon="1.08298">
        <ele>237.968</ele>
        <time>2014-11-28T14:14:27Z</time>
      </trkpt>
      <trkpt lat="44.97351" lon="1.08288">
        <ele>238.553</ele>
        <time>2014-11-28T14:14:30Z</time>
      </trkpt>
      <trkpt lat="44.97285" lon="1.08228">
        <ele>240.192</ele>
        <time>2014-11-28T14:14:48Z</time>
      </trkpt>
      <trkpt lat="44.97243" lon="1.08185">
        <ele>241.859</ele>
        <time>2014-11-28T14:15:02Z</time>
      </trkpt>
      <trkpt lat="44.97235" lon="1.08176">
        <ele>241.024</ele>
        <time>2014-11-28T14:15:14Z</time>
      </trkpt>
      <trkpt lat="44.97235" lon="1.08176">
        <ele>240.525</ele>
        <time>2014-11-28T14:17:22Z</time>
      </trkpt>
      <trkpt lat="44.97234" lon="1.08174">
        <ele>240.861</ele>
        <time>2014-11-28T14:17:25Z</time>
      </trkpt>
      <trkpt lat="44.97241" lon="1.08182">
        <ele>242.031</ele>
        <time>2014-11-28T14:17:30Z</time>
      </trkpt>
      <trkpt lat="44.97252" lon="1.08184">
        <ele>240.019</ele>
        <time>2014-11-28T14:17:35Z</time>
      </trkpt>
      <trkpt lat="44.9729" lon="1.08147">
        <ele>243.948</ele>
        <time>2014-11-28T14:17:47Z</time>
      </trkpt>
      <trkpt lat="44.97345" lon="1.08073">
        <ele>243.958</ele>
        <time>2014-11-28T14:18:06Z</time>
      </trkpt>
      <trkpt lat="44.97393" lon="1.08023">
        <ele>242.809</ele>
        <time>2014-11-28T14:18:18Z</time>
      </trkpt>
      <trkpt lat="44.974" lon="1.07998">
        <ele>241.327</ele>
        <time>2014-11-28T14:18:22Z</time>
      </trkpt>
      <trkpt lat="44.97404" lon="1.07967">
        <ele>240.741</ele>
        <time>2014-11-28T14:18:25Z</time>
      </trkpt>
      <trkpt lat="44.97414" lon="1.0793">
        <ele>238.755</ele>
        <time>2014-11-28T14:18:28Z</time>
      </trkpt>
      <trkpt lat="44.97421" lon="1.07919">
        <ele>237.88</ele>
        <time>2014-11-28T14:18:29Z</time>
      </trkpt>
      <trkpt lat="44.97436" lon="1.07892">
        <ele>235.559</ele>
        <time>2014-11-28T14:18:32Z</time>
      </trkpt>
      <trkpt lat="44.97458" lon="1.07872">
        <ele>231.395</ele>
        <time>2014-11-28T14:18:34Z</time>
      </trkpt>
      <trkpt lat="44.97466" lon="1.07864">
        <ele>231.395</ele>
        <time>2014-11-28T14:18:35Z</time>
      </trkpt>
      <trkpt lat="44.97543" lon="1.0778">
        <ele>229.71</ele>
        <time>2014-11-28T14:18:46Z</time>
      </trkpt>
      <trkpt lat="44.97605" lon="1.07778">
        <ele>228.862</ele>
        <time>2014-11-28T14:18:54Z</time>
      </trkpt>
      <trkpt lat="44.97631" lon="1.07801">
        <ele>227.423</ele>
        <time>2014-11-28T14:18:58Z</time>
      </trkpt>
      <trkpt lat="44.97656" lon="1.07828">
        <ele>227.281</ele>
        <time>2014-11-28T14:19:02Z</time>
      </trkpt>
      <trkpt lat="44.97678" lon="1.07845">
        <ele>225.002</ele>
        <time>2014-11-28T14:19:05Z</time>
      </trkpt>
      <trkpt lat="44.97694" lon="1.07852">
        <ele>224.376</ele>
        <time>2014-11-28T14:19:07Z</time>
      </trkpt>
      <trkpt lat="44.97728" lon="1.07859">
        <ele>222.821</ele>
        <time>2014-11-28T14:19:11Z</time>
      </trkpt>
      <trkpt lat="44.97751" lon="1.07857">
        <ele>222.342</ele>
        <time>2014-11-28T14:19:14Z</time>
      </trkpt>
      <trkpt lat="44.97767" lon="1.07853">
        <ele>221.33</ele>
        <time>2014-11-28T14:19:16Z</time>
      </trkpt>
      <trkpt lat="44.97782" lon="1.07845">
        <ele>219.796</ele>
        <time>2014-11-28T14:19:18Z</time>
      </trkpt>
      <trkpt lat="44.97817" lon="1.07812">
        <ele>218.029</ele>
        <time>2014-11-28T14:19:23Z</time>
      </trkpt>
      <trkpt lat="44.9785" lon="1.07747">
        <ele>213.849</ele>
        <time>2014-11-28T14:19:30Z</time>
      </trkpt>
      <trkpt lat="44.9786" lon="1.07713">
        <ele>212.262</ele>
        <time>2014-11-28T14:19:33Z</time>
      </trkpt>
      <trkpt lat="44.97865" lon="1.07691">
        <ele>211.487</ele>
        <time>2014-11-28T14:19:35Z</time>
      </trkpt>
      <trkpt lat="44.97867" lon="1.07668">
        <ele>210.344</ele>
        <time>2014-11-28T14:19:37Z</time>
      </trkpt>
      <trkpt lat="44.97868" lon="1.07657">
        <ele>208.627</ele>
        <time>2014-11-28T14:19:39Z</time>
      </trkpt>
      <trkpt lat="44.97876" lon="1.07654">
        <ele>207.978</ele>
        <time>2014-11-28T14:19:49Z</time>
      </trkpt>
      <trkpt lat="44.97876" lon="1.07654">
        <ele>208.232</ele>
        <time>2014-11-28T14:19:56Z</time>
      </trkpt>
      <trkpt lat="44.97876" lon="1.07654">
        <ele>207.125</ele>
        <time>2014-11-28T14:21:28Z</time>
      </trkpt>
      <trkpt lat="44.97869" lon="1.07628">
        <ele>206.701</ele>
        <time>2014-11-28T14:21:34Z</time>
      </trkpt>
      <trkpt lat="44.9787" lon="1.07576">
        <ele>205.376</ele>
        <time>2014-11-28T14:21:40Z</time>
      </trkpt>
      <trkpt lat="44.97872" lon="1.07548">
        <ele>204.535</ele>
        <time>2014-11-28T14:21:43Z</time>
      </trkpt>
      <trkpt lat="44.97881" lon="1.07454">
        <ele>200.452</ele>
        <time>2014-11-28T14:21:52Z</time>
      </trkpt>
      <trkpt lat="44.97886" lon="1.07329">
        <ele>196.339</ele>
        <time>2014-11-28T14:22:02Z</time>
      </trkpt>
      <trkpt lat="44.97885" lon="1.07317">
        <ele>196.33</ele>
        <time>2014-11-28T14:22:03Z</time>
      </trkpt>
      <trkpt lat="44.9787" lon="1.07221">
        <ele>192.816</ele>
        <time>2014-11-28T14:22:11Z</time>
      </trkpt>
      <trkpt lat="44.97858" lon="1.07174">
        <ele>190.411</ele>
        <time>2014-11-28T14:22:15Z</time>
      </trkpt>
      <trkpt lat="44.97841" lon="1.071">
        <ele>187.28</ele>
        <time>2014-11-28T14:22:21Z</time>
      </trkpt>
      <trkpt lat="44.97828" lon="1.06988">
        <ele>182.659</ele>
        <time>2014-11-28T14:22:30Z</time>
      </trkpt>
      <trkpt lat="44.97828" lon="1.06976">
        <ele>182.651</ele>
        <time>2014-11-28T14:22:31Z</time>
      </trkpt>
      <trkpt lat="44.97827" lon="1.06964">
        <ele>181.419</ele>
        <time>2014-11-28T14:22:32Z</time>
      </trkpt>
      <trkpt lat="44.97826" lon="1.06927">
        <ele>180.062</ele>
        <time>2014-11-28T14:22:35Z</time>
      </trkpt>
      <trkpt lat="44.97826" lon="1.06889">
        <ele>178.245</ele>
        <time>2014-11-28T14:22:38Z</time>
      </trkpt>
      <trkpt lat="44.97824" lon="1.06793">
        <ele>176.583</ele>
        <time>2014-11-28T14:22:46Z</time>
      </trkpt>
      <trkpt lat="44.97824" lon="1.06799">
        <ele>174.211</ele>
        <time>2014-11-28T14:22:50Z</time>
      </trkpt>
      <trkpt lat="44.97824" lon="1.06812">
        <ele>173.788</ele>
        <time>2014-11-28T14:22:52Z</time>
      </trkpt>
      <trkpt lat="44.97812" lon="1.06841">
        <ele>172.822</ele>
        <time>2014-11-28T14:22:56Z</time>
      </trkpt>
      <trkpt lat="44.97797" lon="1.06902">
        <ele>170.612</ele>
        <time>2014-11-28T14:23:03Z</time>
      </trkpt>
      <trkpt lat="44.97789" lon="1.06933">
        <ele>168.59</ele>
        <time>2014-11-28T14:23:06Z</time>
      </trkpt>
      <trkpt lat="44.97779" lon="1.06978">
        <ele>166.276</ele>
        <time>2014-11-28T14:23:10Z</time>
      </trkpt>
      <trkpt lat="44.97775" lon="1.07008">
        <ele>166.425</ele>
        <time>2014-11-28T14:23:13Z</time>
      </trkpt>
      <trkpt lat="44.97771" lon="1.07027">
        <ele>166.268</ele>
        <time>2014-11-28T14:23:15Z</time>
      </trkpt>
      <trkpt lat="44.97767" lon="1.07044">
        <ele>164.74</ele>
        <time>2014-11-28T14:23:17Z</time>
      </trkpt>
      <trkpt lat="44.97758" lon="1.07062">
        <ele>162.997</ele>
        <time>2014-11-28T14:23:19Z</time>
      </trkpt>
      <trkpt lat="44.97755" lon="1.07071">
        <ele>162.475</ele>
        <time>2014-11-28T14:23:20Z</time>
      </trkpt>
      <trkpt lat="44.97754" lon="1.07112">
        <ele>162.241</ele>
        <time>2014-11-28T14:23:24Z</time>
      </trkpt>
      <trkpt lat="44.97759" lon="1.07165">
        <ele>161.318</ele>
        <time>2014-11-28T14:23:29Z</time>
      </trkpt>
      <trkpt lat="44.97763" lon="1.07182">
        <ele>161.787</ele>
        <time>2014-11-28T14:23:31Z</time>
      </trkpt>
      <trkpt lat="44.97767" lon="1.07208">
        <ele>161.819</ele>
        <time>2014-11-28T14:23:34Z</time>
      </trkpt>
      <trkpt lat="44.97767" lon="1.07214">
        <ele>159.314</ele>
        <time>2014-11-28T14:23:36Z</time>
      </trkpt>
      <trkpt lat="44.97767" lon="1.07207">
        <ele>157.594</ele>
        <time>2014-11-28T14:23:38Z</time>
      </trkpt>
      <trkpt lat="44.97759" lon="1.07164">
        <ele>155.961</ele>
        <time>2014-11-28T14:23:43Z</time>
      </trkpt>
      <trkpt lat="44.97757" lon="1.0715">
        <ele>153.874</ele>
        <time>2014-11-28T14:23:45Z</time>
      </trkpt>
      <trkpt lat="44.97755" lon="1.07133">
        <ele>151.863</ele>
        <time>2014-11-28T14:23:47Z</time>
      </trkpt>
      <trkpt lat="44.97754" lon="1.07114">
        <ele>148.525</ele>
        <time>2014-11-28T14:23:49Z</time>
      </trkpt>
      <trkpt lat="44.97754" lon="1.07114">
        <ele>146.544</ele>
        <time>2014-11-28T14:23:52Z</time>
      </trkpt>
      <trkpt lat="44.97755" lon="1.07127">
        <ele>143.952</ele>
        <time>2014-11-28T14:23:54Z</time>
      </trkpt>
      <trkpt lat="44.97756" lon="1.0714">
        <ele>142.469</ele>
        <time>2014-11-28T14:23:56Z</time>
      </trkpt>
      <trkpt lat="44.97757" lon="1.07154">
        <ele>139.705</ele>
        <time>2014-11-28T14:23:58Z</time>
      </trkpt>
      <trkpt lat="44.97762" lon="1.07176">
        <ele>137.523</ele>
        <time>2014-11-28T14:24:01Z</time>
      </trkpt>
      <trkpt lat="44.97765" lon="1.07193">
        <ele>135.618</ele>
        <time>2014-11-28T14:24:03Z</time>
      </trkpt>
      <trkpt lat="44.97766" lon="1.07201">
        <ele>133.768</ele>
        <time>2014-11-28T14:24:04Z</time>
      </trkpt>
      <trkpt lat="44.97767" lon="1.07221">
        <ele>132.724</ele>
        <time>2014-11-28T14:24:06Z</time>
      </trkpt>
      <trkpt lat="44.97667" lon="1.06868">
        <ele>130.148</ele>
        <time>2014-11-28T14:24:08Z</time>
      </trkpt>
      <trkpt lat="44.97662" lon="1.06838">
        <ele>128.114</ele>
        <time>2014-11-28T14:24:10Z</time>
      </trkpt>
      <trkpt lat="44.9766" lon="1.06802">
        <ele>123.714</ele>
        <time>2014-11-28T14:24:13Z</time>
      </trkpt>
      <trkpt lat="44.97658" lon="1.06765">
        <ele>122.121</ele>
        <time>2014-11-28T14:24:15Z</time>
      </trkpt>
      <trkpt lat="44.97653" lon="1.0674">
        <ele>120.628</ele>
        <time>2014-11-28T14:24:17Z</time>
      </trkpt>
      <trkpt lat="44.97641" lon="1.06696">
        <ele>115.8</ele>
        <time>2014-11-28T14:24:20Z</time>
      </trkpt>
      <trkpt lat="44.97639" lon="1.06671">
        <ele>113.813</ele>
        <time>2014-11-28T14:24:22Z</time>
      </trkpt>
      <trkpt lat="44.97631" lon="1.06646">
        <ele>112.688</ele>
        <time>2014-11-28T14:24:24Z</time>
      </trkpt>
      <trkpt lat="44.9762" lon="1.06615">
        <ele>108.127</ele>
        <time>2014-11-28T14:24:27Z</time>
      </trkpt>
      <trkpt lat="44.9762" lon="1.06615">
        <ele>106.547</ele>
        <time>2014-11-28T14:24:28Z</time>
      </trkpt>
      <trkpt lat="44.9762" lon="1.06615">
        <ele>105.546</ele>
        <time>2014-11-28T14:24:31Z</time>
      </trkpt>
      <trkpt lat="44.97611" lon="1.06544">
        <ele>101.743</ele>
        <time>2014-11-28T14:24:34Z</time>
      </trkpt>
      <trkpt lat="44.97611" lon="1.06537">
        <ele>101.199</ele>
        <time>2014-11-28T14:24:35Z</time>
      </trkpt>
      <trkpt lat="44.97622" lon="1.06499">
        <ele>100.002</ele>
        <time>2014-11-28T14:24:39Z</time>
      </trkpt>
      <trkpt lat="44.97633" lon="1.06476">
        <ele>99.489</ele>
        <time>2014-11-28T14:24:42Z</time>
      </trkpt>
      <trkpt lat="44.97636" lon="1.06461">
        <ele>98.348</ele>
        <time>2014-11-28T14:24:44Z</time>
      </trkpt>
      <trkpt lat="44.97637" lon="1.0643">
        <ele>96.921</ele>
        <time>2014-11-28T14:24:47Z</time>
      </trkpt>
      <trkpt lat="44.97638" lon="1.06413">
        <ele>94.662</ele>
        <time>2014-11-28T14:24:49Z</time>
      </trkpt>
      <trkpt lat="44.97628" lon="1.06376">
        <ele>92.802</ele>
        <time>2014-11-28T14:24:53Z</time>
      </trkpt>
      <trkpt lat="44.9761" lon="1.06314">
        <ele>91.248</ele>
        <time>2014-11-28T14:25:06Z</time>
      </trkpt>
      <trkpt lat="44.97602" lon="1.06285">
        <ele>91.436</ele>
        <time>2014-11-28T14:25:12Z</time>
      </trkpt>
      <trkpt lat="44.97592" lon="1.0623">
        <ele>91.084</ele>
        <time>2014-11-28T14:25:24Z</time>
      </trkpt>
      <trkpt lat="44.97586" lon="1.06192">
        <ele>90.18</ele>
        <time>2014-11-28T14:25:36Z</time>
      </trkpt>
      <trkpt lat="44.97579" lon="1.06162">
        <ele>89.573</ele>
        <time>2014-11-28T14:25:45Z</time>
      </trkpt>
      <trkpt lat="44.97585" lon="1.06141">
        <ele>88.96</ele>
        <time>2014-11-28T14:25:49Z</time>
      </trkpt>
      <trkpt lat="44.97602" lon="1.06086">
        <ele>88.076</ele>
        <time>2014-11-28T14:26:00Z</time>
      </trkpt>
      <trkpt lat="44.9763" lon="1.06024">
        <ele>88.595</ele>
        <time>2014-11-28T14:26:14Z</time>
      </trkpt>
      <trkpt lat="44.97647" lon="1.05983">
        <ele>88.759</ele>
        <time>2014-11-28T14:26:26Z</time>
      </trkpt>
      <trkpt lat="44.97666" lon="1.05938">
        <ele>88.886</ele>
        <time>2014-11-28T14:26:37Z</time>
      </trkpt>
      <trkpt lat="44.97683" lon="1.05886">
        <ele>89.366</ele>
        <time>2014-11-28T14:26:51Z</time>
      </trkpt>
      <trkpt lat="44.97688" lon="1.05869">
        <ele>89.336</ele>
        <time>2014-11-28T14:26:56Z</time>
      </trkpt>
      <trkpt lat="44.97696" lon="1.05853">
        <ele>87.849</ele>
        <time>2014-11-28T14:27:00Z</time>
      </trkpt>
      <trkpt lat="44.97699" lon="1.05846">
        <ele>86.712</ele>
        <time>2014-11-28T14:27:02Z</time>
      </trkpt>
      <trkpt lat="44.97717" lon="1.05808">
        <ele>83.839</ele>
        <time>2014-11-28T14:27:10Z</time>
      </trkpt>
      <trkpt lat="44.97735" lon="1.05759">
        <ele>82.565</ele>
        <time>2014-11-28T14:27:22Z</time>
      </trkpt>
      <trkpt lat="44.97745" lon="1.05725">
        <ele>79.437</ele>
        <time>2014-11-28T14:27:29Z</time>
      </trkpt>
      <trkpt lat="44.97748" lon="1.05719">
        <ele>79.457</ele>
        <time>2014-11-28T14:27:30Z</time>
      </trkpt>
      <trkpt lat="44.97778" lon="1.05647">
        <ele>76.72</ele>
        <time>2014-11-28T14:27:42Z</time>
      </trkpt>
      <trkpt lat="44.97781" lon="1.05623">
        <ele>74.775</ele>
        <time>2014-11-28T14:27:46Z</time>
      </trkpt>
      <trkpt lat="44.97791" lon="1.05579">
        <ele>71.757</ele>
        <time>2014-11-28T14:27:52Z</time>
      </trkpt>
      <trkpt lat="44.978" lon="1.05553">
        <ele>70.518</ele>
        <time>2014-11-28T14:27:55Z</time>
      </trkpt>
      <trkpt lat="44.97811" lon="1.05519">
        <ele>67.907</ele>
        <time>2014-11-28T14:27:58Z</time>
      </trkpt>
      <trkpt lat="44.97816" lon="1.055">
        <ele>66.509</ele>
        <time>2014-11-28T14:28:00Z</time>
      </trkpt>
      <trkpt lat="44.97812" lon="1.0544">
        <ele>64.818</ele>
        <time>2014-11-28T14:28:06Z</time>
      </trkpt>
      <trkpt lat="44.97816" lon="1.05418">
        <ele>64.789</ele>
        <time>2014-11-28T14:28:09Z</time>
      </trkpt>
      <trkpt lat="44.97843" lon="1.05376">
        <ele>64.324</ele>
        <time>2014-11-28T14:28:15Z</time>
      </trkpt>
      <trkpt lat="44.97869" lon="1.05392">
        <ele>62.287</ele>
        <time>2014-11-28T14:28:25Z</time>
      </trkpt>
      <trkpt lat="44.97878" lon="1.05398">
        <ele>62.189</ele>
        <time>2014-11-28T14:28:28Z</time>
      </trkpt>
      <trkpt lat="44.97893" lon="1.05407">
        <ele>61.526</ele>
        <time>2014-11-28T14:28:31Z</time>
      </trkpt>
      <trkpt lat="44.97902" lon="1.05412">
        <ele>60.939</ele>
        <time>2014-11-28T14:28:33Z</time>
      </trkpt>
      <trkpt lat="44.97907" lon="1.05416">
        <ele>61.045</ele>
        <time>2014-11-28T14:28:35Z</time>
      </trkpt>
      <trkpt lat="44.97923" lon="1.05426">
        <ele>61.204</ele>
        <time>2014-11-28T14:28:41Z</time>
      </trkpt>
      <trkpt lat="44.97919" lon="1.05414">
        <ele>62.578</ele>
        <time>2014-11-28T14:28:49Z</time>
      </trkpt>
      <trkpt lat="44.9787" lon="1.05393">
        <ele>62.805</ele>
        <time>2014-11-28T14:29:02Z</time>
      </trkpt>
      <trkpt lat="44.97839" lon="1.05374">
        <ele>64.234</ele>
        <time>2014-11-28T14:29:12Z</time>
      </trkpt>
      <trkpt lat="44.9781" lon="1.05356">
        <ele>65.54</ele>
        <time>2014-11-28T14:29:21Z</time>
      </trkpt>
      <trkpt lat="44.97774" lon="1.05329">
        <ele>67.611</ele>
        <time>2014-11-28T14:29:34Z</time>
      </trkpt>
      <trkpt lat="44.97736" lon="1.05279">
        <ele>70.998</ele>
        <time>2014-11-28T14:29:52Z</time>
      </trkpt>
      <trkpt lat="44.9771" lon="1.05233">
        <ele>73.014</ele>
        <time>2014-11-28T14:30:07Z</time>
      </trkpt>
      <trkpt lat="44.97692" lon="1.05191">
        <ele>75.061</ele>
        <time>2014-11-28T14:30:20Z</time>
      </trkpt>
      <trkpt lat="44.9768" lon="1.05147">
        <ele>76.064</ele>
        <time>2014-11-28T14:30:31Z</time>
      </trkpt>
      <trkpt lat="44.9767" lon="1.05082">
        <ele>77.353</ele>
        <time>2014-11-28T14:30:42Z</time>
      </trkpt>
      <trkpt lat="44.97664" lon="1.05017">
        <ele>78.171</ele>
        <time>2014-11-28T14:30:53Z</time>
      </trkpt>
      <trkpt lat="44.97657" lon="1.04955">
        <ele>77.748</ele>
        <time>2014-11-28T14:31:02Z</time>
      </trkpt>
      <trkpt lat="44.97651" lon="1.04906">
        <ele>77.035</ele>
        <time>2014-11-28T14:31:09Z</time>
      </trkpt>
      <trkpt lat="44.97647" lon="1.04835">
        <ele>75.927</ele>
        <time>2014-11-28T14:31:18Z</time>
      </trkpt>
      <trkpt lat="44.97643" lon="1.04772">
        <ele>75.338</ele>
        <time>2014-11-28T14:31:26Z</time>
      </trkpt>
      <trkpt lat="44.97642" lon="1.04748">
        <ele>74.63</ele>
        <time>2014-11-28T14:31:29Z</time>
      </trkpt>
      <trkpt lat="44.97636" lon="1.0467">
        <ele>72.905</ele>
        <time>2014-11-28T14:31:38Z</time>
      </trkpt>
      <trkpt lat="44.97632" lon="1.04632">
        <ele>71.855</ele>
        <time>2014-11-28T14:31:42Z</time>
      </trkpt>
      <trkpt lat="44.97659" lon="1.04609">
        <ele>70.113</ele>
        <time>2014-11-28T14:31:47Z</time>
      </trkpt>
      <trkpt lat="44.9777" lon="1.04616">
        <ele>65.873</ele>
        <time>2014-11-28T14:32:06Z</time>
      </trkpt>
      <trkpt lat="44.97848" lon="1.04626">
        <ele>64.101</ele>
        <time>2014-11-28T14:32:19Z</time>
      </trkpt>
      <trkpt lat="44.97883" lon="1.0458">
        <ele>65.725</ele>
        <time>2014-11-28T14:32:32Z</time>
      </trkpt>
      <trkpt lat="44.97888" lon="1.04529">
        <ele>67.551</ele>
        <time>2014-11-28T14:32:43Z</time>
      </trkpt>
      <trkpt lat="44.97891" lon="1.04423">
        <ele>67.35</ele>
        <time>2014-11-28T14:32:59Z</time>
      </trkpt>
      <trkpt lat="44.97891" lon="1.04409">
        <ele>65.964</ele>
        <time>2014-11-28T14:33:01Z</time>
      </trkpt>
      <trkpt lat="44.97893" lon="1.04347">
        <ele>66.775</ele>
        <time>2014-11-28T14:33:10Z</time>
      </trkpt>
      <trkpt lat="44.97893" lon="1.04236">
        <ele>64.1</ele>
        <time>2014-11-28T14:33:24Z</time>
      </trkpt>
      <trkpt lat="44.97886" lon="1.04108">
        <ele>64.231</ele>
        <time>2014-11-28T14:33:41Z</time>
      </trkpt>
      <trkpt lat="44.97882" lon="1.04086">
        <ele>64.63</ele>
        <time>2014-11-28T14:33:45Z</time>
      </trkpt>
      <trkpt lat="44.9786" lon="1.03993">
        <ele>63.696</ele>
        <time>2014-11-28T14:33:58Z</time>
      </trkpt>
      <trkpt lat="44.97859" lon="1.03979">
        <ele>63.688</ele>
        <time>2014-11-28T14:34:00Z</time>
      </trkpt>
      <trkpt lat="44.97856" lon="1.03857">
        <ele>60.787</ele>
        <time>2014-11-28T14:34:14Z</time>
      </trkpt>
      <trkpt lat="44.97826" lon="1.03742">
        <ele>61.856</ele>
        <time>2014-11-28T14:34:29Z</time>
      </trkpt>
      <trkpt lat="44.9775" lon="1.03599">
        <ele>61.604</ele>
        <time>2014-11-28T14:34:53Z</time>
      </trkpt>
      <trkpt lat="44.97692" lon="1.03538">
        <ele>60.529</ele>
        <time>2014-11-28T14:35:10Z</time>
      </trkpt>
      <trkpt lat="44.97617" lon="1.03475">
        <ele>59.306</ele>
        <time>2014-11-28T14:35:28Z</time>
      </trkpt>
      <trkpt lat="44.97598" lon="1.03459">
        <ele>61.564</ele>
        <time>2014-11-28T14:35:39Z</time>
      </trkpt>
      <trkpt lat="44.97598" lon="1.03459">
        <ele>59.675</ele>
        <time>2014-11-28T14:36:02Z</time>
      </trkpt>
      <trkpt lat="44.97598" lon="1.03459">
        <ele>59.263</ele>
        <time>2014-11-28T14:36:48Z</time>
      </trkpt>
      <trkpt lat="44.97598" lon="1.03459">
        <ele>59.636</ele>
        <time>2014-11-28T14:38:02Z</time>
      </trkpt>
      <trkpt lat="44.97598" lon="1.03459">
        <ele>58.224</ele>
        <time>2014-11-28T14:40:00Z</time>
      </trkpt>
      <trkpt lat="44.97592" lon="1.03459">
        <ele>59.207</ele>
        <time>2014-11-28T14:40:10Z</time>
      </trkpt>
      <trkpt lat="44.97592" lon="1.03458">
        <ele>60.192</ele>
        <time>2014-11-28T14:40:31Z</time>
      </trkpt>
      <trkpt lat="44.97548" lon="1.03421">
        <ele>61.054</ele>
        <time>2014-11-28T14:40:49Z</time>
      </trkpt>
      <trkpt lat="44.97516" lon="1.03397">
        <ele>64.139</ele>
        <time>2014-11-28T14:41:04Z</time>
      </trkpt>
      <trkpt lat="44.97497" lon="1.0338">
        <ele>67.177</ele>
        <time>2014-11-28T14:41:15Z</time>
      </trkpt>
      <trkpt lat="44.97465" lon="1.03351">
        <ele>70.427</ele>
        <time>2014-11-28T14:41:34Z</time>
      </trkpt>
      <trkpt lat="44.97444" lon="1.03337">
        <ele>73.507</ele>
        <time>2014-11-28T14:41:47Z</time>
      </trkpt>
      <trkpt lat="44.97439" lon="1.03332">
        <ele>74.731</ele>
        <time>2014-11-28T14:41:51Z</time>
      </trkpt>
      <trkpt lat="44.97416" lon="1.03317">
        <ele>77.911</ele>
        <time>2014-11-28T14:42:06Z</time>
      </trkpt>
      <trkpt lat="44.97412" lon="1.03314">
        <ele>78.074</ele>
        <time>2014-11-28T14:42:09Z</time>
      </trkpt>
      <trkpt lat="44.97406" lon="1.03309">
        <ele>79.268</ele>
        <time>2014-11-28T14:42:13Z</time>
      </trkpt>
      <trkpt lat="44.97375" lon="1.03292">
        <ele>82.042</ele>
        <time>2014-11-28T14:42:30Z</time>
      </trkpt>
      <trkpt lat="44.97345" lon="1.03277">
        <ele>84.529</ele>
        <time>2014-11-28T14:42:45Z</time>
      </trkpt>
      <trkpt lat="44.97333" lon="1.0327">
        <ele>85.431</ele>
        <time>2014-11-28T14:42:51Z</time>
      </trkpt>
      <trkpt lat="44.97327" lon="1.03265">
        <ele>86.134</ele>
        <time>2014-11-28T14:42:55Z</time>
      </trkpt>
      <trkpt lat="44.97297" lon="1.03251">
        <ele>89.05</ele>
        <time>2014-11-28T14:43:10Z</time>
      </trkpt>
      <trkpt lat="44.97271" lon="1.03242">
        <ele>92.086</ele>
        <time>2014-11-28T14:43:22Z</time>
      </trkpt>
      <trkpt lat="44.97242" lon="1.03232">
        <ele>94.798</ele>
        <time>2014-11-28T14:43:37Z</time>
      </trkpt>
      <trkpt lat="44.97214" lon="1.03229">
        <ele>97.795</ele>
        <time>2014-11-28T14:43:51Z</time>
      </trkpt>
      <trkpt lat="44.97188" lon="1.03229">
        <ele>97.01</ele>
        <time>2014-11-28T14:44:02Z</time>
      </trkpt>
      <trkpt lat="44.97153" lon="1.03229">
        <ele>95.829</ele>
        <time>2014-11-28T14:44:12Z</time>
      </trkpt>
      <trkpt lat="44.97117" lon="1.03199">
        <ele>93.976</ele>
        <time>2014-11-28T14:44:19Z</time>
      </trkpt>
      <trkpt lat="44.97105" lon="1.03155">
        <ele>94.138</ele>
        <time>2014-11-28T14:44:30Z</time>
      </trkpt>
      <trkpt lat="44.97105" lon="1.0315">
        <ele>95.152</ele>
        <time>2014-11-28T14:44:32Z</time>
      </trkpt>
      <trkpt lat="44.97082" lon="1.03131">
        <ele>98.622</ele>
        <time>2014-11-28T14:44:44Z</time>
      </trkpt>
      <trkpt lat="44.97066" lon="1.03095">
        <ele>102.041</ele>
        <time>2014-11-28T14:44:59Z</time>
      </trkpt>
      <trkpt lat="44.97065" lon="1.03091">
        <ele>102.959</ele>
        <time>2014-11-28T14:45:01Z</time>
      </trkpt>
      <trkpt lat="44.97059" lon="1.03077">
        <ele>104.71</ele>
        <time>2014-11-28T14:45:07Z</time>
      </trkpt>
      <trkpt lat="44.97056" lon="1.03071">
        <ele>105.327</ele>
        <time>2014-11-28T14:45:10Z</time>
      </trkpt>
      <trkpt lat="44.97043" lon="1.03031">
        <ele>106.552</ele>
        <time>2014-11-28T14:45:26Z</time>
      </trkpt>
      <trkpt lat="44.97043" lon="1.03001">
        <ele>107.307</ele>
        <time>2014-11-28T14:45:34Z</time>
      </trkpt>
      <trkpt lat="44.97085" lon="1.0296">
        <ele>105.708</ele>
        <time>2014-11-28T14:45:49Z</time>
      </trkpt>
      <trkpt lat="44.9711" lon="1.02914">
        <ele>104.265</ele>
        <time>2014-11-28T14:45:58Z</time>
      </trkpt>
      <trkpt lat="44.97128" lon="1.02867">
        <ele>101.415</ele>
        <time>2014-11-28T14:46:06Z</time>
      </trkpt>
      <trkpt lat="44.97133" lon="1.02851">
        <ele>100.988</ele>
        <time>2014-11-28T14:46:08Z</time>
      </trkpt>
      <trkpt lat="44.97136" lon="1.02824">
        <ele>100.012</ele>
        <time>2014-11-28T14:46:11Z</time>
      </trkpt>
      <trkpt lat="44.9714" lon="1.02791">
        <ele>96.368</ele>
        <time>2014-11-28T14:46:14Z</time>
      </trkpt>
      <trkpt lat="44.97142" lon="1.02779">
        <ele>96.376</ele>
        <time>2014-11-28T14:46:15Z</time>
      </trkpt>
      <trkpt lat="44.97148" lon="1.02755">
        <ele>94.243</ele>
        <time>2014-11-28T14:46:17Z</time>
      </trkpt>
      <trkpt lat="44.97151" lon="1.02742">
        <ele>94.243</ele>
        <time>2014-11-28T14:46:18Z</time>
      </trkpt>
      <trkpt lat="44.97164" lon="1.02697">
        <ele>88.717</ele>
        <time>2014-11-28T14:46:21Z</time>
      </trkpt>
      <trkpt lat="44.97169" lon="1.02685">
        <ele>88.724</ele>
        <time>2014-11-28T14:46:22Z</time>
      </trkpt>
      <trkpt lat="44.97184" lon="1.02647">
        <ele>85.684</ele>
        <time>2014-11-28T14:46:25Z</time>
      </trkpt>
      <trkpt lat="44.97185" lon="1.02644">
        <ele>85.688</ele>
        <time>2014-11-28T14:46:26Z</time>
      </trkpt>
      <trkpt lat="44.97224" lon="1.02619">
        <ele>80.111</ele>
        <time>2014-11-28T14:46:29Z</time>
      </trkpt>
      <trkpt lat="44.97261" lon="1.0257">
        <ele>76.395</ele>
        <time>2014-11-28T14:46:35Z</time>
      </trkpt>
      <trkpt lat="44.97265" lon="1.02563">
        <ele>74.185</ele>
        <time>2014-11-28T14:46:38Z</time>
      </trkpt>
      <trkpt lat="44.97265" lon="1.02565">
        <ele>73.081</ele>
        <time>2014-11-28T14:46:39Z</time>
      </trkpt>
      <trkpt lat="44.97262" lon="1.02576">
        <ele>71.606</ele>
        <time>2014-11-28T14:46:43Z</time>
      </trkpt>
      <trkpt lat="44.97262" lon="1.0259">
        <ele>70.483</ele>
        <time>2014-11-28T14:46:47Z</time>
      </trkpt>
      <trkpt lat="44.97244" lon="1.02607">
        <ele>69.573</ele>
        <time>2014-11-28T14:46:53Z</time>
      </trkpt>
      <trkpt lat="44.97227" lon="1.02621">
        <ele>69.554</ele>
        <time>2014-11-28T14:46:57Z</time>
      </trkpt>
      <trkpt lat="44.97218" lon="1.02632">
        <ele>69.297</ele>
        <time>2014-11-28T14:47:01Z</time>
      </trkpt>
      <trkpt lat="44.97184" lon="1.02642">
        <ele>68.284</ele>
        <time>2014-11-28T14:47:04Z</time>
      </trkpt>
      <trkpt lat="44.97163" lon="1.02584">
        <ele>68.517</ele>
        <time>2014-11-28T14:47:14Z</time>
      </trkpt>
      <trkpt lat="44.97162" lon="1.0258">
        <ele>68.534</ele>
        <time>2014-11-28T14:47:15Z</time>
      </trkpt>
      <trkpt lat="44.97153" lon="1.0255">
        <ele>70.202</ele>
        <time>2014-11-28T14:47:25Z</time>
      </trkpt>
      <trkpt lat="44.97145" lon="1.02522">
        <ele>71.542</ele>
        <time>2014-11-28T14:47:35Z</time>
      </trkpt>
      <trkpt lat="44.97143" lon="1.02516">
        <ele>71.653</ele>
        <time>2014-11-28T14:47:38Z</time>
      </trkpt>
      <trkpt lat="44.97136" lon="1.02489">
        <ele>74.144</ele>
        <time>2014-11-28T14:47:49Z</time>
      </trkpt>
      <trkpt lat="44.97129" lon="1.02462">
        <ele>76.48</ele>
        <time>2014-11-28T14:48:00Z</time>
      </trkpt>
      <trkpt lat="44.97123" lon="1.02426">
        <ele>78.799</ele>
        <time>2014-11-28T14:48:14Z</time>
      </trkpt>
      <trkpt lat="44.97122" lon="1.02418">
        <ele>79.943</ele>
        <time>2014-11-28T14:48:17Z</time>
      </trkpt>
      <trkpt lat="44.97121" lon="1.0241">
        <ele>80.149</ele>
        <time>2014-11-28T14:48:19Z</time>
      </trkpt>
      <trkpt lat="44.9712" lon="1.02388">
        <ele>81.106</ele>
        <time>2014-11-28T14:48:28Z</time>
      </trkpt>
      <trkpt lat="44.97119" lon="1.02363">
        <ele>82.484</ele>
        <time>2014-11-28T14:48:38Z</time>
      </trkpt>
      <trkpt lat="44.97122" lon="1.0235">
        <ele>84.09</ele>
        <time>2014-11-28T14:48:46Z</time>
      </trkpt>
      <trkpt lat="44.97132" lon="1.02316">
        <ele>85.235</ele>
        <time>2014-11-28T14:48:57Z</time>
      </trkpt>
      <trkpt lat="44.97132" lon="1.02316">
        <ele>85.679</ele>
        <time>2014-11-28T14:48:59Z</time>
      </trkpt>
      <trkpt lat="44.97136" lon="1.02308">
        <ele>89.057</ele>
        <time>2014-11-28T14:49:12Z</time>
      </trkpt>
      <trkpt lat="44.97161" lon="1.02267">
        <ele>89.621</ele>
        <time>2014-11-28T14:49:24Z</time>
      </trkpt>
      <trkpt lat="44.97174" lon="1.02253">
        <ele>90.438</ele>
        <time>2014-11-28T14:49:34Z</time>
      </trkpt>
      <trkpt lat="44.97181" lon="1.02245">
        <ele>90.671</ele>
        <time>2014-11-28T14:49:37Z</time>
      </trkpt>
      <trkpt lat="44.97184" lon="1.02242">
        <ele>90.913</ele>
        <time>2014-11-28T14:49:39Z</time>
      </trkpt>
      <trkpt lat="44.97186" lon="1.02239">
        <ele>91.159</ele>
        <time>2014-11-28T14:49:41Z</time>
      </trkpt>
      <trkpt lat="44.9722" lon="1.02208">
        <ele>94.242</ele>
        <time>2014-11-28T14:49:57Z</time>
      </trkpt>
      <trkpt lat="44.97224" lon="1.02206">
        <ele>94.21</ele>
        <time>2014-11-28T14:49:59Z</time>
      </trkpt>
      <trkpt lat="44.97247" lon="1.02195">
        <ele>95.814</ele>
        <time>2014-11-28T14:50:11Z</time>
      </trkpt>
      <trkpt lat="44.97258" lon="1.02189">
        <ele>96.956</ele>
        <time>2014-11-28T14:50:16Z</time>
      </trkpt>
      <trkpt lat="44.97287" lon="1.02175">
        <ele>98.326</ele>
        <time>2014-11-28T14:50:27Z</time>
      </trkpt>
      <trkpt lat="44.97308" lon="1.02165">
        <ele>100.505</ele>
        <time>2014-11-28T14:50:39Z</time>
      </trkpt>
      <trkpt lat="44.97311" lon="1.02163">
        <ele>101.233</ele>
        <time>2014-11-28T14:50:40Z</time>
      </trkpt>
      <trkpt lat="44.97311" lon="1.02163">
        <ele>102.41</ele>
        <time>2014-11-28T14:50:44Z</time>
      </trkpt>
      <trkpt lat="44.97321" lon="1.02156">
        <ele>103.396</ele>
        <time>2014-11-28T14:50:49Z</time>
      </trkpt>
      <trkpt lat="44.97322" lon="1.02155">
        <ele>104.041</ele>
        <time>2014-11-28T14:50:53Z</time>
      </trkpt>
      <trkpt lat="44.97328" lon="1.02147">
        <ele>105.376</ele>
        <time>2014-11-28T14:50:57Z</time>
      </trkpt>
      <trkpt lat="44.97328" lon="1.02147">
        <ele>105.899</ele>
        <time>2014-11-28T14:51:06Z</time>
      </trkpt>
      <trkpt lat="44.97341" lon="1.02123">
        <ele>107.409</ele>
        <time>2014-11-28T14:51:18Z</time>
      </trkpt>
      <trkpt lat="44.97341" lon="1.02123">
        <ele>107.677</ele>
        <time>2014-11-28T14:51:20Z</time>
      </trkpt>
      <trkpt lat="44.97353" lon="1.02104">
        <ele>110.594</ele>
        <time>2014-11-28T14:51:33Z</time>
      </trkpt>
      <trkpt lat="44.97373" lon="1.0208">
        <ele>113.646</ele>
        <time>2014-11-28T14:51:50Z</time>
      </trkpt>
      <trkpt lat="44.97383" lon="1.02062">
        <ele>115.304</ele>
        <time>2014-11-28T14:52:07Z</time>
      </trkpt>
      <trkpt lat="44.97402" lon="1.02019">
        <ele>117.507</ele>
        <time>2014-11-28T14:52:24Z</time>
      </trkpt>
      <trkpt lat="44.97427" lon="1.01975">
        <ele>119.885</ele>
        <time>2014-11-28T14:52:45Z</time>
      </trkpt>
      <trkpt lat="44.9744" lon="1.01954">
        <ele>121.081</ele>
        <time>2014-11-28T14:52:59Z</time>
      </trkpt>
      <trkpt lat="44.9745" lon="1.01895">
        <ele>119.337</ele>
        <time>2014-11-28T14:53:12Z</time>
      </trkpt>
      <trkpt lat="44.97419" lon="1.01849">
        <ele>119.325</ele>
        <time>2014-11-28T14:53:24Z</time>
      </trkpt>
      <trkpt lat="44.97408" lon="1.01841">
        <ele>119.961</ele>
        <time>2014-11-28T14:53:33Z</time>
      </trkpt>
      <trkpt lat="44.97393" lon="1.01808">
        <ele>122.993</ele>
        <time>2014-11-28T14:53:52Z</time>
      </trkpt>
      <trkpt lat="44.9739" lon="1.01793">
        <ele>123.946</ele>
        <time>2014-11-28T14:54:00Z</time>
      </trkpt>
      <trkpt lat="44.97391" lon="1.01757">
        <ele>127.462</ele>
        <time>2014-11-28T14:54:15Z</time>
      </trkpt>
      <trkpt lat="44.97394" lon="1.01716">
        <ele>130.673</ele>
        <time>2014-11-28T14:54:36Z</time>
      </trkpt>
      <trkpt lat="44.97389" lon="1.01689">
        <ele>132.497</ele>
        <time>2014-11-28T14:54:50Z</time>
      </trkpt>
      <trkpt lat="44.97387" lon="1.01681">
        <ele>133.204</ele>
        <time>2014-11-28T14:54:54Z</time>
      </trkpt>
      <trkpt lat="44.97385" lon="1.01675">
        <ele>133.323</ele>
        <time>2014-11-28T14:54:57Z</time>
      </trkpt>
      <trkpt lat="44.97383" lon="1.01668">
        <ele>133.923</ele>
        <time>2014-11-28T14:55:01Z</time>
      </trkpt>
      <trkpt lat="44.97383" lon="1.01666">
        <ele>135.032</ele>
        <time>2014-11-28T14:55:11Z</time>
      </trkpt>
      <trkpt lat="44.97379" lon="1.0165">
        <ele>135.323</ele>
        <time>2014-11-28T14:55:19Z</time>
      </trkpt>
      <trkpt lat="44.97371" lon="1.01624">
        <ele>136.368</ele>
        <time>2014-11-28T14:55:32Z</time>
      </trkpt>
      <trkpt lat="44.97368" lon="1.01615">
        <ele>136.92</ele>
        <time>2014-11-28T14:55:37Z</time>
      </trkpt>
      <trkpt lat="44.97366" lon="1.01609">
        <ele>139.406</ele>
        <time>2014-11-28T14:55:53Z</time>
      </trkpt>
      <trkpt lat="44.97355" lon="1.01568">
        <ele>142.41</ele>
        <time>2014-11-28T14:56:06Z</time>
      </trkpt>
      <trkpt lat="44.97353" lon="1.01556">
        <ele>142.553</ele>
        <time>2014-11-28T14:56:10Z</time>
      </trkpt>
      <trkpt lat="44.97353" lon="1.01554">
        <ele>143.079</ele>
        <time>2014-11-28T14:56:12Z</time>
      </trkpt>
      <trkpt lat="44.97342" lon="1.01519">
        <ele>144.425</ele>
        <time>2014-11-28T14:56:31Z</time>
      </trkpt>
      <trkpt lat="44.97338" lon="1.01507">
        <ele>145.119</ele>
        <time>2014-11-28T14:56:38Z</time>
      </trkpt>
      <trkpt lat="44.97333" lon="1.01495">
        <ele>145.759</ele>
        <time>2014-11-28T14:56:45Z</time>
      </trkpt>
      <trkpt lat="44.97333" lon="1.01495">
        <ele>146.162</ele>
        <time>2014-11-28T14:56:47Z</time>
      </trkpt>
      <trkpt lat="44.97332" lon="1.01491">
        <ele>147.353</ele>
        <time>2014-11-28T14:56:56Z</time>
      </trkpt>
      <trkpt lat="44.97326" lon="1.01477">
        <ele>148.015</ele>
        <time>2014-11-28T14:56:59Z</time>
      </trkpt>
      <trkpt lat="44.97319" lon="1.01458">
        <ele>149.264</ele>
        <time>2014-11-28T14:57:13Z</time>
      </trkpt>
      <trkpt lat="44.97319" lon="1.01458">
        <ele>152.482</ele>
        <time>2014-11-28T14:57:27Z</time>
      </trkpt>
      <trkpt lat="44.9731" lon="1.01421">
        <ele>153.357</ele>
        <time>2014-11-28T14:57:33Z</time>
      </trkpt>
      <trkpt lat="44.97308" lon="1.01401">
        <ele>154.582</ele>
        <time>2014-11-28T14:57:45Z</time>
      </trkpt>
      <trkpt lat="44.97308" lon="1.01399">
        <ele>154.529</ele>
        <time>2014-11-28T14:57:48Z</time>
      </trkpt>
      <trkpt lat="44.97308" lon="1.01394">
        <ele>155.891</ele>
        <time>2014-11-28T14:57:52Z</time>
      </trkpt>
      <trkpt lat="44.97308" lon="1.01389">
        <ele>157.18</ele>
        <time>2014-11-28T14:58:02Z</time>
      </trkpt>
      <trkpt lat="44.97308" lon="1.01389">
        <ele>157.989</ele>
        <time>2014-11-28T14:58:06Z</time>
      </trkpt>
      <trkpt lat="44.97308" lon="1.01389">
        <ele>161.473</ele>
        <time>2014-11-28T14:58:28Z</time>
      </trkpt>
      <trkpt lat="44.97308" lon="1.01389">
        <ele>162.741</ele>
        <time>2014-11-28T14:58:40Z</time>
      </trkpt>
      <trkpt lat="44.97308" lon="1.01389">
        <ele>163.415</ele>
        <time>2014-11-28T14:58:44Z</time>
      </trkpt>
      <trkpt lat="44.97272" lon="1.01305">
        <ele>166.239</ele>
        <time>2014-11-28T14:58:56Z</time>
      </trkpt>
      <trkpt lat="44.97258" lon="1.01303">
        <ele>168.328</ele>
        <time>2014-11-28T14:59:07Z</time>
      </trkpt>
      <trkpt lat="44.97241" lon="1.01305">
        <ele>169.494</ele>
        <time>2014-11-28T14:59:25Z</time>
      </trkpt>
      <trkpt lat="44.97241" lon="1.01305">
        <ele>169.747</ele>
        <time>2014-11-28T14:59:26Z</time>
      </trkpt>
      <trkpt lat="44.97219" lon="1.01336">
        <ele>172.495</ele>
        <time>2014-11-28T14:59:45Z</time>
      </trkpt>
      <trkpt lat="44.97219" lon="1.01343">
        <ele>173.984</ele>
        <time>2014-11-28T14:59:49Z</time>
      </trkpt>
      <trkpt lat="44.97219" lon="1.01344">
        <ele>174.399</ele>
        <time>2014-11-28T14:59:51Z</time>
      </trkpt>
      <trkpt lat="44.97219" lon="1.01351">
        <ele>175.333</ele>
        <time>2014-11-28T14:59:55Z</time>
      </trkpt>
      <trkpt lat="44.97211" lon="1.01366">
        <ele>177.077</ele>
        <time>2014-11-28T15:00:12Z</time>
      </trkpt>
      <trkpt lat="44.97188" lon="1.01348">
        <ele>179.147</ele>
        <time>2014-11-28T15:00:30Z</time>
      </trkpt>
      <trkpt lat="44.97169" lon="1.01325">
        <ele>181.305</ele>
        <time>2014-11-28T15:00:46Z</time>
      </trkpt>
      <trkpt lat="44.97151" lon="1.01299">
        <ele>184.314</ele>
        <time>2014-11-28T15:01:00Z</time>
      </trkpt>
      <trkpt lat="44.97137" lon="1.01268">
        <ele>185.964</ele>
        <time>2014-11-28T15:01:16Z</time>
      </trkpt>
      <trkpt lat="44.97105" lon="1.01241">
        <ele>188.69</ele>
        <time>2014-11-28T15:01:38Z</time>
      </trkpt>
      <trkpt lat="44.97101" lon="1.01221">
        <ele>187.878</ele>
        <time>2014-11-28T15:01:48Z</time>
      </trkpt>
      <trkpt lat="44.97101" lon="1.01221">
        <ele>186.943</ele>
        <time>2014-11-28T15:02:09Z</time>
      </trkpt>
      <trkpt lat="44.97101" lon="1.01221">
        <ele>186.117</ele>
        <time>2014-11-28T15:02:24Z</time>
      </trkpt>
      <trkpt lat="44.97101" lon="1.01221">
        <ele>186.912</ele>
        <time>2014-11-28T15:02:53Z</time>
      </trkpt>
      <trkpt lat="44.97101" lon="1.01221">
        <ele>188.069</ele>
        <time>2014-11-28T15:03:07Z</time>
      </trkpt>
      <trkpt lat="44.97101" lon="1.01221">
        <ele>185.496</ele>
        <time>2014-11-28T15:03:11Z</time>
      </trkpt>
      <trkpt lat="44.97101" lon="1.01221">
        <ele>187.572</ele>
        <time>2014-11-28T15:03:16Z</time>
      </trkpt>
      <trkpt lat="44.97101" lon="1.01221">
        <ele>189.224</ele>
        <time>2014-11-28T15:03:28Z</time>
      </trkpt>
      <trkpt lat="44.97101" lon="1.01221">
        <ele>189.219</ele>
        <time>2014-11-28T15:03:30Z</time>
      </trkpt>
      <trkpt lat="44.97074" lon="1.01227">
        <ele>191.163</ele>
        <time>2014-11-28T15:03:39Z</time>
      </trkpt>
      <trkpt lat="44.97063" lon="1.01233">
        <ele>187.898</ele>
        <time>2014-11-28T15:03:43Z</time>
      </trkpt>
      <trkpt lat="44.9702" lon="1.01263">
        <ele>190.458</ele>
        <time>2014-11-28T15:04:02Z</time>
      </trkpt>
      <trkpt lat="44.96982" lon="1.01284">
        <ele>193.504</ele>
        <time>2014-11-28T15:04:20Z</time>
      </trkpt>
      <trkpt lat="44.9698" lon="1.01285">
        <ele>193.502</ele>
        <time>2014-11-28T15:04:21Z</time>
      </trkpt>
      <trkpt lat="44.96978" lon="1.01286">
        <ele>193.809</ele>
        <time>2014-11-28T15:04:22Z</time>
      </trkpt>
      <trkpt lat="44.96949" lon="1.01301">
        <ele>194.986</ele>
        <time>2014-11-28T15:04:37Z</time>
      </trkpt>
      <trkpt lat="44.96946" lon="1.01303">
        <ele>196.565</ele>
        <time>2014-11-28T15:04:42Z</time>
      </trkpt>
      <trkpt lat="44.96919" lon="1.01319">
        <ele>197.378</ele>
        <time>2014-11-28T15:04:53Z</time>
      </trkpt>
      <trkpt lat="44.96893" lon="1.01336">
        <ele>200.182</ele>
        <time>2014-11-28T15:05:06Z</time>
      </trkpt>
      <trkpt lat="44.96854" lon="1.01361">
        <ele>201.414</ele>
        <time>2014-11-28T15:05:24Z</time>
      </trkpt>
      <trkpt lat="44.96846" lon="1.01366">
        <ele>201.618</ele>
        <time>2014-11-28T15:05:28Z</time>
      </trkpt>
      <trkpt lat="44.96838" lon="1.01371">
        <ele>202.999</ele>
        <time>2014-11-28T15:05:35Z</time>
      </trkpt>
      <trkpt lat="44.96808" lon="1.01388">
        <ele>203.677</ele>
        <time>2014-11-28T15:05:46Z</time>
      </trkpt>
      <trkpt lat="44.96773" lon="1.01395">
        <ele>203.834</ele>
        <time>2014-11-28T15:05:57Z</time>
      </trkpt>
      <trkpt lat="44.96706" lon="1.01401">
        <ele>205.664</ele>
        <time>2014-11-28T15:06:15Z</time>
      </trkpt>
      <trkpt lat="44.96655" lon="1.01425">
        <ele>204.183</ele>
        <time>2014-11-28T15:06:31Z</time>
      </trkpt>
      <trkpt lat="44.96622" lon="1.01463">
        <ele>204.133</ele>
        <time>2014-11-28T15:06:43Z</time>
      </trkpt>
      <trkpt lat="44.96597" lon="1.01496">
        <ele>203.391</ele>
        <time>2014-11-28T15:06:51Z</time>
      </trkpt>
      <trkpt lat="44.96587" lon="1.01509">
        <ele>201.611</ele>
        <time>2014-11-28T15:06:54Z</time>
      </trkpt>
      <trkpt lat="44.96562" lon="1.0153">
        <ele>200.525</ele>
        <time>2014-11-28T15:07:05Z</time>
      </trkpt>
      <trkpt lat="44.96534" lon="1.01568">
        <ele>199.115</ele>
        <time>2014-11-28T15:07:14Z</time>
      </trkpt>
      <trkpt lat="44.96531" lon="1.01573">
        <ele>198.124</ele>
        <time>2014-11-28T15:07:15Z</time>
      </trkpt>
      <trkpt lat="44.96524" lon="1.01583">
        <ele>197.347</ele>
        <time>2014-11-28T15:07:17Z</time>
      </trkpt>
      <trkpt lat="44.96475" lon="1.01629">
        <ele>198.791</ele>
        <time>2014-11-28T15:07:30Z</time>
      </trkpt>
      <trkpt lat="44.96455" lon="1.01639">
        <ele>199.316</ele>
        <time>2014-11-28T15:07:38Z</time>
      </trkpt>
      <trkpt lat="44.96449" lon="1.01641">
        <ele>199.795</ele>
        <time>2014-11-28T15:07:42Z</time>
      </trkpt>
      <trkpt lat="44.96428" lon="1.01649">
        <ele>201.445</ele>
        <time>2014-11-28T15:07:50Z</time>
      </trkpt>
      <trkpt lat="44.96416" lon="1.01636">
        <ele>202.729</ele>
        <time>2014-11-28T15:07:54Z</time>
      </trkpt>
      <trkpt lat="44.96416" lon="1.01635">
        <ele>202.772</ele>
        <time>2014-11-28T15:07:55Z</time>
      </trkpt>
      <trkpt lat="44.96385" lon="1.0163">
        <ele>203.689</ele>
        <time>2014-11-28T15:08:08Z</time>
      </trkpt>
      <trkpt lat="44.96349" lon="1.016">
        <ele>203.518</ele>
        <time>2014-11-28T15:08:21Z</time>
      </trkpt>
      <trkpt lat="44.96347" lon="1.01523">
        <ele>202.825</ele>
        <time>2014-11-28T15:08:37Z</time>
      </trkpt>
      <trkpt lat="44.96346" lon="1.01498">
        <ele>202.618</ele>
        <time>2014-11-28T15:08:44Z</time>
      </trkpt>
      <trkpt lat="44.96346" lon="1.01498">
        <ele>202.219</ele>
        <time>2014-11-28T15:08:49Z</time>
      </trkpt>
      <trkpt lat="44.96346" lon="1.01498">
        <ele>201.721</ele>
        <time>2014-11-28T15:08:51Z</time>
      </trkpt>
      <trkpt lat="44.96344" lon="1.01416">
        <ele>199.734</ele>
        <time>2014-11-28T15:08:56Z</time>
      </trkpt>
      <trkpt lat="44.96343" lon="1.01398">
        <ele>199.301</ele>
        <time>2014-11-28T15:08:58Z</time>
      </trkpt>
      <trkpt lat="44.96341" lon="1.01363">
        <ele>197.877</ele>
        <time>2014-11-28T15:09:02Z</time>
      </trkpt>
      <trkpt lat="44.96335" lon="1.0135">
        <ele>196.49</ele>
        <time>2014-11-28T15:09:04Z</time>
      </trkpt>
      <trkpt lat="44.96326" lon="1.01317">
        <ele>194.326</ele>
        <time>2014-11-28T15:09:08Z</time>
      </trkpt>
      <trkpt lat="44.96324" lon="1.013">
        <ele>192.488</ele>
        <time>2014-11-28T15:09:10Z</time>
      </trkpt>
      <trkpt lat="44.96323" lon="1.01292">
        <ele>190.276</ele>
        <time>2014-11-28T15:09:11Z</time>
      </trkpt>
      <trkpt lat="44.96318" lon="1.01283">
        <ele>188.205</ele>
        <time>2014-11-28T15:09:13Z</time>
      </trkpt>
      <trkpt lat="44.9631" lon="1.01267">
        <ele>185.834</ele>
        <time>2014-11-28T15:09:17Z</time>
      </trkpt>
      <trkpt lat="44.96313" lon="1.01265">
        <ele>184.698</ele>
        <time>2014-11-28T15:09:19Z</time>
      </trkpt>
      <trkpt lat="44.96324" lon="1.01262">
        <ele>184.334</ele>
        <time>2014-11-28T15:09:22Z</time>
      </trkpt>
      <trkpt lat="44.96341" lon="1.01232">
        <ele>181.224</ele>
        <time>2014-11-28T15:09:26Z</time>
      </trkpt>
      <trkpt lat="44.96348" lon="1.01221">
        <ele>179.8</ele>
        <time>2014-11-28T15:09:27Z</time>
      </trkpt>
      <trkpt lat="44.96358" lon="1.01205">
        <ele>178.266</ele>
        <time>2014-11-28T15:09:29Z</time>
      </trkpt>
      <trkpt lat="44.96363" lon="1.01183">
        <ele>176.254</ele>
        <time>2014-11-28T15:09:31Z</time>
      </trkpt>
      <trkpt lat="44.96363" lon="1.01178">
        <ele>173.206</ele>
        <time>2014-11-28T15:09:32Z</time>
      </trkpt>
      <trkpt lat="44.96362" lon="1.01171">
        <ele>173.211</ele>
        <time>2014-11-28T15:09:33Z</time>
      </trkpt>
      <trkpt lat="44.96361" lon="1.01156">
        <ele>167.959</ele>
        <time>2014-11-28T15:09:35Z</time>
      </trkpt>
      <trkpt lat="44.96361" lon="1.01148">
        <ele>167.959</ele>
        <time>2014-11-28T15:09:36Z</time>
      </trkpt>
      <trkpt lat="44.96362" lon="1.01142">
        <ele>165.414</ele>
        <time>2014-11-28T15:09:37Z</time>
      </trkpt>
      <trkpt lat="44.96349" lon="1.01119">
        <ele>162.708</ele>
        <time>2014-11-28T15:09:40Z</time>
      </trkpt>
      <trkpt lat="44.96338" lon="1.01117">
        <ele>154.824</ele>
        <time>2014-11-28T15:09:42Z</time>
      </trkpt>
      <trkpt lat="44.96334" lon="1.01116">
        <ele>154.824</ele>
        <time>2014-11-28T15:09:43Z</time>
      </trkpt>
      <trkpt lat="44.96327" lon="1.01114">
        <ele>152.58</ele>
        <time>2014-11-28T15:09:44Z</time>
      </trkpt>
      <trkpt lat="44.96312" lon="1.011">
        <ele>149.658</ele>
        <time>2014-11-28T15:09:47Z</time>
      </trkpt>
      <trkpt lat="44.96307" lon="1.01092">
        <ele>147.695</ele>
        <time>2014-11-28T15:09:48Z</time>
      </trkpt>
      <trkpt lat="44.96296" lon="1.01068">
        <ele>145.19</ele>
        <time>2014-11-28T15:09:50Z</time>
      </trkpt>
      <trkpt lat="44.96292" lon="1.01056">
        <ele>141.937</ele>
        <time>2014-11-28T15:09:51Z</time>
      </trkpt>
      <trkpt lat="44.9629" lon="1.01042">
        <ele>141.937</ele>
        <time>2014-11-28T15:09:52Z</time>
      </trkpt>
      <trkpt lat="44.96283" lon="1.01012">
        <ele>139.852</ele>
        <time>2014-11-28T15:09:54Z</time>
      </trkpt>
      <trkpt lat="44.96277" lon="1.00987">
        <ele>136.198</ele>
        <time>2014-11-28T15:09:56Z</time>
      </trkpt>
      <trkpt lat="44.96273" lon="1.00973">
        <ele>136.198</ele>
        <time>2014-11-28T15:09:57Z</time>
      </trkpt>
      <trkpt lat="44.96248" lon="1.00912">
        <ele>133.344</ele>
        <time>2014-11-28T15:10:03Z</time>
      </trkpt>
      <trkpt lat="44.96233" lon="1.00884">
        <ele>131.246</ele>
        <time>2014-11-28T15:10:06Z</time>
      </trkpt>
      <trkpt lat="44.96221" lon="1.00863">
        <ele>129.447</ele>
        <time>2014-11-28T15:10:08Z</time>
      </trkpt>
      <trkpt lat="44.96212" lon="1.00852">
        <ele>127.743</ele>
        <time>2014-11-28T15:10:09Z</time>
      </trkpt>
      <trkpt lat="44.96187" lon="1.00825">
        <ele>124.162</ele>
        <time>2014-11-28T15:10:12Z</time>
      </trkpt>
      <trkpt lat="44.96166" lon="1.00794">
        <ele>120.796</ele>
        <time>2014-11-28T15:10:15Z</time>
      </trkpt>
      <trkpt lat="44.96159" lon="1.0077">
        <ele>117.969</ele>
        <time>2014-11-28T15:10:17Z</time>
      </trkpt>
      <trkpt lat="44.96151" lon="1.00744">
        <ele>116.19</ele>
        <time>2014-11-28T15:10:19Z</time>
      </trkpt>
      <trkpt lat="44.96147" lon="1.00731">
        <ele>113.707</ele>
        <time>2014-11-28T15:10:20Z</time>
      </trkpt>
      <trkpt lat="44.96126" lon="1.00704">
        <ele>108.845</ele>
        <time>2014-11-28T15:10:23Z</time>
      </trkpt>
      <trkpt lat="44.96119" lon="1.00696">
        <ele>108.845</ele>
        <time>2014-11-28T15:10:24Z</time>
      </trkpt>
      <trkpt lat="44.96066" lon="1.00673">
        <ele>104.805</ele>
        <time>2014-11-28T15:10:30Z</time>
      </trkpt>
      <trkpt lat="44.96049" lon="1.00664">
        <ele>101.576</ele>
        <time>2014-11-28T15:10:32Z</time>
      </trkpt>
      <trkpt lat="44.9604" lon="1.00659">
        <ele>101.576</ele>
        <time>2014-11-28T15:10:33Z</time>
      </trkpt>
      <trkpt lat="44.96022" lon="1.00648">
        <ele>98.936</ele>
        <time>2014-11-28T15:10:35Z</time>
      </trkpt>
      <trkpt lat="44.96008" lon="1.0063">
        <ele>96.452</ele>
        <time>2014-11-28T15:10:37Z</time>
      </trkpt>
      <trkpt lat="44.96" lon="1.0062">
        <ele>93.427</ele>
        <time>2014-11-28T15:10:38Z</time>
      </trkpt>
      <trkpt lat="44.95982" lon="1.00599">
        <ele>91.054</ele>
        <time>2014-11-28T15:10:40Z</time>
      </trkpt>
      <trkpt lat="44.95963" lon="1.0058">
        <ele>89.331</ele>
        <time>2014-11-28T15:10:42Z</time>
      </trkpt>
      <trkpt lat="44.95945" lon="1.00564">
        <ele>88.171</ele>
        <time>2014-11-28T15:10:44Z</time>
      </trkpt>
      <trkpt lat="44.95916" lon="1.00544">
        <ele>84.813</ele>
        <time>2014-11-28T15:10:47Z</time>
      </trkpt>
      <trkpt lat="44.95897" lon="1.0053">
        <ele>82.9</ele>
        <time>2014-11-28T15:10:49Z</time>
      </trkpt>
      <trkpt lat="44.95881" lon="1.00509">
        <ele>79.935</ele>
        <time>2014-11-28T15:10:51Z</time>
      </trkpt>
      <trkpt lat="44.95865" lon="1.00491">
        <ele>77.354</ele>
        <time>2014-11-28T15:10:53Z</time>
      </trkpt>
      <trkpt lat="44.95798" lon="1.00434">
        <ele>75.607</ele>
        <time>2014-11-28T15:10:56Z</time>
      </trkpt>
      <trkpt lat="44.95806" lon="1.0047">
        <ele>73.697</ele>
        <time>2014-11-28T15:10:57Z</time>
      </trkpt>
      <trkpt lat="44.958" lon="1.00442">
        <ele>70.803</ele>
        <time>2014-11-28T15:11:00Z</time>
      </trkpt>
      <trkpt lat="44.95798" lon="1.00434">
        <ele>69.45</ele>
        <time>2014-11-28T15:11:02Z</time>
      </trkpt>
      <trkpt lat="44.95798" lon="1.00434">
        <ele>66.959</ele>
        <time>2014-11-28T15:11:05Z</time>
      </trkpt>
      <trkpt lat="44.95798" lon="1.00434">
        <ele>65.883</ele>
        <time>2014-11-28T15:11:06Z</time>
      </trkpt>
      <trkpt lat="44.95805" lon="1.00402">
        <ele>65.154</ele>
        <time>2014-11-28T15:11:08Z</time>
      </trkpt>
      <trkpt lat="44.95821" lon="1.00348">
        <ele>64.753</ele>
        <time>2014-11-28T15:11:20Z</time>
      </trkpt>
      <trkpt lat="44.95844" lon="1.00285">
        <ele>64.773</ele>
        <time>2014-11-28T15:11:35Z</time>
      </trkpt>
      <trkpt lat="44.95876" lon="1.00232">
        <ele>66.328</ele>
        <time>2014-11-28T15:11:53Z</time>
      </trkpt>
      <trkpt lat="44.95917" lon="1.00183">
        <ele>65.495</ele>
        <time>2014-11-28T15:12:10Z</time>
      </trkpt>
      <trkpt lat="44.95955" lon="1.00174">
        <ele>65.809</ele>
        <time>2014-11-28T15:12:21Z</time>
      </trkpt>
      <trkpt lat="44.96002" lon="1.00182">
        <ele>66.474</ele>
        <time>2014-11-28T15:12:37Z</time>
      </trkpt>
      <trkpt lat="44.96038" lon="1.00187">
        <ele>66.932</ele>
        <time>2014-11-28T15:12:53Z</time>
      </trkpt>
      <trkpt lat="44.96062" lon="1.00212">
        <ele>69.06</ele>
        <time>2014-11-28T15:13:08Z</time>
      </trkpt>
      <trkpt lat="44.96094" lon="1.00247">
        <ele>72.385</ele>
        <time>2014-11-28T15:13:30Z</time>
      </trkpt>
      <trkpt lat="44.96106" lon="1.00262">
        <ele>75.466</ele>
        <time>2014-11-28T15:13:39Z</time>
      </trkpt>
      <trkpt lat="44.96139" lon="1.00297">
        <ele>78.677</ele>
        <time>2014-11-28T15:14:03Z</time>
      </trkpt>
      <trkpt lat="44.96173" lon="1.00322">
        <ele>80.925</ele>
        <time>2014-11-28T15:14:25Z</time>
      </trkpt>
      <trkpt lat="44.96194" lon="1.00332">
        <ele>84.216</ele>
        <time>2014-11-28T15:14:37Z</time>
      </trkpt>
      <trkpt lat="44.96238" lon="1.0035">
        <ele>87.322</ele>
        <time>2014-11-28T15:15:02Z</time>
      </trkpt>
      <trkpt lat="44.96267" lon="1.00357">
        <ele>90.448</ele>
        <time>2014-11-28T15:15:19Z</time>
      </trkpt>
      <trkpt lat="44.9631" lon="1.00371">
        <ele>93.751</ele>
        <time>2014-11-28T15:15:42Z</time>
      </trkpt>
      <trkpt lat="44.96369" lon="1.00397">
        <ele>96.658</ele>
        <time>2014-11-28T15:16:13Z</time>
      </trkpt>
      <trkpt lat="44.96412" lon="1.00424">
        <ele>99.821</ele>
        <time>2014-11-28T15:16:37Z</time>
      </trkpt>
      <trkpt lat="44.96416" lon="1.00427">
        <ele>100.369</ele>
        <time>2014-11-28T15:16:40Z</time>
      </trkpt>
      <trkpt lat="44.96462" lon="1.00461">
        <ele>103.402</ele>
        <time>2014-11-28T15:17:07Z</time>
      </trkpt>
      <trkpt lat="44.9651" lon="1.00492">
        <ele>106.094</ele>
        <time>2014-11-28T15:17:35Z</time>
      </trkpt>
      <trkpt lat="44.96546" lon="1.00509">
        <ele>109.323</ele>
        <time>2014-11-28T15:17:56Z</time>
      </trkpt>
      <trkpt lat="44.96566" lon="1.00518">
        <ele>110.628</ele>
        <time>2014-11-28T15:18:07Z</time>
      </trkpt>
      <trkpt lat="44.96592" lon="1.0053">
        <ele>112.154</ele>
        <time>2014-11-28T15:18:23Z</time>
      </trkpt>
      <trkpt lat="44.96618" lon="1.00543">
        <ele>114.338</ele>
        <time>2014-11-28T15:18:37Z</time>
      </trkpt>
      <trkpt lat="44.96659" lon="1.00596">
        <ele>115.669</ele>
        <time>2014-11-28T15:19:05Z</time>
      </trkpt>
      <trkpt lat="44.9667" lon="1.00632">
        <ele>118.9</ele>
        <time>2014-11-28T15:19:20Z</time>
      </trkpt>
      <trkpt lat="44.96675" lon="1.00671">
        <ele>121.832</ele>
        <time>2014-11-28T15:19:35Z</time>
      </trkpt>
      <trkpt lat="44.96673" lon="1.00688">
        <ele>123.274</ele>
        <time>2014-11-28T15:19:42Z</time>
      </trkpt>
      <trkpt lat="44.96666" lon="1.00738">
        <ele>126.076</ele>
        <time>2014-11-28T15:20:04Z</time>
      </trkpt>
      <trkpt lat="44.9666" lon="1.00768">
        <ele>128.618</ele>
        <time>2014-11-28T15:20:18Z</time>
      </trkpt>
      <trkpt lat="44.96654" lon="1.00759">
        <ele>129.984</ele>
        <time>2014-11-28T15:20:27Z</time>
      </trkpt>
      <trkpt lat="44.9664" lon="1.00727">
        <ele>133.366</ele>
        <time>2014-11-28T15:20:43Z</time>
      </trkpt>
      <trkpt lat="44.9662" lon="1.00697">
        <ele>134.16</ele>
        <time>2014-11-28T15:21:00Z</time>
      </trkpt>
      <trkpt lat="44.96612" lon="1.00687">
        <ele>133.333</ele>
        <time>2014-11-28T15:21:15Z</time>
      </trkpt>
      <trkpt lat="44.96612" lon="1.00687">
        <ele>133.254</ele>
        <time>2014-11-28T15:21:28Z</time>
      </trkpt>
      <trkpt lat="44.96624" lon="1.00663">
        <ele>130.486</ele>
        <time>2014-11-28T15:21:35Z</time>
      </trkpt>
      <trkpt lat="44.96623" lon="1.00663">
        <ele>129.598</ele>
        <time>2014-11-28T15:21:46Z</time>
      </trkpt>
      <trkpt lat="44.96623" lon="1.00666">
        <ele>128.859</ele>
        <time>2014-11-28T15:22:18Z</time>
      </trkpt>
    </trkseg>
  </trk>
</gpx>